<?xml version="1.0" encoding="UTF-8" standalone="no" ?>
<gpx xmlns="http://www.topografix.com/GPX/1/1" xmlns:xsi="http://www.w3.org/2001/XMLSchema-instance" xsi:schemaLocation="http://www.topografix.com/GPX/1/1 http://www.topografix.com/GPX/1/1/gpx.xsd" version="1.1" creator="VisuGPX - https://www.visugpx.com">
  <metadata>
    <name>Lagrasse et les chemins de N.D. du Carla.</name>
    <desc><![CDATA[Départ sur un petit chemin près de Lagrasse. Il nous faudra un bon moment pour découvrir N.D. du Carla... ici c'est un lieu calme, ici la vie est profonde. Nous sommes ailleurs. Le chemin de retour vers Lagrasse est de la descente  sur la montagne nous marchons et regardons le monde... arrivée à Lagrasse dans l'ombre des rues et les pierres . 
Photos de la randonnée: lien... 
http://vttolonzac.blogspot.fr/2015/09/notre-balade-lagrasse.html]]></desc>
  </metadata>
  <trk>
    <name><![CDATA[07-SEP-15 15:01:08]]></name>
    <trkseg>
      <trkpt lat="43.09458" lon="2.60122">
        <ele>90.98</ele>
        <time>2015-09-07T06:49:57Z</time>
      </trkpt>
      <trkpt lat="43.09457" lon="2.60123">
        <ele>90.5</ele>
        <time>2015-09-07T06:49:58Z</time>
      </trkpt>
      <trkpt lat="43.09458" lon="2.60123">
        <ele>86.18</ele>
        <time>2015-09-07T06:50:01Z</time>
      </trkpt>
      <trkpt lat="43.09458" lon="2.60122">
        <ele>91.46</ele>
        <time>2015-09-07T06:50:02Z</time>
      </trkpt>
      <trkpt lat="43.09457" lon="2.60122">
        <ele>95.31</ele>
        <time>2015-09-07T06:50:12Z</time>
      </trkpt>
      <trkpt lat="43.09457" lon="2.60122">
        <ele>98.67</ele>
        <time>2015-09-07T06:50:15Z</time>
      </trkpt>
      <trkpt lat="43.09457" lon="2.60122">
        <ele>102.04</ele>
        <time>2015-09-07T06:50:19Z</time>
      </trkpt>
      <trkpt lat="43.09458" lon="2.60122">
        <ele>105.88</ele>
        <time>2015-09-07T06:50:22Z</time>
      </trkpt>
      <trkpt lat="43.09458" lon="2.60122">
        <ele>105.88</ele>
        <time>2015-09-07T06:50:23Z</time>
      </trkpt>
      <trkpt lat="43.09457" lon="2.60122">
        <ele>108.29</ele>
        <time>2015-09-07T06:50:26Z</time>
      </trkpt>
      <trkpt lat="43.09457" lon="2.60122">
        <ele>110.69</ele>
        <time>2015-09-07T06:50:31Z</time>
      </trkpt>
      <trkpt lat="43.09458" lon="2.60122">
        <ele>113.09</ele>
        <time>2015-09-07T06:50:36Z</time>
      </trkpt>
      <trkpt lat="43.09458" lon="2.60123">
        <ele>115.5</ele>
        <time>2015-09-07T06:50:41Z</time>
      </trkpt>
      <trkpt lat="43.09458" lon="2.60126">
        <ele>119.82</ele>
        <time>2015-09-07T06:50:54Z</time>
      </trkpt>
      <trkpt lat="43.09456" lon="2.60135">
        <ele>120.78</ele>
        <time>2015-09-07T06:51:09Z</time>
      </trkpt>
      <trkpt lat="43.09456" lon="2.60141">
        <ele>121.74</ele>
        <time>2015-09-07T06:51:23Z</time>
      </trkpt>
      <trkpt lat="43.0946" lon="2.60152">
        <ele>122.71</ele>
        <time>2015-09-07T06:51:35Z</time>
      </trkpt>
      <trkpt lat="43.09463" lon="2.60168">
        <ele>121.74</ele>
        <time>2015-09-07T06:51:50Z</time>
      </trkpt>
      <trkpt lat="43.09461" lon="2.60176">
        <ele>121.74</ele>
        <time>2015-09-07T06:51:56Z</time>
      </trkpt>
      <trkpt lat="43.09462" lon="2.60179">
        <ele>121.74</ele>
        <time>2015-09-07T06:51:58Z</time>
      </trkpt>
      <trkpt lat="43.09461" lon="2.60191">
        <ele>121.74</ele>
        <time>2015-09-07T06:52:08Z</time>
      </trkpt>
      <trkpt lat="43.09462" lon="2.60197">
        <ele>121.74</ele>
        <time>2015-09-07T06:52:14Z</time>
      </trkpt>
      <trkpt lat="43.09464" lon="2.60209">
        <ele>121.74</ele>
        <time>2015-09-07T06:52:23Z</time>
      </trkpt>
      <trkpt lat="43.09465" lon="2.60219">
        <ele>121.74</ele>
        <time>2015-09-07T06:52:33Z</time>
      </trkpt>
      <trkpt lat="43.09464" lon="2.60223">
        <ele>121.74</ele>
        <time>2015-09-07T06:52:36Z</time>
      </trkpt>
      <trkpt lat="43.09465" lon="2.60237">
        <ele>121.74</ele>
        <time>2015-09-07T06:52:44Z</time>
      </trkpt>
      <trkpt lat="43.09463" lon="2.60248">
        <ele>121.74</ele>
        <time>2015-09-07T06:52:52Z</time>
      </trkpt>
      <trkpt lat="43.09462" lon="2.60263">
        <ele>121.74</ele>
        <time>2015-09-07T06:53:01Z</time>
      </trkpt>
      <trkpt lat="43.09463" lon="2.60278">
        <ele>121.26</ele>
        <time>2015-09-07T06:53:13Z</time>
      </trkpt>
      <trkpt lat="43.09464" lon="2.60284">
        <ele>121.26</ele>
        <time>2015-09-07T06:53:19Z</time>
      </trkpt>
      <trkpt lat="43.09466" lon="2.60293">
        <ele>121.74</ele>
        <time>2015-09-07T06:53:25Z</time>
      </trkpt>
      <trkpt lat="43.09468" lon="2.60311">
        <ele>121.74</ele>
        <time>2015-09-07T06:53:37Z</time>
      </trkpt>
      <trkpt lat="43.09468" lon="2.60316">
        <ele>121.74</ele>
        <time>2015-09-07T06:53:40Z</time>
      </trkpt>
      <trkpt lat="43.09468" lon="2.60324">
        <ele>121.74</ele>
        <time>2015-09-07T06:53:45Z</time>
      </trkpt>
      <trkpt lat="43.09473" lon="2.60328">
        <ele>121.74</ele>
        <time>2015-09-07T06:53:49Z</time>
      </trkpt>
      <trkpt lat="43.09473" lon="2.60357">
        <ele>122.22</ele>
        <time>2015-09-07T06:54:04Z</time>
      </trkpt>
      <trkpt lat="43.09476" lon="2.6038">
        <ele>120.78</ele>
        <time>2015-09-07T06:54:19Z</time>
      </trkpt>
      <trkpt lat="43.09487" lon="2.6041">
        <ele>121.26</ele>
        <time>2015-09-07T06:54:39Z</time>
      </trkpt>
      <trkpt lat="43.09496" lon="2.60436">
        <ele>121.26</ele>
        <time>2015-09-07T06:54:54Z</time>
      </trkpt>
      <trkpt lat="43.095" lon="2.60449">
        <ele>120.78</ele>
        <time>2015-09-07T06:55:04Z</time>
      </trkpt>
      <trkpt lat="43.09506" lon="2.60461">
        <ele>120.3</ele>
        <time>2015-09-07T06:55:13Z</time>
      </trkpt>
      <trkpt lat="43.09517" lon="2.60482">
        <ele>119.82</ele>
        <time>2015-09-07T06:55:28Z</time>
      </trkpt>
      <trkpt lat="43.09525" lon="2.60504">
        <ele>119.82</ele>
        <time>2015-09-07T06:55:44Z</time>
      </trkpt>
      <trkpt lat="43.09527" lon="2.60509">
        <ele>119.34</ele>
        <time>2015-09-07T06:55:47Z</time>
      </trkpt>
      <trkpt lat="43.09534" lon="2.60518">
        <ele>119.82</ele>
        <time>2015-09-07T06:55:56Z</time>
      </trkpt>
      <trkpt lat="43.09535" lon="2.60522">
        <ele>119.34</ele>
        <time>2015-09-07T06:55:58Z</time>
      </trkpt>
      <trkpt lat="43.09547" lon="2.60526">
        <ele>120.3</ele>
        <time>2015-09-07T06:56:15Z</time>
      </trkpt>
      <trkpt lat="43.09543" lon="2.60529">
        <ele>119.82</ele>
        <time>2015-09-07T06:56:27Z</time>
      </trkpt>
      <trkpt lat="43.09547" lon="2.6052">
        <ele>120.3</ele>
        <time>2015-09-07T06:56:36Z</time>
      </trkpt>
      <trkpt lat="43.09568" lon="2.60499">
        <ele>120.78</ele>
        <time>2015-09-07T06:56:56Z</time>
      </trkpt>
      <trkpt lat="43.09581" lon="2.60486">
        <ele>120.78</ele>
        <time>2015-09-07T06:57:11Z</time>
      </trkpt>
      <trkpt lat="43.09598" lon="2.60467">
        <ele>121.74</ele>
        <time>2015-09-07T06:57:28Z</time>
      </trkpt>
      <trkpt lat="43.09599" lon="2.60465">
        <ele>121.26</ele>
        <time>2015-09-07T06:57:33Z</time>
      </trkpt>
      <trkpt lat="43.09601" lon="2.60463">
        <ele>121.26</ele>
        <time>2015-09-07T06:57:36Z</time>
      </trkpt>
      <trkpt lat="43.09607" lon="2.60459">
        <ele>121.26</ele>
        <time>2015-09-07T06:57:41Z</time>
      </trkpt>
      <trkpt lat="43.09624" lon="2.60443">
        <ele>122.71</ele>
        <time>2015-09-07T06:57:59Z</time>
      </trkpt>
      <trkpt lat="43.09638" lon="2.6043">
        <ele>124.15</ele>
        <time>2015-09-07T06:58:15Z</time>
      </trkpt>
      <trkpt lat="43.09639" lon="2.60429">
        <ele>124.15</ele>
        <time>2015-09-07T06:58:16Z</time>
      </trkpt>
      <trkpt lat="43.09642" lon="2.60426">
        <ele>124.15</ele>
        <time>2015-09-07T06:58:19Z</time>
      </trkpt>
      <trkpt lat="43.09656" lon="2.60411">
        <ele>126.07</ele>
        <time>2015-09-07T06:58:36Z</time>
      </trkpt>
      <trkpt lat="43.09666" lon="2.60399">
        <ele>127.03</ele>
        <time>2015-09-07T06:58:51Z</time>
      </trkpt>
      <trkpt lat="43.09668" lon="2.60378">
        <ele>128.95</ele>
        <time>2015-09-07T06:59:04Z</time>
      </trkpt>
      <trkpt lat="43.09665" lon="2.60369">
        <ele>129.92</ele>
        <time>2015-09-07T06:59:12Z</time>
      </trkpt>
      <trkpt lat="43.09662" lon="2.60344">
        <ele>130.88</ele>
        <time>2015-09-07T06:59:29Z</time>
      </trkpt>
      <trkpt lat="43.09658" lon="2.60318">
        <ele>132.8</ele>
        <time>2015-09-07T06:59:47Z</time>
      </trkpt>
      <trkpt lat="43.09653" lon="2.60296">
        <ele>134.24</ele>
        <time>2015-09-07T07:00:05Z</time>
      </trkpt>
      <trkpt lat="43.0965" lon="2.60277">
        <ele>135.2</ele>
        <time>2015-09-07T07:00:19Z</time>
      </trkpt>
      <trkpt lat="43.09646" lon="2.60257">
        <ele>137.13</ele>
        <time>2015-09-07T07:00:34Z</time>
      </trkpt>
      <trkpt lat="43.09642" lon="2.60235">
        <ele>137.61</ele>
        <time>2015-09-07T07:00:52Z</time>
      </trkpt>
      <trkpt lat="43.09638" lon="2.60214">
        <ele>139.53</ele>
        <time>2015-09-07T07:01:10Z</time>
      </trkpt>
      <trkpt lat="43.09631" lon="2.60189">
        <ele>140.49</ele>
        <time>2015-09-07T07:01:28Z</time>
      </trkpt>
      <trkpt lat="43.09629" lon="2.60167">
        <ele>140.97</ele>
        <time>2015-09-07T07:01:44Z</time>
      </trkpt>
      <trkpt lat="43.09631" lon="2.60141">
        <ele>143.37</ele>
        <time>2015-09-07T07:02:01Z</time>
      </trkpt>
      <trkpt lat="43.09631" lon="2.60126">
        <ele>144.82</ele>
        <time>2015-09-07T07:02:11Z</time>
      </trkpt>
      <trkpt lat="43.09632" lon="2.6011">
        <ele>145.3</ele>
        <time>2015-09-07T07:02:25Z</time>
      </trkpt>
      <trkpt lat="43.09633" lon="2.60087">
        <ele>146.74</ele>
        <time>2015-09-07T07:02:40Z</time>
      </trkpt>
      <trkpt lat="43.09633" lon="2.60085">
        <ele>147.22</ele>
        <time>2015-09-07T07:02:42Z</time>
      </trkpt>
      <trkpt lat="43.09633" lon="2.6006">
        <ele>147.7</ele>
        <time>2015-09-07T07:03:00Z</time>
      </trkpt>
      <trkpt lat="43.09634" lon="2.60037">
        <ele>149.14</ele>
        <time>2015-09-07T07:03:17Z</time>
      </trkpt>
      <trkpt lat="43.09632" lon="2.60015">
        <ele>150.58</ele>
        <time>2015-09-07T07:03:33Z</time>
      </trkpt>
      <trkpt lat="43.09628" lon="2.60004">
        <ele>150.58</ele>
        <time>2015-09-07T07:03:41Z</time>
      </trkpt>
      <trkpt lat="43.0962" lon="2.59986">
        <ele>152.03</ele>
        <time>2015-09-07T07:03:58Z</time>
      </trkpt>
      <trkpt lat="43.09607" lon="2.59973">
        <ele>153.47</ele>
        <time>2015-09-07T07:04:13Z</time>
      </trkpt>
      <trkpt lat="43.09604" lon="2.59968">
        <ele>153.47</ele>
        <time>2015-09-07T07:04:18Z</time>
      </trkpt>
      <trkpt lat="43.09598" lon="2.59961">
        <ele>155.39</ele>
        <time>2015-09-07T07:04:28Z</time>
      </trkpt>
      <trkpt lat="43.09586" lon="2.59952">
        <ele>155.39</ele>
        <time>2015-09-07T07:04:42Z</time>
      </trkpt>
      <trkpt lat="43.09582" lon="2.5995">
        <ele>154.91</ele>
        <time>2015-09-07T07:04:45Z</time>
      </trkpt>
      <trkpt lat="43.09575" lon="2.59941">
        <ele>154.43</ele>
        <time>2015-09-07T07:04:53Z</time>
      </trkpt>
      <trkpt lat="43.09576" lon="2.59936">
        <ele>154.91</ele>
        <time>2015-09-07T07:04:56Z</time>
      </trkpt>
      <trkpt lat="43.09578" lon="2.59918">
        <ele>157.79</ele>
        <time>2015-09-07T07:05:09Z</time>
      </trkpt>
      <trkpt lat="43.0958" lon="2.59909">
        <ele>157.31</ele>
        <time>2015-09-07T07:05:17Z</time>
      </trkpt>
      <trkpt lat="43.09579" lon="2.59905">
        <ele>156.83</ele>
        <time>2015-09-07T07:05:19Z</time>
      </trkpt>
      <trkpt lat="43.0958" lon="2.59892">
        <ele>158.27</ele>
        <time>2015-09-07T07:05:34Z</time>
      </trkpt>
      <trkpt lat="43.09581" lon="2.59882">
        <ele>158.75</ele>
        <time>2015-09-07T07:05:42Z</time>
      </trkpt>
      <trkpt lat="43.0958" lon="2.59874">
        <ele>159.72</ele>
        <time>2015-09-07T07:05:48Z</time>
      </trkpt>
      <trkpt lat="43.09581" lon="2.5987">
        <ele>159.72</ele>
        <time>2015-09-07T07:05:51Z</time>
      </trkpt>
      <trkpt lat="43.09579" lon="2.59847">
        <ele>161.16</ele>
        <time>2015-09-07T07:06:05Z</time>
      </trkpt>
      <trkpt lat="43.09578" lon="2.59837">
        <ele>163.08</ele>
        <time>2015-09-07T07:06:14Z</time>
      </trkpt>
      <trkpt lat="43.09572" lon="2.5982">
        <ele>163.56</ele>
        <time>2015-09-07T07:06:29Z</time>
      </trkpt>
      <trkpt lat="43.09564" lon="2.59805">
        <ele>164.52</ele>
        <time>2015-09-07T07:06:44Z</time>
      </trkpt>
      <trkpt lat="43.09554" lon="2.59789">
        <ele>165.48</ele>
        <time>2015-09-07T07:06:58Z</time>
      </trkpt>
      <trkpt lat="43.09548" lon="2.5978">
        <ele>166.93</ele>
        <time>2015-09-07T07:07:06Z</time>
      </trkpt>
      <trkpt lat="43.09542" lon="2.59757">
        <ele>167.89</ele>
        <time>2015-09-07T07:07:23Z</time>
      </trkpt>
      <trkpt lat="43.09542" lon="2.59741">
        <ele>168.37</ele>
        <time>2015-09-07T07:07:41Z</time>
      </trkpt>
      <trkpt lat="43.09544" lon="2.59735">
        <ele>169.33</ele>
        <time>2015-09-07T07:07:50Z</time>
      </trkpt>
      <trkpt lat="43.09542" lon="2.59711">
        <ele>171.25</ele>
        <time>2015-09-07T07:08:06Z</time>
      </trkpt>
      <trkpt lat="43.09543" lon="2.59706">
        <ele>170.29</ele>
        <time>2015-09-07T07:08:18Z</time>
      </trkpt>
      <trkpt lat="43.09542" lon="2.59701">
        <ele>171.25</ele>
        <time>2015-09-07T07:08:21Z</time>
      </trkpt>
      <trkpt lat="43.09537" lon="2.59687">
        <ele>172.21</ele>
        <time>2015-09-07T07:08:37Z</time>
      </trkpt>
      <trkpt lat="43.09538" lon="2.59688">
        <ele>172.69</ele>
        <time>2015-09-07T07:08:55Z</time>
      </trkpt>
      <trkpt lat="43.09538" lon="2.59687">
        <ele>171.73</ele>
        <time>2015-09-07T07:09:21Z</time>
      </trkpt>
      <trkpt lat="43.09539" lon="2.59687">
        <ele>168.37</ele>
        <time>2015-09-07T07:09:33Z</time>
      </trkpt>
      <trkpt lat="43.09539" lon="2.59687">
        <ele>170.29</ele>
        <time>2015-09-07T07:09:34Z</time>
      </trkpt>
      <trkpt lat="43.0954" lon="2.59688">
        <ele>171.73</ele>
        <time>2015-09-07T07:09:57Z</time>
      </trkpt>
      <trkpt lat="43.0954" lon="2.59688">
        <ele>177.02</ele>
        <time>2015-09-07T07:10:06Z</time>
      </trkpt>
      <trkpt lat="43.0954" lon="2.59688">
        <ele>172.21</ele>
        <time>2015-09-07T07:10:07Z</time>
      </trkpt>
      <trkpt lat="43.0954" lon="2.59688">
        <ele>168.37</ele>
        <time>2015-09-07T07:10:22Z</time>
      </trkpt>
      <trkpt lat="43.0954" lon="2.59688">
        <ele>172.69</ele>
        <time>2015-09-07T07:10:23Z</time>
      </trkpt>
      <trkpt lat="43.0954" lon="2.59688">
        <ele>172.21</ele>
        <time>2015-09-07T07:10:24Z</time>
      </trkpt>
      <trkpt lat="43.0954" lon="2.59688">
        <ele>171.25</ele>
        <time>2015-09-07T07:10:41Z</time>
      </trkpt>
      <trkpt lat="43.0954" lon="2.59688">
        <ele>175.1</ele>
        <time>2015-09-07T07:10:43Z</time>
      </trkpt>
      <trkpt lat="43.0954" lon="2.59688">
        <ele>174.62</ele>
        <time>2015-09-07T07:10:44Z</time>
      </trkpt>
      <trkpt lat="43.0954" lon="2.59688">
        <ele>171.25</ele>
        <time>2015-09-07T07:10:46Z</time>
      </trkpt>
      <trkpt lat="43.0954" lon="2.59688">
        <ele>172.21</ele>
        <time>2015-09-07T07:11:02Z</time>
      </trkpt>
      <trkpt lat="43.0954" lon="2.59688">
        <ele>168.37</ele>
        <time>2015-09-07T07:11:08Z</time>
      </trkpt>
      <trkpt lat="43.0954" lon="2.59688">
        <ele>172.21</ele>
        <time>2015-09-07T07:11:09Z</time>
      </trkpt>
      <trkpt lat="43.09541" lon="2.5968">
        <ele>172.69</ele>
        <time>2015-09-07T07:11:24Z</time>
      </trkpt>
      <trkpt lat="43.09542" lon="2.59677">
        <ele>172.21</ele>
        <time>2015-09-07T07:11:26Z</time>
      </trkpt>
      <trkpt lat="43.09545" lon="2.59664">
        <ele>174.62</ele>
        <time>2015-09-07T07:11:37Z</time>
      </trkpt>
      <trkpt lat="43.09546" lon="2.59662">
        <ele>172.21</ele>
        <time>2015-09-07T07:11:38Z</time>
      </trkpt>
      <trkpt lat="43.09552" lon="2.59635">
        <ele>176.06</ele>
        <time>2015-09-07T07:11:50Z</time>
      </trkpt>
      <trkpt lat="43.09558" lon="2.5962">
        <ele>177.5</ele>
        <time>2015-09-07T07:12:00Z</time>
      </trkpt>
      <trkpt lat="43.09565" lon="2.59599">
        <ele>177.5</ele>
        <time>2015-09-07T07:12:13Z</time>
      </trkpt>
      <trkpt lat="43.09565" lon="2.59594">
        <ele>178.94</ele>
        <time>2015-09-07T07:12:16Z</time>
      </trkpt>
      <trkpt lat="43.09569" lon="2.59585">
        <ele>179.9</ele>
        <time>2015-09-07T07:12:24Z</time>
      </trkpt>
      <trkpt lat="43.0957" lon="2.59578">
        <ele>183.75</ele>
        <time>2015-09-07T07:12:29Z</time>
      </trkpt>
      <trkpt lat="43.0957" lon="2.59577">
        <ele>178.94</ele>
        <time>2015-09-07T07:12:30Z</time>
      </trkpt>
      <trkpt lat="43.0957" lon="2.59575">
        <ele>183.75</ele>
        <time>2015-09-07T07:12:31Z</time>
      </trkpt>
      <trkpt lat="43.09571" lon="2.59573">
        <ele>179.42</ele>
        <time>2015-09-07T07:12:35Z</time>
      </trkpt>
      <trkpt lat="43.09571" lon="2.59569">
        <ele>180.87</ele>
        <time>2015-09-07T07:12:38Z</time>
      </trkpt>
      <trkpt lat="43.09573" lon="2.59551">
        <ele>190.96</ele>
        <time>2015-09-07T07:12:51Z</time>
      </trkpt>
      <trkpt lat="43.09573" lon="2.5955">
        <ele>182.31</ele>
        <time>2015-09-07T07:12:52Z</time>
      </trkpt>
      <trkpt lat="43.09574" lon="2.59547">
        <ele>181.83</ele>
        <time>2015-09-07T07:12:54Z</time>
      </trkpt>
      <trkpt lat="43.09575" lon="2.59544">
        <ele>177.02</ele>
        <time>2015-09-07T07:12:57Z</time>
      </trkpt>
      <trkpt lat="43.09576" lon="2.59542">
        <ele>182.31</ele>
        <time>2015-09-07T07:12:58Z</time>
      </trkpt>
      <trkpt lat="43.09576" lon="2.59538">
        <ele>181.83</ele>
        <time>2015-09-07T07:13:01Z</time>
      </trkpt>
      <trkpt lat="43.09583" lon="2.59515">
        <ele>183.75</ele>
        <time>2015-09-07T07:13:19Z</time>
      </trkpt>
      <trkpt lat="43.09588" lon="2.59489">
        <ele>185.67</ele>
        <time>2015-09-07T07:13:38Z</time>
      </trkpt>
      <trkpt lat="43.09597" lon="2.59465">
        <ele>187.59</ele>
        <time>2015-09-07T07:13:59Z</time>
      </trkpt>
      <trkpt lat="43.09607" lon="2.59447">
        <ele>188.56</ele>
        <time>2015-09-07T07:14:18Z</time>
      </trkpt>
      <trkpt lat="43.09618" lon="2.59428">
        <ele>190</ele>
        <time>2015-09-07T07:14:36Z</time>
      </trkpt>
      <trkpt lat="43.09624" lon="2.59413">
        <ele>190.96</ele>
        <time>2015-09-07T07:14:51Z</time>
      </trkpt>
      <trkpt lat="43.09635" lon="2.59402">
        <ele>192.4</ele>
        <time>2015-09-07T07:15:09Z</time>
      </trkpt>
      <trkpt lat="43.09654" lon="2.59389">
        <ele>193.84</ele>
        <time>2015-09-07T07:15:28Z</time>
      </trkpt>
      <trkpt lat="43.0967" lon="2.5938">
        <ele>195.77</ele>
        <time>2015-09-07T07:15:46Z</time>
      </trkpt>
      <trkpt lat="43.09682" lon="2.59364">
        <ele>196.25</ele>
        <time>2015-09-07T07:16:04Z</time>
      </trkpt>
      <trkpt lat="43.09681" lon="2.59336">
        <ele>199.13</ele>
        <time>2015-09-07T07:16:22Z</time>
      </trkpt>
      <trkpt lat="43.09677" lon="2.59321">
        <ele>200.09</ele>
        <time>2015-09-07T07:16:29Z</time>
      </trkpt>
      <trkpt lat="43.09677" lon="2.59315">
        <ele>200.09</ele>
        <time>2015-09-07T07:16:31Z</time>
      </trkpt>
      <trkpt lat="43.09677" lon="2.59308">
        <ele>200.57</ele>
        <time>2015-09-07T07:16:34Z</time>
      </trkpt>
      <trkpt lat="43.09676" lon="2.59297">
        <ele>201.53</ele>
        <time>2015-09-07T07:16:39Z</time>
      </trkpt>
      <trkpt lat="43.0968" lon="2.59286">
        <ele>202.01</ele>
        <time>2015-09-07T07:16:43Z</time>
      </trkpt>
      <trkpt lat="43.09679" lon="2.59269">
        <ele>203.94</ele>
        <time>2015-09-07T07:16:49Z</time>
      </trkpt>
      <trkpt lat="43.09682" lon="2.59246">
        <ele>205.38</ele>
        <time>2015-09-07T07:17:05Z</time>
      </trkpt>
      <trkpt lat="43.09687" lon="2.59231">
        <ele>206.82</ele>
        <time>2015-09-07T07:17:23Z</time>
      </trkpt>
      <trkpt lat="43.09685" lon="2.59224">
        <ele>207.3</ele>
        <time>2015-09-07T07:17:37Z</time>
      </trkpt>
      <trkpt lat="43.09686" lon="2.59222">
        <ele>207.3</ele>
        <time>2015-09-07T07:17:51Z</time>
      </trkpt>
      <trkpt lat="43.09692" lon="2.59195">
        <ele>209.22</ele>
        <time>2015-09-07T07:18:13Z</time>
      </trkpt>
      <trkpt lat="43.09693" lon="2.59167">
        <ele>213.07</ele>
        <time>2015-09-07T07:18:29Z</time>
      </trkpt>
      <trkpt lat="43.09694" lon="2.59155">
        <ele>214.03</ele>
        <time>2015-09-07T07:18:39Z</time>
      </trkpt>
      <trkpt lat="43.09691" lon="2.59141">
        <ele>214.99</ele>
        <time>2015-09-07T07:18:51Z</time>
      </trkpt>
      <trkpt lat="43.09689" lon="2.59115">
        <ele>216.43</ele>
        <time>2015-09-07T07:19:08Z</time>
      </trkpt>
      <trkpt lat="43.09686" lon="2.59087">
        <ele>219.32</ele>
        <time>2015-09-07T07:19:26Z</time>
      </trkpt>
      <trkpt lat="43.09686" lon="2.59065">
        <ele>221.24</ele>
        <time>2015-09-07T07:19:40Z</time>
      </trkpt>
      <trkpt lat="43.09687" lon="2.59046">
        <ele>222.2</ele>
        <time>2015-09-07T07:19:56Z</time>
      </trkpt>
      <trkpt lat="43.09687" lon="2.59041">
        <ele>222.2</ele>
        <time>2015-09-07T07:20:09Z</time>
      </trkpt>
      <trkpt lat="43.09688" lon="2.59041">
        <ele>222.68</ele>
        <time>2015-09-07T07:20:19Z</time>
      </trkpt>
      <trkpt lat="43.09689" lon="2.59042">
        <ele>220.76</ele>
        <time>2015-09-07T07:20:29Z</time>
      </trkpt>
      <trkpt lat="43.09689" lon="2.59043">
        <ele>221.72</ele>
        <time>2015-09-07T07:20:42Z</time>
      </trkpt>
      <trkpt lat="43.09689" lon="2.59042">
        <ele>222.2</ele>
        <time>2015-09-07T07:20:52Z</time>
      </trkpt>
      <trkpt lat="43.09689" lon="2.59042">
        <ele>221.24</ele>
        <time>2015-09-07T07:21:03Z</time>
      </trkpt>
      <trkpt lat="43.09689" lon="2.59043">
        <ele>221.72</ele>
        <time>2015-09-07T07:21:18Z</time>
      </trkpt>
      <trkpt lat="43.09689" lon="2.59043">
        <ele>221.24</ele>
        <time>2015-09-07T07:21:28Z</time>
      </trkpt>
      <trkpt lat="43.09689" lon="2.59044">
        <ele>221.24</ele>
        <time>2015-09-07T07:21:41Z</time>
      </trkpt>
      <trkpt lat="43.09688" lon="2.59044">
        <ele>220.76</ele>
        <time>2015-09-07T07:21:49Z</time>
      </trkpt>
      <trkpt lat="43.09689" lon="2.59043">
        <ele>221.24</ele>
        <time>2015-09-07T07:22:02Z</time>
      </trkpt>
      <trkpt lat="43.09689" lon="2.59042">
        <ele>221.24</ele>
        <time>2015-09-07T07:22:08Z</time>
      </trkpt>
      <trkpt lat="43.09687" lon="2.59039">
        <ele>221.72</ele>
        <time>2015-09-07T07:22:17Z</time>
      </trkpt>
      <trkpt lat="43.09687" lon="2.59041">
        <ele>221.72</ele>
        <time>2015-09-07T07:22:30Z</time>
      </trkpt>
      <trkpt lat="43.09687" lon="2.5904">
        <ele>223.16</ele>
        <time>2015-09-07T07:22:44Z</time>
      </trkpt>
      <trkpt lat="43.09687" lon="2.59041">
        <ele>222.2</ele>
        <time>2015-09-07T07:22:56Z</time>
      </trkpt>
      <trkpt lat="43.09688" lon="2.59034">
        <ele>221.72</ele>
        <time>2015-09-07T07:23:02Z</time>
      </trkpt>
      <trkpt lat="43.09691" lon="2.59023">
        <ele>223.16</ele>
        <time>2015-09-07T07:23:14Z</time>
      </trkpt>
      <trkpt lat="43.09691" lon="2.59018">
        <ele>224.12</ele>
        <time>2015-09-07T07:23:27Z</time>
      </trkpt>
      <trkpt lat="43.0969" lon="2.59014">
        <ele>224.61</ele>
        <time>2015-09-07T07:23:39Z</time>
      </trkpt>
      <trkpt lat="43.0969" lon="2.59011">
        <ele>225.09</ele>
        <time>2015-09-07T07:23:41Z</time>
      </trkpt>
      <trkpt lat="43.09691" lon="2.58993">
        <ele>225.57</ele>
        <time>2015-09-07T07:23:52Z</time>
      </trkpt>
      <trkpt lat="43.09691" lon="2.58976">
        <ele>225.57</ele>
        <time>2015-09-07T07:24:04Z</time>
      </trkpt>
      <trkpt lat="43.09691" lon="2.58951">
        <ele>225.09</ele>
        <time>2015-09-07T07:24:21Z</time>
      </trkpt>
      <trkpt lat="43.09692" lon="2.58947">
        <ele>228.45</ele>
        <time>2015-09-07T07:24:24Z</time>
      </trkpt>
      <trkpt lat="43.09691" lon="2.58928">
        <ele>228.93</ele>
        <time>2015-09-07T07:24:40Z</time>
      </trkpt>
      <trkpt lat="43.09694" lon="2.58907">
        <ele>228.93</ele>
        <time>2015-09-07T07:24:53Z</time>
      </trkpt>
      <trkpt lat="43.09696" lon="2.58892">
        <ele>228.45</ele>
        <time>2015-09-07T07:25:03Z</time>
      </trkpt>
      <trkpt lat="43.09696" lon="2.58867">
        <ele>231.33</ele>
        <time>2015-09-07T07:25:22Z</time>
      </trkpt>
      <trkpt lat="43.09694" lon="2.58861">
        <ele>229.41</ele>
        <time>2015-09-07T07:25:27Z</time>
      </trkpt>
      <trkpt lat="43.09696" lon="2.58842">
        <ele>232.3</ele>
        <time>2015-09-07T07:25:44Z</time>
      </trkpt>
      <trkpt lat="43.09696" lon="2.58817">
        <ele>233.74</ele>
        <time>2015-09-07T07:26:04Z</time>
      </trkpt>
      <trkpt lat="43.09701" lon="2.58789">
        <ele>235.18</ele>
        <time>2015-09-07T07:26:23Z</time>
      </trkpt>
      <trkpt lat="43.09698" lon="2.58765">
        <ele>237.1</ele>
        <time>2015-09-07T07:26:44Z</time>
      </trkpt>
      <trkpt lat="43.09698" lon="2.58741">
        <ele>238.06</ele>
        <time>2015-09-07T07:27:03Z</time>
      </trkpt>
      <trkpt lat="43.09698" lon="2.58711">
        <ele>240.95</ele>
        <time>2015-09-07T07:27:22Z</time>
      </trkpt>
      <trkpt lat="43.097" lon="2.58693">
        <ele>242.39</ele>
        <time>2015-09-07T07:27:39Z</time>
      </trkpt>
      <trkpt lat="43.09701" lon="2.5867">
        <ele>244.31</ele>
        <time>2015-09-07T07:27:59Z</time>
      </trkpt>
      <trkpt lat="43.09701" lon="2.58667">
        <ele>245.27</ele>
        <time>2015-09-07T07:28:03Z</time>
      </trkpt>
      <trkpt lat="43.09709" lon="2.58647">
        <ele>246.72</ele>
        <time>2015-09-07T07:28:19Z</time>
      </trkpt>
      <trkpt lat="43.09712" lon="2.58639">
        <ele>248.16</ele>
        <time>2015-09-07T07:28:31Z</time>
      </trkpt>
      <trkpt lat="43.09722" lon="2.58612">
        <ele>249.6</ele>
        <time>2015-09-07T07:28:49Z</time>
      </trkpt>
      <trkpt lat="43.09732" lon="2.5859">
        <ele>252</ele>
        <time>2015-09-07T07:29:10Z</time>
      </trkpt>
      <trkpt lat="43.09734" lon="2.58566">
        <ele>253.93</ele>
        <time>2015-09-07T07:29:32Z</time>
      </trkpt>
      <trkpt lat="43.09736" lon="2.58548">
        <ele>255.85</ele>
        <time>2015-09-07T07:29:50Z</time>
      </trkpt>
      <trkpt lat="43.09736" lon="2.5854">
        <ele>259.21</ele>
        <time>2015-09-07T07:29:58Z</time>
      </trkpt>
      <trkpt lat="43.09735" lon="2.58538">
        <ele>255.85</ele>
        <time>2015-09-07T07:29:59Z</time>
      </trkpt>
      <trkpt lat="43.09735" lon="2.58523">
        <ele>256.33</ele>
        <time>2015-09-07T07:30:18Z</time>
      </trkpt>
      <trkpt lat="43.09735" lon="2.58512">
        <ele>257.77</ele>
        <time>2015-09-07T07:30:35Z</time>
      </trkpt>
      <trkpt lat="43.09733" lon="2.58497">
        <ele>260.17</ele>
        <time>2015-09-07T07:30:51Z</time>
      </trkpt>
      <trkpt lat="43.09731" lon="2.58472">
        <ele>261.62</ele>
        <time>2015-09-07T07:31:09Z</time>
      </trkpt>
      <trkpt lat="43.0973" lon="2.58456">
        <ele>262.58</ele>
        <time>2015-09-07T07:31:22Z</time>
      </trkpt>
      <trkpt lat="43.09728" lon="2.58432">
        <ele>263.06</ele>
        <time>2015-09-07T07:31:45Z</time>
      </trkpt>
      <trkpt lat="43.0973" lon="2.58411">
        <ele>264.98</ele>
        <time>2015-09-07T07:32:04Z</time>
      </trkpt>
      <trkpt lat="43.09734" lon="2.5839">
        <ele>266.42</ele>
        <time>2015-09-07T07:32:23Z</time>
      </trkpt>
      <trkpt lat="43.0974" lon="2.5837">
        <ele>267.38</ele>
        <time>2015-09-07T07:32:43Z</time>
      </trkpt>
      <trkpt lat="43.09743" lon="2.58352">
        <ele>268.35</ele>
        <time>2015-09-07T07:33:03Z</time>
      </trkpt>
      <trkpt lat="43.09747" lon="2.58333">
        <ele>269.79</ele>
        <time>2015-09-07T07:33:22Z</time>
      </trkpt>
      <trkpt lat="43.09749" lon="2.58326">
        <ele>270.75</ele>
        <time>2015-09-07T07:33:31Z</time>
      </trkpt>
      <trkpt lat="43.09753" lon="2.58305">
        <ele>272.19</ele>
        <time>2015-09-07T07:33:48Z</time>
      </trkpt>
      <trkpt lat="43.09756" lon="2.58296">
        <ele>271.71</ele>
        <time>2015-09-07T07:33:57Z</time>
      </trkpt>
      <trkpt lat="43.0976" lon="2.58278">
        <ele>272.67</ele>
        <time>2015-09-07T07:34:16Z</time>
      </trkpt>
      <trkpt lat="43.09767" lon="2.58262">
        <ele>274.59</ele>
        <time>2015-09-07T07:34:34Z</time>
      </trkpt>
      <trkpt lat="43.09768" lon="2.58246">
        <ele>276.04</ele>
        <time>2015-09-07T07:34:53Z</time>
      </trkpt>
      <trkpt lat="43.09772" lon="2.58228">
        <ele>276.04</ele>
        <time>2015-09-07T07:35:11Z</time>
      </trkpt>
      <trkpt lat="43.09777" lon="2.58215">
        <ele>277.96</ele>
        <time>2015-09-07T07:35:27Z</time>
      </trkpt>
      <trkpt lat="43.09781" lon="2.58199">
        <ele>279.4</ele>
        <time>2015-09-07T07:35:43Z</time>
      </trkpt>
      <trkpt lat="43.09781" lon="2.58196">
        <ele>279.88</ele>
        <time>2015-09-07T07:35:50Z</time>
      </trkpt>
      <trkpt lat="43.09782" lon="2.58184">
        <ele>280.84</ele>
        <time>2015-09-07T07:36:06Z</time>
      </trkpt>
      <trkpt lat="43.09785" lon="2.58159">
        <ele>281.32</ele>
        <time>2015-09-07T07:36:25Z</time>
      </trkpt>
      <trkpt lat="43.09788" lon="2.58137">
        <ele>283.25</ele>
        <time>2015-09-07T07:36:43Z</time>
      </trkpt>
      <trkpt lat="43.09789" lon="2.58134">
        <ele>284.21</ele>
        <time>2015-09-07T07:36:45Z</time>
      </trkpt>
      <trkpt lat="43.0979" lon="2.58117">
        <ele>284.69</ele>
        <time>2015-09-07T07:37:03Z</time>
      </trkpt>
      <trkpt lat="43.09794" lon="2.58099">
        <ele>285.17</ele>
        <time>2015-09-07T07:37:21Z</time>
      </trkpt>
      <trkpt lat="43.09798" lon="2.5807">
        <ele>286.61</ele>
        <time>2015-09-07T07:37:43Z</time>
      </trkpt>
      <trkpt lat="43.09795" lon="2.58054">
        <ele>286.61</ele>
        <time>2015-09-07T07:38:03Z</time>
      </trkpt>
      <trkpt lat="43.09792" lon="2.5804">
        <ele>288.53</ele>
        <time>2015-09-07T07:38:23Z</time>
      </trkpt>
      <trkpt lat="43.09789" lon="2.58012">
        <ele>289.97</ele>
        <time>2015-09-07T07:38:41Z</time>
      </trkpt>
      <trkpt lat="43.09784" lon="2.5799">
        <ele>289.01</ele>
        <time>2015-09-07T07:39:00Z</time>
      </trkpt>
      <trkpt lat="43.09783" lon="2.57987">
        <ele>289.97</ele>
        <time>2015-09-07T07:39:14Z</time>
      </trkpt>
      <trkpt lat="43.09783" lon="2.57986">
        <ele>289.49</ele>
        <time>2015-09-07T07:39:35Z</time>
      </trkpt>
      <trkpt lat="43.09783" lon="2.57986">
        <ele>289.01</ele>
        <time>2015-09-07T07:39:59Z</time>
      </trkpt>
      <trkpt lat="43.09783" lon="2.57986">
        <ele>288.05</ele>
        <time>2015-09-07T07:40:20Z</time>
      </trkpt>
      <trkpt lat="43.09783" lon="2.57986">
        <ele>289.01</ele>
        <time>2015-09-07T07:40:44Z</time>
      </trkpt>
      <trkpt lat="43.09783" lon="2.57986">
        <ele>289.49</ele>
        <time>2015-09-07T07:41:11Z</time>
      </trkpt>
      <trkpt lat="43.0978" lon="2.57979">
        <ele>289.49</ele>
        <time>2015-09-07T07:41:33Z</time>
      </trkpt>
      <trkpt lat="43.09774" lon="2.57958">
        <ele>290.46</ele>
        <time>2015-09-07T07:41:54Z</time>
      </trkpt>
      <trkpt lat="43.0977" lon="2.57931">
        <ele>292.38</ele>
        <time>2015-09-07T07:42:15Z</time>
      </trkpt>
      <trkpt lat="43.09769" lon="2.57913">
        <ele>293.34</ele>
        <time>2015-09-07T07:42:35Z</time>
      </trkpt>
      <trkpt lat="43.09767" lon="2.57907">
        <ele>294.78</ele>
        <time>2015-09-07T07:42:53Z</time>
      </trkpt>
      <trkpt lat="43.09764" lon="2.57897">
        <ele>296.7</ele>
        <time>2015-09-07T07:43:11Z</time>
      </trkpt>
      <trkpt lat="43.09756" lon="2.5786">
        <ele>297.18</ele>
        <time>2015-09-07T07:43:29Z</time>
      </trkpt>
      <trkpt lat="43.09753" lon="2.57839">
        <ele>299.11</ele>
        <time>2015-09-07T07:43:48Z</time>
      </trkpt>
      <trkpt lat="43.09751" lon="2.57828">
        <ele>300.07</ele>
        <time>2015-09-07T07:44:10Z</time>
      </trkpt>
      <trkpt lat="43.09748" lon="2.57798">
        <ele>301.51</ele>
        <time>2015-09-07T07:44:30Z</time>
      </trkpt>
      <trkpt lat="43.09747" lon="2.5779">
        <ele>302.95</ele>
        <time>2015-09-07T07:44:50Z</time>
      </trkpt>
      <trkpt lat="43.09745" lon="2.57766">
        <ele>305.36</ele>
        <time>2015-09-07T07:45:11Z</time>
      </trkpt>
      <trkpt lat="43.09736" lon="2.57753">
        <ele>306.32</ele>
        <time>2015-09-07T07:45:28Z</time>
      </trkpt>
      <trkpt lat="43.09725" lon="2.57748">
        <ele>309.68</ele>
        <time>2015-09-07T07:45:42Z</time>
      </trkpt>
      <trkpt lat="43.09714" lon="2.5775">
        <ele>309.68</ele>
        <time>2015-09-07T07:46:02Z</time>
      </trkpt>
      <trkpt lat="43.097" lon="2.57754">
        <ele>311.6</ele>
        <time>2015-09-07T07:46:25Z</time>
      </trkpt>
      <trkpt lat="43.09692" lon="2.57738">
        <ele>311.12</ele>
        <time>2015-09-07T07:46:45Z</time>
      </trkpt>
      <trkpt lat="43.09701" lon="2.57719">
        <ele>313.53</ele>
        <time>2015-09-07T07:47:05Z</time>
      </trkpt>
      <trkpt lat="43.09711" lon="2.57695">
        <ele>314.49</ele>
        <time>2015-09-07T07:47:25Z</time>
      </trkpt>
      <trkpt lat="43.09713" lon="2.57685">
        <ele>315.93</ele>
        <time>2015-09-07T07:47:34Z</time>
      </trkpt>
      <trkpt lat="43.09721" lon="2.5767">
        <ele>317.37</ele>
        <time>2015-09-07T07:47:56Z</time>
      </trkpt>
      <trkpt lat="43.09722" lon="2.57665">
        <ele>316.89</ele>
        <time>2015-09-07T07:48:16Z</time>
      </trkpt>
      <trkpt lat="43.09725" lon="2.57655">
        <ele>320.26</ele>
        <time>2015-09-07T07:48:33Z</time>
      </trkpt>
      <trkpt lat="43.09726" lon="2.57654">
        <ele>320.26</ele>
        <time>2015-09-07T07:48:34Z</time>
      </trkpt>
      <trkpt lat="43.0974" lon="2.57636">
        <ele>321.22</ele>
        <time>2015-09-07T07:48:53Z</time>
      </trkpt>
      <trkpt lat="43.0975" lon="2.57623">
        <ele>323.62</ele>
        <time>2015-09-07T07:49:10Z</time>
      </trkpt>
      <trkpt lat="43.09753" lon="2.57613">
        <ele>323.62</ele>
        <time>2015-09-07T07:49:24Z</time>
      </trkpt>
      <trkpt lat="43.09751" lon="2.576">
        <ele>325.54</ele>
        <time>2015-09-07T07:49:37Z</time>
      </trkpt>
      <trkpt lat="43.09748" lon="2.57598">
        <ele>326.5</ele>
        <time>2015-09-07T07:49:54Z</time>
      </trkpt>
      <trkpt lat="43.09746" lon="2.57598">
        <ele>326.99</ele>
        <time>2015-09-07T07:50:11Z</time>
      </trkpt>
      <trkpt lat="43.09746" lon="2.576">
        <ele>323.62</ele>
        <time>2015-09-07T07:50:17Z</time>
      </trkpt>
      <trkpt lat="43.09749" lon="2.57607">
        <ele>325.06</ele>
        <time>2015-09-07T07:50:32Z</time>
      </trkpt>
      <trkpt lat="43.09751" lon="2.57607">
        <ele>326.5</ele>
        <time>2015-09-07T07:50:56Z</time>
      </trkpt>
      <trkpt lat="43.09752" lon="2.57607">
        <ele>325.06</ele>
        <time>2015-09-07T07:51:13Z</time>
      </trkpt>
      <trkpt lat="43.09753" lon="2.57606">
        <ele>326.02</ele>
        <time>2015-09-07T07:51:27Z</time>
      </trkpt>
      <trkpt lat="43.09752" lon="2.57605">
        <ele>325.06</ele>
        <time>2015-09-07T07:51:29Z</time>
      </trkpt>
      <trkpt lat="43.09753" lon="2.57605">
        <ele>325.06</ele>
        <time>2015-09-07T07:51:47Z</time>
      </trkpt>
      <trkpt lat="43.09746" lon="2.57598">
        <ele>326.99</ele>
        <time>2015-09-07T07:52:02Z</time>
      </trkpt>
      <trkpt lat="43.09741" lon="2.57588">
        <ele>328.43</ele>
        <time>2015-09-07T07:52:19Z</time>
      </trkpt>
      <trkpt lat="43.09731" lon="2.57577">
        <ele>329.39</ele>
        <time>2015-09-07T07:52:37Z</time>
      </trkpt>
      <trkpt lat="43.09722" lon="2.57566">
        <ele>331.31</ele>
        <time>2015-09-07T07:52:53Z</time>
      </trkpt>
      <trkpt lat="43.09718" lon="2.57556">
        <ele>330.83</ele>
        <time>2015-09-07T07:53:09Z</time>
      </trkpt>
      <trkpt lat="43.09712" lon="2.57536">
        <ele>332.27</ele>
        <time>2015-09-07T07:53:28Z</time>
      </trkpt>
      <trkpt lat="43.09708" lon="2.57525">
        <ele>332.75</ele>
        <time>2015-09-07T07:53:39Z</time>
      </trkpt>
      <trkpt lat="43.09707" lon="2.57515">
        <ele>333.23</ele>
        <time>2015-09-07T07:53:54Z</time>
      </trkpt>
      <trkpt lat="43.09707" lon="2.57514">
        <ele>333.71</ele>
        <time>2015-09-07T07:54:17Z</time>
      </trkpt>
      <trkpt lat="43.09706" lon="2.57508">
        <ele>332.75</ele>
        <time>2015-09-07T07:54:30Z</time>
      </trkpt>
      <trkpt lat="43.09709" lon="2.57494">
        <ele>334.2</ele>
        <time>2015-09-07T07:54:36Z</time>
      </trkpt>
      <trkpt lat="43.09711" lon="2.57485">
        <ele>335.16</ele>
        <time>2015-09-07T07:54:50Z</time>
      </trkpt>
      <trkpt lat="43.0971" lon="2.57475">
        <ele>336.6</ele>
        <time>2015-09-07T07:55:02Z</time>
      </trkpt>
      <trkpt lat="43.09708" lon="2.5747">
        <ele>336.12</ele>
        <time>2015-09-07T07:55:17Z</time>
      </trkpt>
      <trkpt lat="43.09707" lon="2.57457">
        <ele>334.2</ele>
        <time>2015-09-07T07:55:29Z</time>
      </trkpt>
      <trkpt lat="43.09708" lon="2.57456">
        <ele>338.04</ele>
        <time>2015-09-07T07:55:30Z</time>
      </trkpt>
      <trkpt lat="43.09708" lon="2.57455">
        <ele>337.08</ele>
        <time>2015-09-07T07:55:31Z</time>
      </trkpt>
      <trkpt lat="43.09711" lon="2.57427">
        <ele>338.04</ele>
        <time>2015-09-07T07:55:51Z</time>
      </trkpt>
      <trkpt lat="43.09707" lon="2.57397">
        <ele>336.6</ele>
        <time>2015-09-07T07:56:14Z</time>
      </trkpt>
      <trkpt lat="43.09705" lon="2.57372">
        <ele>337.56</ele>
        <time>2015-09-07T07:56:35Z</time>
      </trkpt>
      <trkpt lat="43.09705" lon="2.57348">
        <ele>337.08</ele>
        <time>2015-09-07T07:56:55Z</time>
      </trkpt>
      <trkpt lat="43.09708" lon="2.57322">
        <ele>336.12</ele>
        <time>2015-09-07T07:57:17Z</time>
      </trkpt>
      <trkpt lat="43.09711" lon="2.57315">
        <ele>335.64</ele>
        <time>2015-09-07T07:57:23Z</time>
      </trkpt>
      <trkpt lat="43.09707" lon="2.57292">
        <ele>334.2</ele>
        <time>2015-09-07T07:57:41Z</time>
      </trkpt>
      <trkpt lat="43.09706" lon="2.57268">
        <ele>333.71</ele>
        <time>2015-09-07T07:58:02Z</time>
      </trkpt>
      <trkpt lat="43.09706" lon="2.57247">
        <ele>332.75</ele>
        <time>2015-09-07T07:58:22Z</time>
      </trkpt>
      <trkpt lat="43.09706" lon="2.57218">
        <ele>330.83</ele>
        <time>2015-09-07T07:58:42Z</time>
      </trkpt>
      <trkpt lat="43.09707" lon="2.57212">
        <ele>330.35</ele>
        <time>2015-09-07T07:58:46Z</time>
      </trkpt>
      <trkpt lat="43.09705" lon="2.57188">
        <ele>329.39</ele>
        <time>2015-09-07T07:59:07Z</time>
      </trkpt>
      <trkpt lat="43.09699" lon="2.57166">
        <ele>328.43</ele>
        <time>2015-09-07T07:59:28Z</time>
      </trkpt>
      <trkpt lat="43.097" lon="2.57147">
        <ele>326.5</ele>
        <time>2015-09-07T07:59:48Z</time>
      </trkpt>
      <trkpt lat="43.09694" lon="2.57125">
        <ele>325.54</ele>
        <time>2015-09-07T08:00:07Z</time>
      </trkpt>
      <trkpt lat="43.09688" lon="2.57105">
        <ele>324.58</ele>
        <time>2015-09-07T08:00:24Z</time>
      </trkpt>
      <trkpt lat="43.09686" lon="2.57095">
        <ele>325.06</ele>
        <time>2015-09-07T08:00:32Z</time>
      </trkpt>
      <trkpt lat="43.09678" lon="2.57078">
        <ele>323.14</ele>
        <time>2015-09-07T08:00:49Z</time>
      </trkpt>
      <trkpt lat="43.09674" lon="2.57061">
        <ele>322.18</ele>
        <time>2015-09-07T08:01:05Z</time>
      </trkpt>
      <trkpt lat="43.09671" lon="2.57048">
        <ele>321.22</ele>
        <time>2015-09-07T08:01:15Z</time>
      </trkpt>
      <trkpt lat="43.09669" lon="2.57042">
        <ele>321.22</ele>
        <time>2015-09-07T08:01:19Z</time>
      </trkpt>
      <trkpt lat="43.09665" lon="2.57023">
        <ele>318.81</ele>
        <time>2015-09-07T08:01:35Z</time>
      </trkpt>
      <trkpt lat="43.09661" lon="2.57">
        <ele>318.81</ele>
        <time>2015-09-07T08:01:52Z</time>
      </trkpt>
      <trkpt lat="43.09668" lon="2.56981">
        <ele>317.85</ele>
        <time>2015-09-07T08:02:09Z</time>
      </trkpt>
      <trkpt lat="43.09674" lon="2.56971">
        <ele>317.37</ele>
        <time>2015-09-07T08:02:20Z</time>
      </trkpt>
      <trkpt lat="43.09675" lon="2.56971">
        <ele>317.85</ele>
        <time>2015-09-07T08:02:24Z</time>
      </trkpt>
      <trkpt lat="43.0969" lon="2.56949">
        <ele>316.89</ele>
        <time>2015-09-07T08:02:41Z</time>
      </trkpt>
      <trkpt lat="43.09702" lon="2.56931">
        <ele>315.93</ele>
        <time>2015-09-07T08:03:01Z</time>
      </trkpt>
      <trkpt lat="43.09712" lon="2.56909">
        <ele>312.57</ele>
        <time>2015-09-07T08:03:18Z</time>
      </trkpt>
      <trkpt lat="43.09712" lon="2.56902">
        <ele>312.57</ele>
        <time>2015-09-07T08:03:24Z</time>
      </trkpt>
      <trkpt lat="43.0971" lon="2.56892">
        <ele>312.09</ele>
        <time>2015-09-07T08:03:32Z</time>
      </trkpt>
      <trkpt lat="43.09709" lon="2.5689">
        <ele>312.09</ele>
        <time>2015-09-07T08:03:36Z</time>
      </trkpt>
      <trkpt lat="43.09705" lon="2.56886">
        <ele>312.09</ele>
        <time>2015-09-07T08:03:41Z</time>
      </trkpt>
      <trkpt lat="43.09689" lon="2.5688">
        <ele>309.68</ele>
        <time>2015-09-07T08:03:57Z</time>
      </trkpt>
      <trkpt lat="43.09677" lon="2.56875">
        <ele>309.68</ele>
        <time>2015-09-07T08:04:10Z</time>
      </trkpt>
      <trkpt lat="43.09671" lon="2.56865">
        <ele>309.2</ele>
        <time>2015-09-07T08:04:20Z</time>
      </trkpt>
      <trkpt lat="43.09657" lon="2.56845">
        <ele>308.24</ele>
        <time>2015-09-07T08:04:41Z</time>
      </trkpt>
      <trkpt lat="43.09643" lon="2.56826">
        <ele>306.32</ele>
        <time>2015-09-07T08:05:02Z</time>
      </trkpt>
      <trkpt lat="43.09624" lon="2.56809">
        <ele>304.88</ele>
        <time>2015-09-07T08:05:24Z</time>
      </trkpt>
      <trkpt lat="43.09623" lon="2.56808">
        <ele>304.88</ele>
        <time>2015-09-07T08:05:25Z</time>
      </trkpt>
      <trkpt lat="43.09605" lon="2.56787">
        <ele>303.91</ele>
        <time>2015-09-07T08:05:47Z</time>
      </trkpt>
      <trkpt lat="43.09602" lon="2.56763">
        <ele>301.51</ele>
        <time>2015-09-07T08:06:07Z</time>
      </trkpt>
      <trkpt lat="43.09602" lon="2.56739">
        <ele>299.59</ele>
        <time>2015-09-07T08:06:25Z</time>
      </trkpt>
      <trkpt lat="43.09608" lon="2.56711">
        <ele>299.59</ele>
        <time>2015-09-07T08:06:45Z</time>
      </trkpt>
      <trkpt lat="43.09612" lon="2.56706">
        <ele>299.11</ele>
        <time>2015-09-07T08:06:52Z</time>
      </trkpt>
      <trkpt lat="43.0963" lon="2.56684">
        <ele>297.67</ele>
        <time>2015-09-07T08:07:17Z</time>
      </trkpt>
      <trkpt lat="43.09646" lon="2.56661">
        <ele>294.78</ele>
        <time>2015-09-07T08:07:39Z</time>
      </trkpt>
      <trkpt lat="43.09648" lon="2.56645">
        <ele>295.26</ele>
        <time>2015-09-07T08:07:50Z</time>
      </trkpt>
      <trkpt lat="43.09647" lon="2.5664">
        <ele>293.34</ele>
        <time>2015-09-07T08:07:53Z</time>
      </trkpt>
      <trkpt lat="43.09644" lon="2.56613">
        <ele>291.42</ele>
        <time>2015-09-07T08:08:14Z</time>
      </trkpt>
      <trkpt lat="43.09645" lon="2.56585">
        <ele>289.49</ele>
        <time>2015-09-07T08:08:37Z</time>
      </trkpt>
      <trkpt lat="43.09647" lon="2.56556">
        <ele>288.05</ele>
        <time>2015-09-07T08:08:57Z</time>
      </trkpt>
      <trkpt lat="43.09649" lon="2.56534">
        <ele>287.09</ele>
        <time>2015-09-07T08:09:17Z</time>
      </trkpt>
      <trkpt lat="43.09652" lon="2.56503">
        <ele>285.65</ele>
        <time>2015-09-07T08:09:38Z</time>
      </trkpt>
      <trkpt lat="43.09663" lon="2.56484">
        <ele>284.69</ele>
        <time>2015-09-07T08:09:51Z</time>
      </trkpt>
      <trkpt lat="43.09663" lon="2.56481">
        <ele>284.21</ele>
        <time>2015-09-07T08:09:53Z</time>
      </trkpt>
      <trkpt lat="43.09668" lon="2.56476">
        <ele>283.25</ele>
        <time>2015-09-07T08:09:58Z</time>
      </trkpt>
      <trkpt lat="43.09672" lon="2.56452">
        <ele>282.28</ele>
        <time>2015-09-07T08:10:19Z</time>
      </trkpt>
      <trkpt lat="43.09669" lon="2.5643">
        <ele>279.88</ele>
        <time>2015-09-07T08:10:41Z</time>
      </trkpt>
      <trkpt lat="43.09677" lon="2.56411">
        <ele>277.96</ele>
        <time>2015-09-07T08:10:58Z</time>
      </trkpt>
      <trkpt lat="43.09693" lon="2.56389">
        <ele>277</ele>
        <time>2015-09-07T08:11:18Z</time>
      </trkpt>
      <trkpt lat="43.09696" lon="2.56382">
        <ele>275.07</ele>
        <time>2015-09-07T08:11:23Z</time>
      </trkpt>
      <trkpt lat="43.09697" lon="2.56359">
        <ele>272.19</ele>
        <time>2015-09-07T08:11:43Z</time>
      </trkpt>
      <trkpt lat="43.09697" lon="2.56353">
        <ele>271.23</ele>
        <time>2015-09-07T08:11:48Z</time>
      </trkpt>
      <trkpt lat="43.09701" lon="2.5633">
        <ele>269.79</ele>
        <time>2015-09-07T08:12:05Z</time>
      </trkpt>
      <trkpt lat="43.09706" lon="2.56307">
        <ele>267.38</ele>
        <time>2015-09-07T08:12:24Z</time>
      </trkpt>
      <trkpt lat="43.09697" lon="2.56278">
        <ele>265.46</ele>
        <time>2015-09-07T08:12:45Z</time>
      </trkpt>
      <trkpt lat="43.09703" lon="2.56248">
        <ele>263.54</ele>
        <time>2015-09-07T08:13:06Z</time>
      </trkpt>
      <trkpt lat="43.09701" lon="2.56221">
        <ele>262.58</ele>
        <time>2015-09-07T08:13:25Z</time>
      </trkpt>
      <trkpt lat="43.0971" lon="2.56195">
        <ele>262.1</ele>
        <time>2015-09-07T08:13:44Z</time>
      </trkpt>
      <trkpt lat="43.09714" lon="2.56185">
        <ele>261.62</ele>
        <time>2015-09-07T08:13:50Z</time>
      </trkpt>
      <trkpt lat="43.09713" lon="2.56183">
        <ele>261.62</ele>
        <time>2015-09-07T08:13:51Z</time>
      </trkpt>
      <trkpt lat="43.09715" lon="2.56157">
        <ele>262.1</ele>
        <time>2015-09-07T08:14:09Z</time>
      </trkpt>
      <trkpt lat="43.09716" lon="2.5615">
        <ele>262.58</ele>
        <time>2015-09-07T08:14:15Z</time>
      </trkpt>
      <trkpt lat="43.09719" lon="2.56116">
        <ele>261.62</ele>
        <time>2015-09-07T08:14:37Z</time>
      </trkpt>
      <trkpt lat="43.0972" lon="2.56092">
        <ele>260.65</ele>
        <time>2015-09-07T08:14:55Z</time>
      </trkpt>
      <trkpt lat="43.09727" lon="2.56062">
        <ele>259.69</ele>
        <time>2015-09-07T08:15:14Z</time>
      </trkpt>
      <trkpt lat="43.09728" lon="2.56056">
        <ele>259.69</ele>
        <time>2015-09-07T08:15:18Z</time>
      </trkpt>
      <trkpt lat="43.09731" lon="2.56032">
        <ele>260.17</ele>
        <time>2015-09-07T08:15:34Z</time>
      </trkpt>
      <trkpt lat="43.09728" lon="2.56015">
        <ele>259.21</ele>
        <time>2015-09-07T08:15:46Z</time>
      </trkpt>
      <trkpt lat="43.09729" lon="2.55998">
        <ele>257.29</ele>
        <time>2015-09-07T08:15:59Z</time>
      </trkpt>
      <trkpt lat="43.09725" lon="2.5599">
        <ele>257.77</ele>
        <time>2015-09-07T08:16:05Z</time>
      </trkpt>
      <trkpt lat="43.09716" lon="2.55981">
        <ele>256.81</ele>
        <time>2015-09-07T08:16:15Z</time>
      </trkpt>
      <trkpt lat="43.09714" lon="2.55979">
        <ele>257.77</ele>
        <time>2015-09-07T08:16:17Z</time>
      </trkpt>
      <trkpt lat="43.09697" lon="2.55971">
        <ele>257.29</ele>
        <time>2015-09-07T08:16:35Z</time>
      </trkpt>
      <trkpt lat="43.09677" lon="2.55958">
        <ele>254.41</ele>
        <time>2015-09-07T08:16:54Z</time>
      </trkpt>
      <trkpt lat="43.09663" lon="2.55954">
        <ele>253.44</ele>
        <time>2015-09-07T08:17:11Z</time>
      </trkpt>
      <trkpt lat="43.09655" lon="2.55947">
        <ele>252.96</ele>
        <time>2015-09-07T08:17:22Z</time>
      </trkpt>
      <trkpt lat="43.09651" lon="2.55945">
        <ele>253.44</ele>
        <time>2015-09-07T08:17:25Z</time>
      </trkpt>
      <trkpt lat="43.09642" lon="2.55943">
        <ele>252.96</ele>
        <time>2015-09-07T08:17:40Z</time>
      </trkpt>
      <trkpt lat="43.09639" lon="2.55945">
        <ele>252.96</ele>
        <time>2015-09-07T08:17:53Z</time>
      </trkpt>
      <trkpt lat="43.09634" lon="2.55947">
        <ele>252.96</ele>
        <time>2015-09-07T08:18:08Z</time>
      </trkpt>
      <trkpt lat="43.09634" lon="2.55945">
        <ele>256.81</ele>
        <time>2015-09-07T08:18:14Z</time>
      </trkpt>
      <trkpt lat="43.09634" lon="2.55945">
        <ele>252</ele>
        <time>2015-09-07T08:18:15Z</time>
      </trkpt>
      <trkpt lat="43.09636" lon="2.55947">
        <ele>254.89</ele>
        <time>2015-09-07T08:18:47Z</time>
      </trkpt>
      <trkpt lat="43.09634" lon="2.55946">
        <ele>252.48</ele>
        <time>2015-09-07T08:18:50Z</time>
      </trkpt>
      <trkpt lat="43.09634" lon="2.55948">
        <ele>252</ele>
        <time>2015-09-07T08:18:52Z</time>
      </trkpt>
      <trkpt lat="43.09632" lon="2.55952">
        <ele>252.48</ele>
        <time>2015-09-07T08:18:55Z</time>
      </trkpt>
      <trkpt lat="43.09616" lon="2.5598">
        <ele>250.08</ele>
        <time>2015-09-07T08:19:17Z</time>
      </trkpt>
      <trkpt lat="43.09601" lon="2.55993">
        <ele>250.08</ele>
        <time>2015-09-07T08:19:32Z</time>
      </trkpt>
      <trkpt lat="43.09593" lon="2.55999">
        <ele>249.6</ele>
        <time>2015-09-07T08:19:37Z</time>
      </trkpt>
      <trkpt lat="43.09586" lon="2.55999">
        <ele>250.56</ele>
        <time>2015-09-07T08:19:42Z</time>
      </trkpt>
      <trkpt lat="43.09582" lon="2.56">
        <ele>249.12</ele>
        <time>2015-09-07T08:19:45Z</time>
      </trkpt>
      <trkpt lat="43.0957" lon="2.56002">
        <ele>249.12</ele>
        <time>2015-09-07T08:19:53Z</time>
      </trkpt>
      <trkpt lat="43.09565" lon="2.56006">
        <ele>247.2</ele>
        <time>2015-09-07T08:19:57Z</time>
      </trkpt>
      <trkpt lat="43.09548" lon="2.56023">
        <ele>248.16</ele>
        <time>2015-09-07T08:20:17Z</time>
      </trkpt>
      <trkpt lat="43.09525" lon="2.56048">
        <ele>248.64</ele>
        <time>2015-09-07T08:20:37Z</time>
      </trkpt>
      <trkpt lat="43.09517" lon="2.56052">
        <ele>245.27</ele>
        <time>2015-09-07T08:20:42Z</time>
      </trkpt>
      <trkpt lat="43.09503" lon="2.56057">
        <ele>247.2</ele>
        <time>2015-09-07T08:20:54Z</time>
      </trkpt>
      <trkpt lat="43.09492" lon="2.56055">
        <ele>246.23</ele>
        <time>2015-09-07T08:21:10Z</time>
      </trkpt>
      <trkpt lat="43.09486" lon="2.56055">
        <ele>242.87</ele>
        <time>2015-09-07T08:21:17Z</time>
      </trkpt>
      <trkpt lat="43.09484" lon="2.56055">
        <ele>248.64</ele>
        <time>2015-09-07T08:21:18Z</time>
      </trkpt>
      <trkpt lat="43.09479" lon="2.56057">
        <ele>245.75</ele>
        <time>2015-09-07T08:21:22Z</time>
      </trkpt>
      <trkpt lat="43.09471" lon="2.56061">
        <ele>245.75</ele>
        <time>2015-09-07T08:21:37Z</time>
      </trkpt>
      <trkpt lat="43.09471" lon="2.56062">
        <ele>245.27</ele>
        <time>2015-09-07T08:21:38Z</time>
      </trkpt>
      <trkpt lat="43.09462" lon="2.5606">
        <ele>244.31</ele>
        <time>2015-09-07T08:21:46Z</time>
      </trkpt>
      <trkpt lat="43.09455" lon="2.56059">
        <ele>243.83</ele>
        <time>2015-09-07T08:21:52Z</time>
      </trkpt>
      <trkpt lat="43.09446" lon="2.56056">
        <ele>242.87</ele>
        <time>2015-09-07T08:21:58Z</time>
      </trkpt>
      <trkpt lat="43.09439" lon="2.56054">
        <ele>245.75</ele>
        <time>2015-09-07T08:22:05Z</time>
      </trkpt>
      <trkpt lat="43.09435" lon="2.56052">
        <ele>241.91</ele>
        <time>2015-09-07T08:22:08Z</time>
      </trkpt>
      <trkpt lat="43.09419" lon="2.56049">
        <ele>241.91</ele>
        <time>2015-09-07T08:22:22Z</time>
      </trkpt>
      <trkpt lat="43.09403" lon="2.56051">
        <ele>239.02</ele>
        <time>2015-09-07T08:22:40Z</time>
      </trkpt>
      <trkpt lat="43.09397" lon="2.56048">
        <ele>240.47</ele>
        <time>2015-09-07T08:22:57Z</time>
      </trkpt>
      <trkpt lat="43.09396" lon="2.56043">
        <ele>237.58</ele>
        <time>2015-09-07T08:23:07Z</time>
      </trkpt>
      <trkpt lat="43.09396" lon="2.5604">
        <ele>238.54</ele>
        <time>2015-09-07T08:23:18Z</time>
      </trkpt>
      <trkpt lat="43.09394" lon="2.56025">
        <ele>238.06</ele>
        <time>2015-09-07T08:23:31Z</time>
      </trkpt>
      <trkpt lat="43.09396" lon="2.56019">
        <ele>236.14</ele>
        <time>2015-09-07T08:23:36Z</time>
      </trkpt>
      <trkpt lat="43.09399" lon="2.56015">
        <ele>232.78</ele>
        <time>2015-09-07T08:23:47Z</time>
      </trkpt>
      <trkpt lat="43.09399" lon="2.56014">
        <ele>237.1</ele>
        <time>2015-09-07T08:23:48Z</time>
      </trkpt>
      <trkpt lat="43.09401" lon="2.5601">
        <ele>236.14</ele>
        <time>2015-09-07T08:23:55Z</time>
      </trkpt>
      <trkpt lat="43.09405" lon="2.55998">
        <ele>233.74</ele>
        <time>2015-09-07T08:24:09Z</time>
      </trkpt>
      <trkpt lat="43.09405" lon="2.55998">
        <ele>234.22</ele>
        <time>2015-09-07T08:24:11Z</time>
      </trkpt>
      <trkpt lat="43.09409" lon="2.55993">
        <ele>231.81</ele>
        <time>2015-09-07T08:24:16Z</time>
      </trkpt>
      <trkpt lat="43.09413" lon="2.55986">
        <ele>232.3</ele>
        <time>2015-09-07T08:24:23Z</time>
      </trkpt>
      <trkpt lat="43.09417" lon="2.55977">
        <ele>229.41</ele>
        <time>2015-09-07T08:24:31Z</time>
      </trkpt>
      <trkpt lat="43.09419" lon="2.55974">
        <ele>227.97</ele>
        <time>2015-09-07T08:24:33Z</time>
      </trkpt>
      <trkpt lat="43.09427" lon="2.55969">
        <ele>227.97</ele>
        <time>2015-09-07T08:24:40Z</time>
      </trkpt>
      <trkpt lat="43.09431" lon="2.55968">
        <ele>226.53</ele>
        <time>2015-09-07T08:24:43Z</time>
      </trkpt>
      <trkpt lat="43.09432" lon="2.55967">
        <ele>225.57</ele>
        <time>2015-09-07T08:24:44Z</time>
      </trkpt>
      <trkpt lat="43.09436" lon="2.55965">
        <ele>227.01</ele>
        <time>2015-09-07T08:24:47Z</time>
      </trkpt>
      <trkpt lat="43.0945" lon="2.55952">
        <ele>225.09</ele>
        <time>2015-09-07T08:25:02Z</time>
      </trkpt>
      <trkpt lat="43.09452" lon="2.55945">
        <ele>225.09</ele>
        <time>2015-09-07T08:25:16Z</time>
      </trkpt>
      <trkpt lat="43.09452" lon="2.5595">
        <ele>225.57</ele>
        <time>2015-09-07T08:25:28Z</time>
      </trkpt>
      <trkpt lat="43.09451" lon="2.55955">
        <ele>224.61</ele>
        <time>2015-09-07T08:25:45Z</time>
      </trkpt>
      <trkpt lat="43.09455" lon="2.55964">
        <ele>225.09</ele>
        <time>2015-09-07T08:26:09Z</time>
      </trkpt>
      <trkpt lat="43.09458" lon="2.5597">
        <ele>225.09</ele>
        <time>2015-09-07T08:26:36Z</time>
      </trkpt>
      <trkpt lat="43.09452" lon="2.55958">
        <ele>225.09</ele>
        <time>2015-09-07T08:27:03Z</time>
      </trkpt>
      <trkpt lat="43.09451" lon="2.55958">
        <ele>225.09</ele>
        <time>2015-09-07T08:27:31Z</time>
      </trkpt>
      <trkpt lat="43.09451" lon="2.55957">
        <ele>225.57</ele>
        <time>2015-09-07T08:27:59Z</time>
      </trkpt>
      <trkpt lat="43.09451" lon="2.55957">
        <ele>226.05</ele>
        <time>2015-09-07T08:28:26Z</time>
      </trkpt>
      <trkpt lat="43.09453" lon="2.55959">
        <ele>225.09</ele>
        <time>2015-09-07T08:28:43Z</time>
      </trkpt>
      <trkpt lat="43.09454" lon="2.55962">
        <ele>225.57</ele>
        <time>2015-09-07T08:29:03Z</time>
      </trkpt>
      <trkpt lat="43.09454" lon="2.55959">
        <ele>226.05</ele>
        <time>2015-09-07T08:29:29Z</time>
      </trkpt>
      <trkpt lat="43.09452" lon="2.55955">
        <ele>225.09</ele>
        <time>2015-09-07T08:29:50Z</time>
      </trkpt>
      <trkpt lat="43.09452" lon="2.55955">
        <ele>226.05</ele>
        <time>2015-09-07T08:30:02Z</time>
      </trkpt>
      <trkpt lat="43.09451" lon="2.55952">
        <ele>225.57</ele>
        <time>2015-09-07T08:30:26Z</time>
      </trkpt>
      <trkpt lat="43.09452" lon="2.55946">
        <ele>226.53</ele>
        <time>2015-09-07T08:30:49Z</time>
      </trkpt>
      <trkpt lat="43.09457" lon="2.55959">
        <ele>227.01</ele>
        <time>2015-09-07T08:31:16Z</time>
      </trkpt>
      <trkpt lat="43.09452" lon="2.55958">
        <ele>226.53</ele>
        <time>2015-09-07T08:31:43Z</time>
      </trkpt>
      <trkpt lat="43.09449" lon="2.55953">
        <ele>227.01</ele>
        <time>2015-09-07T08:32:11Z</time>
      </trkpt>
      <trkpt lat="43.09449" lon="2.55952">
        <ele>227.01</ele>
        <time>2015-09-07T08:32:35Z</time>
      </trkpt>
      <trkpt lat="43.09445" lon="2.55947">
        <ele>227.49</ele>
        <time>2015-09-07T08:32:58Z</time>
      </trkpt>
      <trkpt lat="43.09444" lon="2.55947">
        <ele>227.49</ele>
        <time>2015-09-07T08:33:27Z</time>
      </trkpt>
      <trkpt lat="43.09448" lon="2.55952">
        <ele>227.49</ele>
        <time>2015-09-07T08:33:48Z</time>
      </trkpt>
      <trkpt lat="43.0945" lon="2.55955">
        <ele>228.93</ele>
        <time>2015-09-07T08:34:05Z</time>
      </trkpt>
      <trkpt lat="43.0945" lon="2.55953">
        <ele>227.97</ele>
        <time>2015-09-07T08:34:25Z</time>
      </trkpt>
      <trkpt lat="43.0945" lon="2.55949">
        <ele>227.49</ele>
        <time>2015-09-07T08:34:41Z</time>
      </trkpt>
      <trkpt lat="43.09449" lon="2.55948">
        <ele>228.45</ele>
        <time>2015-09-07T08:34:58Z</time>
      </trkpt>
      <trkpt lat="43.09449" lon="2.55947">
        <ele>228.93</ele>
        <time>2015-09-07T08:35:29Z</time>
      </trkpt>
      <trkpt lat="43.09449" lon="2.55947">
        <ele>227.97</ele>
        <time>2015-09-07T08:35:48Z</time>
      </trkpt>
      <trkpt lat="43.09448" lon="2.5594">
        <ele>227.49</ele>
        <time>2015-09-07T08:36:09Z</time>
      </trkpt>
      <trkpt lat="43.09442" lon="2.55919">
        <ele>225.09</ele>
        <time>2015-09-07T08:36:29Z</time>
      </trkpt>
      <trkpt lat="43.09437" lon="2.55902">
        <ele>223.16</ele>
        <time>2015-09-07T08:36:44Z</time>
      </trkpt>
      <trkpt lat="43.09438" lon="2.55878">
        <ele>220.76</ele>
        <time>2015-09-07T08:37:08Z</time>
      </trkpt>
      <trkpt lat="43.09438" lon="2.5585">
        <ele>218.36</ele>
        <time>2015-09-07T08:37:31Z</time>
      </trkpt>
      <trkpt lat="43.09438" lon="2.5585">
        <ele>217.88</ele>
        <time>2015-09-07T08:37:32Z</time>
      </trkpt>
      <trkpt lat="43.09441" lon="2.5584">
        <ele>216.91</ele>
        <time>2015-09-07T08:37:42Z</time>
      </trkpt>
      <trkpt lat="43.09451" lon="2.55814">
        <ele>216.91</ele>
        <time>2015-09-07T08:38:03Z</time>
      </trkpt>
      <trkpt lat="43.09456" lon="2.55797">
        <ele>213.55</ele>
        <time>2015-09-07T08:38:17Z</time>
      </trkpt>
      <trkpt lat="43.09455" lon="2.55774">
        <ele>212.59</ele>
        <time>2015-09-07T08:38:39Z</time>
      </trkpt>
      <trkpt lat="43.09454" lon="2.5577">
        <ele>211.15</ele>
        <time>2015-09-07T08:38:43Z</time>
      </trkpt>
      <trkpt lat="43.09461" lon="2.55752">
        <ele>208.26</ele>
        <time>2015-09-07T08:39:02Z</time>
      </trkpt>
      <trkpt lat="43.09475" lon="2.55734">
        <ele>207.78</ele>
        <time>2015-09-07T08:39:22Z</time>
      </trkpt>
      <trkpt lat="43.09476" lon="2.55732">
        <ele>207.78</ele>
        <time>2015-09-07T08:39:23Z</time>
      </trkpt>
      <trkpt lat="43.0949" lon="2.55717">
        <ele>206.34</ele>
        <time>2015-09-07T08:39:42Z</time>
      </trkpt>
      <trkpt lat="43.09492" lon="2.55715">
        <ele>206.82</ele>
        <time>2015-09-07T08:39:44Z</time>
      </trkpt>
      <trkpt lat="43.09498" lon="2.55712">
        <ele>206.34</ele>
        <time>2015-09-07T08:39:51Z</time>
      </trkpt>
      <trkpt lat="43.09517" lon="2.55706">
        <ele>207.78</ele>
        <time>2015-09-07T08:40:09Z</time>
      </trkpt>
      <trkpt lat="43.09531" lon="2.55706">
        <ele>206.82</ele>
        <time>2015-09-07T08:40:29Z</time>
      </trkpt>
      <trkpt lat="43.09538" lon="2.55708">
        <ele>206.34</ele>
        <time>2015-09-07T08:40:34Z</time>
      </trkpt>
      <trkpt lat="43.09556" lon="2.55722">
        <ele>204.9</ele>
        <time>2015-09-07T08:40:54Z</time>
      </trkpt>
      <trkpt lat="43.09578" lon="2.55723">
        <ele>203.94</ele>
        <time>2015-09-07T08:41:11Z</time>
      </trkpt>
      <trkpt lat="43.09585" lon="2.55725">
        <ele>202.98</ele>
        <time>2015-09-07T08:41:28Z</time>
      </trkpt>
      <trkpt lat="43.09612" lon="2.55722">
        <ele>201.53</ele>
        <time>2015-09-07T08:41:51Z</time>
      </trkpt>
      <trkpt lat="43.09634" lon="2.55725">
        <ele>199.61</ele>
        <time>2015-09-07T08:42:11Z</time>
      </trkpt>
      <trkpt lat="43.09636" lon="2.55707">
        <ele>198.17</ele>
        <time>2015-09-07T08:42:28Z</time>
      </trkpt>
      <trkpt lat="43.09622" lon="2.55697">
        <ele>194.8</ele>
        <time>2015-09-07T08:42:49Z</time>
      </trkpt>
      <trkpt lat="43.09605" lon="2.55683">
        <ele>193.36</ele>
        <time>2015-09-07T08:43:12Z</time>
      </trkpt>
      <trkpt lat="43.09587" lon="2.55678">
        <ele>193.84</ele>
        <time>2015-09-07T08:43:31Z</time>
      </trkpt>
      <trkpt lat="43.09582" lon="2.55675">
        <ele>194.32</ele>
        <time>2015-09-07T08:43:38Z</time>
      </trkpt>
      <trkpt lat="43.09565" lon="2.5566">
        <ele>196.73</ele>
        <time>2015-09-07T08:44:01Z</time>
      </trkpt>
      <trkpt lat="43.09564" lon="2.55659">
        <ele>196.25</ele>
        <time>2015-09-07T08:44:03Z</time>
      </trkpt>
      <trkpt lat="43.09551" lon="2.55642">
        <ele>200.09</ele>
        <time>2015-09-07T08:44:22Z</time>
      </trkpt>
      <trkpt lat="43.09549" lon="2.55637">
        <ele>200.09</ele>
        <time>2015-09-07T08:44:27Z</time>
      </trkpt>
      <trkpt lat="43.09538" lon="2.55608">
        <ele>203.46</ele>
        <time>2015-09-07T08:44:50Z</time>
      </trkpt>
      <trkpt lat="43.09535" lon="2.55583">
        <ele>206.82</ele>
        <time>2015-09-07T08:45:09Z</time>
      </trkpt>
      <trkpt lat="43.09547" lon="2.55568">
        <ele>206.82</ele>
        <time>2015-09-07T08:45:30Z</time>
      </trkpt>
      <trkpt lat="43.09552" lon="2.55554">
        <ele>210.67</ele>
        <time>2015-09-07T08:45:44Z</time>
      </trkpt>
      <trkpt lat="43.09555" lon="2.55545">
        <ele>211.63</ele>
        <time>2015-09-07T08:45:58Z</time>
      </trkpt>
      <trkpt lat="43.09558" lon="2.55535">
        <ele>215.47</ele>
        <time>2015-09-07T08:46:14Z</time>
      </trkpt>
      <trkpt lat="43.09558" lon="2.55535">
        <ele>214.03</ele>
        <time>2015-09-07T08:46:15Z</time>
      </trkpt>
      <trkpt lat="43.09545" lon="2.5554">
        <ele>213.55</ele>
        <time>2015-09-07T08:46:35Z</time>
      </trkpt>
      <trkpt lat="43.09544" lon="2.55538">
        <ele>213.55</ele>
        <time>2015-09-07T08:46:52Z</time>
      </trkpt>
      <trkpt lat="43.09545" lon="2.55536">
        <ele>213.55</ele>
        <time>2015-09-07T08:47:13Z</time>
      </trkpt>
      <trkpt lat="43.09548" lon="2.5554">
        <ele>214.51</ele>
        <time>2015-09-07T08:47:36Z</time>
      </trkpt>
      <trkpt lat="43.09546" lon="2.5554">
        <ele>212.59</ele>
        <time>2015-09-07T08:47:50Z</time>
      </trkpt>
      <trkpt lat="43.09546" lon="2.55541">
        <ele>212.59</ele>
        <time>2015-09-07T08:48:20Z</time>
      </trkpt>
      <trkpt lat="43.09547" lon="2.55541">
        <ele>213.55</ele>
        <time>2015-09-07T08:48:51Z</time>
      </trkpt>
      <trkpt lat="43.09547" lon="2.5554">
        <ele>212.59</ele>
        <time>2015-09-07T08:49:05Z</time>
      </trkpt>
      <trkpt lat="43.09539" lon="2.55542">
        <ele>213.55</ele>
        <time>2015-09-07T08:49:19Z</time>
      </trkpt>
      <trkpt lat="43.09533" lon="2.55543">
        <ele>213.07</ele>
        <time>2015-09-07T08:49:25Z</time>
      </trkpt>
      <trkpt lat="43.09517" lon="2.55544">
        <ele>214.51</ele>
        <time>2015-09-07T08:49:42Z</time>
      </trkpt>
      <trkpt lat="43.09516" lon="2.55544">
        <ele>214.03</ele>
        <time>2015-09-07T08:49:43Z</time>
      </trkpt>
      <trkpt lat="43.09507" lon="2.55539">
        <ele>213.55</ele>
        <time>2015-09-07T08:49:52Z</time>
      </trkpt>
      <trkpt lat="43.09493" lon="2.55534">
        <ele>214.99</ele>
        <time>2015-09-07T08:50:08Z</time>
      </trkpt>
      <trkpt lat="43.0948" lon="2.55539">
        <ele>212.59</ele>
        <time>2015-09-07T08:50:25Z</time>
      </trkpt>
      <trkpt lat="43.09465" lon="2.55549">
        <ele>210.19</ele>
        <time>2015-09-07T08:50:46Z</time>
      </trkpt>
      <trkpt lat="43.09445" lon="2.55553">
        <ele>210.67</ele>
        <time>2015-09-07T08:51:03Z</time>
      </trkpt>
      <trkpt lat="43.09425" lon="2.55561">
        <ele>209.7</ele>
        <time>2015-09-07T08:51:23Z</time>
      </trkpt>
      <trkpt lat="43.09409" lon="2.55567">
        <ele>208.26</ele>
        <time>2015-09-07T08:51:43Z</time>
      </trkpt>
      <trkpt lat="43.09393" lon="2.55574">
        <ele>208.26</ele>
        <time>2015-09-07T08:52:02Z</time>
      </trkpt>
      <trkpt lat="43.09375" lon="2.55586">
        <ele>207.3</ele>
        <time>2015-09-07T08:52:23Z</time>
      </trkpt>
      <trkpt lat="43.09359" lon="2.55594">
        <ele>207.78</ele>
        <time>2015-09-07T08:52:40Z</time>
      </trkpt>
      <trkpt lat="43.0934" lon="2.55608">
        <ele>207.3</ele>
        <time>2015-09-07T08:53:00Z</time>
      </trkpt>
      <trkpt lat="43.09325" lon="2.55619">
        <ele>205.86</ele>
        <time>2015-09-07T08:53:17Z</time>
      </trkpt>
      <trkpt lat="43.09309" lon="2.55627">
        <ele>204.9</ele>
        <time>2015-09-07T08:53:37Z</time>
      </trkpt>
      <trkpt lat="43.09292" lon="2.55636">
        <ele>202.98</ele>
        <time>2015-09-07T08:53:59Z</time>
      </trkpt>
      <trkpt lat="43.09271" lon="2.55642">
        <ele>203.46</ele>
        <time>2015-09-07T08:54:19Z</time>
      </trkpt>
      <trkpt lat="43.09249" lon="2.55645">
        <ele>202.98</ele>
        <time>2015-09-07T08:54:43Z</time>
      </trkpt>
      <trkpt lat="43.09227" lon="2.55657">
        <ele>202.49</ele>
        <time>2015-09-07T08:55:04Z</time>
      </trkpt>
      <trkpt lat="43.09221" lon="2.55658">
        <ele>202.49</ele>
        <time>2015-09-07T08:55:10Z</time>
      </trkpt>
      <trkpt lat="43.09206" lon="2.55657">
        <ele>203.94</ele>
        <time>2015-09-07T08:55:27Z</time>
      </trkpt>
      <trkpt lat="43.09196" lon="2.55659">
        <ele>205.38</ele>
        <time>2015-09-07T08:55:41Z</time>
      </trkpt>
      <trkpt lat="43.09181" lon="2.55655">
        <ele>206.82</ele>
        <time>2015-09-07T08:56:02Z</time>
      </trkpt>
      <trkpt lat="43.09162" lon="2.55647">
        <ele>203.94</ele>
        <time>2015-09-07T08:56:25Z</time>
      </trkpt>
      <trkpt lat="43.09159" lon="2.55645">
        <ele>202.98</ele>
        <time>2015-09-07T08:56:33Z</time>
      </trkpt>
      <trkpt lat="43.09157" lon="2.5564">
        <ele>199.61</ele>
        <time>2015-09-07T08:56:41Z</time>
      </trkpt>
      <trkpt lat="43.09156" lon="2.5564">
        <ele>200.57</ele>
        <time>2015-09-07T08:56:42Z</time>
      </trkpt>
      <trkpt lat="43.09156" lon="2.5564">
        <ele>202.49</ele>
        <time>2015-09-07T08:56:44Z</time>
      </trkpt>
      <trkpt lat="43.09151" lon="2.55641">
        <ele>202.01</ele>
        <time>2015-09-07T08:57:03Z</time>
      </trkpt>
      <trkpt lat="43.0915" lon="2.55639">
        <ele>201.53</ele>
        <time>2015-09-07T08:57:22Z</time>
      </trkpt>
      <trkpt lat="43.09138" lon="2.55637">
        <ele>202.49</ele>
        <time>2015-09-07T08:57:35Z</time>
      </trkpt>
      <trkpt lat="43.09127" lon="2.55652">
        <ele>202.49</ele>
        <time>2015-09-07T08:57:52Z</time>
      </trkpt>
      <trkpt lat="43.09126" lon="2.55672">
        <ele>202.01</ele>
        <time>2015-09-07T08:58:12Z</time>
      </trkpt>
      <trkpt lat="43.09123" lon="2.55688">
        <ele>199.13</ele>
        <time>2015-09-07T08:58:30Z</time>
      </trkpt>
      <trkpt lat="43.09122" lon="2.55706">
        <ele>198.17</ele>
        <time>2015-09-07T08:58:45Z</time>
      </trkpt>
      <trkpt lat="43.09119" lon="2.55714">
        <ele>197.69</ele>
        <time>2015-09-07T08:59:04Z</time>
      </trkpt>
      <trkpt lat="43.09116" lon="2.55718">
        <ele>194.32</ele>
        <time>2015-09-07T08:59:15Z</time>
      </trkpt>
      <trkpt lat="43.0911" lon="2.55717">
        <ele>190.96</ele>
        <time>2015-09-07T08:59:36Z</time>
      </trkpt>
      <trkpt lat="43.09109" lon="2.55717">
        <ele>190.96</ele>
        <time>2015-09-07T08:59:37Z</time>
      </trkpt>
      <trkpt lat="43.09099" lon="2.55729">
        <ele>188.08</ele>
        <time>2015-09-07T08:59:55Z</time>
      </trkpt>
      <trkpt lat="43.0909" lon="2.55741">
        <ele>185.67</ele>
        <time>2015-09-07T09:00:12Z</time>
      </trkpt>
      <trkpt lat="43.09094" lon="2.55757">
        <ele>181.83</ele>
        <time>2015-09-07T09:00:28Z</time>
      </trkpt>
      <trkpt lat="43.09093" lon="2.55756">
        <ele>184.71</ele>
        <time>2015-09-07T09:00:30Z</time>
      </trkpt>
      <trkpt lat="43.09094" lon="2.55759">
        <ele>181.35</ele>
        <time>2015-09-07T09:00:39Z</time>
      </trkpt>
      <trkpt lat="43.09093" lon="2.55771">
        <ele>177.98</ele>
        <time>2015-09-07T09:00:49Z</time>
      </trkpt>
      <trkpt lat="43.09097" lon="2.55779">
        <ele>177.5</ele>
        <time>2015-09-07T09:01:10Z</time>
      </trkpt>
      <trkpt lat="43.091" lon="2.55784">
        <ele>177.5</ele>
        <time>2015-09-07T09:01:34Z</time>
      </trkpt>
      <trkpt lat="43.09102" lon="2.55792">
        <ele>175.58</ele>
        <time>2015-09-07T09:01:52Z</time>
      </trkpt>
      <trkpt lat="43.09102" lon="2.55793">
        <ele>176.54</ele>
        <time>2015-09-07T09:01:59Z</time>
      </trkpt>
      <trkpt lat="43.09099" lon="2.55795">
        <ele>174.14</ele>
        <time>2015-09-07T09:02:14Z</time>
      </trkpt>
      <trkpt lat="43.09097" lon="2.55801">
        <ele>169.33</ele>
        <time>2015-09-07T09:02:25Z</time>
      </trkpt>
      <trkpt lat="43.09097" lon="2.55801">
        <ele>169.33</ele>
        <time>2015-09-07T09:02:26Z</time>
      </trkpt>
      <trkpt lat="43.09097" lon="2.55802">
        <ele>172.69</ele>
        <time>2015-09-07T09:02:27Z</time>
      </trkpt>
      <trkpt lat="43.09097" lon="2.55802">
        <ele>172.21</ele>
        <time>2015-09-07T09:02:28Z</time>
      </trkpt>
      <trkpt lat="43.09095" lon="2.55806">
        <ele>168.37</ele>
        <time>2015-09-07T09:02:36Z</time>
      </trkpt>
      <trkpt lat="43.09094" lon="2.55807">
        <ele>169.81</ele>
        <time>2015-09-07T09:02:37Z</time>
      </trkpt>
      <trkpt lat="43.09094" lon="2.55812">
        <ele>169.81</ele>
        <time>2015-09-07T09:02:41Z</time>
      </trkpt>
      <trkpt lat="43.09096" lon="2.55816">
        <ele>168.85</ele>
        <time>2015-09-07T09:02:43Z</time>
      </trkpt>
      <trkpt lat="43.09105" lon="2.55841">
        <ele>167.41</ele>
        <time>2015-09-07T09:03:03Z</time>
      </trkpt>
      <trkpt lat="43.09107" lon="2.55845">
        <ele>165.96</ele>
        <time>2015-09-07T09:03:18Z</time>
      </trkpt>
      <trkpt lat="43.09114" lon="2.55853">
        <ele>165.48</ele>
        <time>2015-09-07T09:03:30Z</time>
      </trkpt>
      <trkpt lat="43.09119" lon="2.5586">
        <ele>166.45</ele>
        <time>2015-09-07T09:03:37Z</time>
      </trkpt>
      <trkpt lat="43.09124" lon="2.55902">
        <ele>165</ele>
        <time>2015-09-07T09:03:57Z</time>
      </trkpt>
      <trkpt lat="43.09123" lon="2.55932">
        <ele>164.04</ele>
        <time>2015-09-07T09:04:08Z</time>
      </trkpt>
      <trkpt lat="43.09123" lon="2.55959">
        <ele>165</ele>
        <time>2015-09-07T09:04:20Z</time>
      </trkpt>
      <trkpt lat="43.09119" lon="2.55962">
        <ele>164.52</ele>
        <time>2015-09-07T09:04:26Z</time>
      </trkpt>
      <trkpt lat="43.09119" lon="2.55972">
        <ele>164.52</ele>
        <time>2015-09-07T09:04:31Z</time>
      </trkpt>
      <trkpt lat="43.09119" lon="2.55987">
        <ele>164.04</ele>
        <time>2015-09-07T09:04:40Z</time>
      </trkpt>
      <trkpt lat="43.09119" lon="2.5599">
        <ele>168.37</ele>
        <time>2015-09-07T09:04:42Z</time>
      </trkpt>
      <trkpt lat="43.09119" lon="2.55991">
        <ele>164.52</ele>
        <time>2015-09-07T09:04:43Z</time>
      </trkpt>
      <trkpt lat="43.09121" lon="2.55994">
        <ele>165</ele>
        <time>2015-09-07T09:04:45Z</time>
      </trkpt>
      <trkpt lat="43.09123" lon="2.56014">
        <ele>162.6</ele>
        <time>2015-09-07T09:05:01Z</time>
      </trkpt>
      <trkpt lat="43.09118" lon="2.56023">
        <ele>160.2</ele>
        <time>2015-09-07T09:05:12Z</time>
      </trkpt>
      <trkpt lat="43.09119" lon="2.56023">
        <ele>166.45</ele>
        <time>2015-09-07T09:05:13Z</time>
      </trkpt>
      <trkpt lat="43.09122" lon="2.56025">
        <ele>164.04</ele>
        <time>2015-09-07T09:05:16Z</time>
      </trkpt>
      <trkpt lat="43.09127" lon="2.56032">
        <ele>162.6</ele>
        <time>2015-09-07T09:05:33Z</time>
      </trkpt>
      <trkpt lat="43.09128" lon="2.56033">
        <ele>163.08</ele>
        <time>2015-09-07T09:05:34Z</time>
      </trkpt>
      <trkpt lat="43.09134" lon="2.56042">
        <ele>162.12</ele>
        <time>2015-09-07T09:05:40Z</time>
      </trkpt>
      <trkpt lat="43.09144" lon="2.56087">
        <ele>163.56</ele>
        <time>2015-09-07T09:06:03Z</time>
      </trkpt>
      <trkpt lat="43.09143" lon="2.56113">
        <ele>164.04</ele>
        <time>2015-09-07T09:06:22Z</time>
      </trkpt>
      <trkpt lat="43.09144" lon="2.56136">
        <ele>165.96</ele>
        <time>2015-09-07T09:06:36Z</time>
      </trkpt>
      <trkpt lat="43.09144" lon="2.5614">
        <ele>164.52</ele>
        <time>2015-09-07T09:06:38Z</time>
      </trkpt>
      <trkpt lat="43.09138" lon="2.5617">
        <ele>163.08</ele>
        <time>2015-09-07T09:06:59Z</time>
      </trkpt>
      <trkpt lat="43.09131" lon="2.562">
        <ele>162.6</ele>
        <time>2015-09-07T09:07:20Z</time>
      </trkpt>
      <trkpt lat="43.09132" lon="2.56222">
        <ele>163.08</ele>
        <time>2015-09-07T09:07:39Z</time>
      </trkpt>
      <trkpt lat="43.09127" lon="2.56251">
        <ele>160.68</ele>
        <time>2015-09-07T09:07:57Z</time>
      </trkpt>
      <trkpt lat="43.09126" lon="2.56273">
        <ele>162.12</ele>
        <time>2015-09-07T09:08:12Z</time>
      </trkpt>
      <trkpt lat="43.09121" lon="2.56302">
        <ele>162.12</ele>
        <time>2015-09-07T09:08:31Z</time>
      </trkpt>
      <trkpt lat="43.09117" lon="2.56332">
        <ele>161.16</ele>
        <time>2015-09-07T09:08:50Z</time>
      </trkpt>
      <trkpt lat="43.09109" lon="2.56362">
        <ele>160.68</ele>
        <time>2015-09-07T09:09:10Z</time>
      </trkpt>
      <trkpt lat="43.09109" lon="2.56363">
        <ele>160.68</ele>
        <time>2015-09-07T09:09:11Z</time>
      </trkpt>
      <trkpt lat="43.09103" lon="2.56387">
        <ele>160.68</ele>
        <time>2015-09-07T09:09:28Z</time>
      </trkpt>
      <trkpt lat="43.09095" lon="2.56418">
        <ele>160.68</ele>
        <time>2015-09-07T09:09:47Z</time>
      </trkpt>
      <trkpt lat="43.09091" lon="2.56444">
        <ele>161.16</ele>
        <time>2015-09-07T09:10:04Z</time>
      </trkpt>
      <trkpt lat="43.09082" lon="2.56473">
        <ele>161.16</ele>
        <time>2015-09-07T09:10:23Z</time>
      </trkpt>
      <trkpt lat="43.09079" lon="2.56504">
        <ele>160.68</ele>
        <time>2015-09-07T09:10:43Z</time>
      </trkpt>
      <trkpt lat="43.09077" lon="2.56531">
        <ele>160.2</ele>
        <time>2015-09-07T09:11:00Z</time>
      </trkpt>
      <trkpt lat="43.09066" lon="2.56557">
        <ele>159.72</ele>
        <time>2015-09-07T09:11:20Z</time>
      </trkpt>
      <trkpt lat="43.09059" lon="2.56585">
        <ele>159.24</ele>
        <time>2015-09-07T09:11:39Z</time>
      </trkpt>
      <trkpt lat="43.09056" lon="2.56599">
        <ele>159.24</ele>
        <time>2015-09-07T09:11:48Z</time>
      </trkpt>
      <trkpt lat="43.09049" lon="2.56625">
        <ele>159.72</ele>
        <time>2015-09-07T09:12:06Z</time>
      </trkpt>
      <trkpt lat="43.09041" lon="2.56648">
        <ele>159.24</ele>
        <time>2015-09-07T09:12:24Z</time>
      </trkpt>
      <trkpt lat="43.09039" lon="2.56655">
        <ele>159.24</ele>
        <time>2015-09-07T09:12:29Z</time>
      </trkpt>
      <trkpt lat="43.09029" lon="2.56678">
        <ele>159.24</ele>
        <time>2015-09-07T09:12:46Z</time>
      </trkpt>
      <trkpt lat="43.09022" lon="2.56702">
        <ele>157.79</ele>
        <time>2015-09-07T09:13:03Z</time>
      </trkpt>
      <trkpt lat="43.09013" lon="2.56725">
        <ele>159.24</ele>
        <time>2015-09-07T09:13:21Z</time>
      </trkpt>
      <trkpt lat="43.09007" lon="2.56748">
        <ele>158.27</ele>
        <time>2015-09-07T09:13:37Z</time>
      </trkpt>
      <trkpt lat="43.09" lon="2.56775">
        <ele>158.75</ele>
        <time>2015-09-07T09:13:54Z</time>
      </trkpt>
      <trkpt lat="43.08993" lon="2.568">
        <ele>157.31</ele>
        <time>2015-09-07T09:14:10Z</time>
      </trkpt>
      <trkpt lat="43.08991" lon="2.56824">
        <ele>158.27</ele>
        <time>2015-09-07T09:14:27Z</time>
      </trkpt>
      <trkpt lat="43.08987" lon="2.56849">
        <ele>158.27</ele>
        <time>2015-09-07T09:14:44Z</time>
      </trkpt>
      <trkpt lat="43.08982" lon="2.56873">
        <ele>156.83</ele>
        <time>2015-09-07T09:15:00Z</time>
      </trkpt>
      <trkpt lat="43.08982" lon="2.56876">
        <ele>157.79</ele>
        <time>2015-09-07T09:15:02Z</time>
      </trkpt>
      <trkpt lat="43.08975" lon="2.56904">
        <ele>156.83</ele>
        <time>2015-09-07T09:15:20Z</time>
      </trkpt>
      <trkpt lat="43.08974" lon="2.56933">
        <ele>157.79</ele>
        <time>2015-09-07T09:15:38Z</time>
      </trkpt>
      <trkpt lat="43.0897" lon="2.56955">
        <ele>155.87</ele>
        <time>2015-09-07T09:15:54Z</time>
      </trkpt>
      <trkpt lat="43.08968" lon="2.56974">
        <ele>156.83</ele>
        <time>2015-09-07T09:16:08Z</time>
      </trkpt>
      <trkpt lat="43.08967" lon="2.56991">
        <ele>157.31</ele>
        <time>2015-09-07T09:16:19Z</time>
      </trkpt>
      <trkpt lat="43.08966" lon="2.57001">
        <ele>158.27</ele>
        <time>2015-09-07T09:16:40Z</time>
      </trkpt>
      <trkpt lat="43.08966" lon="2.57001">
        <ele>153.47</ele>
        <time>2015-09-07T09:16:41Z</time>
      </trkpt>
      <trkpt lat="43.08966" lon="2.57001">
        <ele>159.24</ele>
        <time>2015-09-07T09:16:42Z</time>
      </trkpt>
      <trkpt lat="43.08958" lon="2.57003">
        <ele>155.87</ele>
        <time>2015-09-07T09:16:54Z</time>
      </trkpt>
      <trkpt lat="43.08958" lon="2.57003">
        <ele>158.75</ele>
        <time>2015-09-07T09:16:58Z</time>
      </trkpt>
      <trkpt lat="43.08958" lon="2.57003">
        <ele>155.87</ele>
        <time>2015-09-07T09:16:59Z</time>
      </trkpt>
      <trkpt lat="43.08957" lon="2.57001">
        <ele>157.31</ele>
        <time>2015-09-07T09:17:17Z</time>
      </trkpt>
      <trkpt lat="43.0895" lon="2.56999">
        <ele>156.35</ele>
        <time>2015-09-07T09:17:37Z</time>
      </trkpt>
      <trkpt lat="43.0895" lon="2.56999">
        <ele>155.87</ele>
        <time>2015-09-07T09:17:38Z</time>
      </trkpt>
      <trkpt lat="43.08946" lon="2.57">
        <ele>156.83</ele>
        <time>2015-09-07T09:17:54Z</time>
      </trkpt>
      <trkpt lat="43.08944" lon="2.57008">
        <ele>157.31</ele>
        <time>2015-09-07T09:18:09Z</time>
      </trkpt>
      <trkpt lat="43.08942" lon="2.5701">
        <ele>160.2</ele>
        <time>2015-09-07T09:18:24Z</time>
      </trkpt>
      <trkpt lat="43.08943" lon="2.57014">
        <ele>162.12</ele>
        <time>2015-09-07T09:18:39Z</time>
      </trkpt>
      <trkpt lat="43.08941" lon="2.57019">
        <ele>164.04</ele>
        <time>2015-09-07T09:18:53Z</time>
      </trkpt>
      <trkpt lat="43.08934" lon="2.57018">
        <ele>165</ele>
        <time>2015-09-07T09:19:07Z</time>
      </trkpt>
      <trkpt lat="43.08927" lon="2.57014">
        <ele>167.41</ele>
        <time>2015-09-07T09:19:21Z</time>
      </trkpt>
      <trkpt lat="43.0892" lon="2.57017">
        <ele>167.41</ele>
        <time>2015-09-07T09:19:35Z</time>
      </trkpt>
      <trkpt lat="43.08916" lon="2.57019">
        <ele>168.85</ele>
        <time>2015-09-07T09:19:50Z</time>
      </trkpt>
      <trkpt lat="43.08909" lon="2.57025">
        <ele>170.77</ele>
        <time>2015-09-07T09:20:09Z</time>
      </trkpt>
      <trkpt lat="43.08908" lon="2.57027">
        <ele>169.33</ele>
        <time>2015-09-07T09:20:17Z</time>
      </trkpt>
      <trkpt lat="43.08908" lon="2.57027">
        <ele>174.62</ele>
        <time>2015-09-07T09:20:18Z</time>
      </trkpt>
      <trkpt lat="43.08907" lon="2.57028">
        <ele>169.33</ele>
        <time>2015-09-07T09:20:21Z</time>
      </trkpt>
      <trkpt lat="43.08907" lon="2.57028">
        <ele>173.17</ele>
        <time>2015-09-07T09:20:23Z</time>
      </trkpt>
      <trkpt lat="43.08907" lon="2.57028">
        <ele>168.85</ele>
        <time>2015-09-07T09:20:28Z</time>
      </trkpt>
      <trkpt lat="43.08907" lon="2.57028">
        <ele>172.69</ele>
        <time>2015-09-07T09:20:29Z</time>
      </trkpt>
      <trkpt lat="43.0891" lon="2.57033">
        <ele>173.66</ele>
        <time>2015-09-07T09:20:42Z</time>
      </trkpt>
      <trkpt lat="43.08904" lon="2.5704">
        <ele>175.58</ele>
        <time>2015-09-07T09:20:55Z</time>
      </trkpt>
      <trkpt lat="43.08901" lon="2.57041">
        <ele>178.94</ele>
        <time>2015-09-07T09:21:00Z</time>
      </trkpt>
      <trkpt lat="43.08901" lon="2.57041">
        <ele>175.58</ele>
        <time>2015-09-07T09:21:01Z</time>
      </trkpt>
      <trkpt lat="43.08901" lon="2.57041">
        <ele>185.19</ele>
        <time>2015-09-07T09:21:04Z</time>
      </trkpt>
      <trkpt lat="43.08901" lon="2.57041">
        <ele>176.06</ele>
        <time>2015-09-07T09:21:05Z</time>
      </trkpt>
      <trkpt lat="43.08898" lon="2.5705">
        <ele>177.5</ele>
        <time>2015-09-07T09:21:18Z</time>
      </trkpt>
      <trkpt lat="43.08895" lon="2.57054">
        <ele>179.42</ele>
        <time>2015-09-07T09:21:22Z</time>
      </trkpt>
      <trkpt lat="43.08889" lon="2.57058">
        <ele>176.06</ele>
        <time>2015-09-07T09:21:34Z</time>
      </trkpt>
      <trkpt lat="43.08889" lon="2.57058">
        <ele>191.92</ele>
        <time>2015-09-07T09:21:35Z</time>
      </trkpt>
      <trkpt lat="43.08889" lon="2.57058">
        <ele>180.87</ele>
        <time>2015-09-07T09:21:36Z</time>
      </trkpt>
      <trkpt lat="43.08886" lon="2.57061">
        <ele>181.83</ele>
        <time>2015-09-07T09:21:49Z</time>
      </trkpt>
      <trkpt lat="43.08881" lon="2.57065">
        <ele>183.27</ele>
        <time>2015-09-07T09:22:02Z</time>
      </trkpt>
      <trkpt lat="43.08875" lon="2.57071">
        <ele>184.23</ele>
        <time>2015-09-07T09:22:15Z</time>
      </trkpt>
      <trkpt lat="43.08872" lon="2.57075">
        <ele>185.67</ele>
        <time>2015-09-07T09:22:27Z</time>
      </trkpt>
      <trkpt lat="43.08869" lon="2.5708">
        <ele>186.15</ele>
        <time>2015-09-07T09:22:41Z</time>
      </trkpt>
      <trkpt lat="43.08868" lon="2.57084">
        <ele>188.08</ele>
        <time>2015-09-07T09:22:54Z</time>
      </trkpt>
      <trkpt lat="43.08871" lon="2.57082">
        <ele>189.04</ele>
        <time>2015-09-07T09:23:05Z</time>
      </trkpt>
      <trkpt lat="43.08874" lon="2.57083">
        <ele>189.04</ele>
        <time>2015-09-07T09:23:13Z</time>
      </trkpt>
      <trkpt lat="43.08877" lon="2.57084">
        <ele>190.48</ele>
        <time>2015-09-07T09:23:31Z</time>
      </trkpt>
      <trkpt lat="43.08871" lon="2.57096">
        <ele>192.88</ele>
        <time>2015-09-07T09:23:53Z</time>
      </trkpt>
      <trkpt lat="43.0887" lon="2.57102">
        <ele>193.84</ele>
        <time>2015-09-07T09:24:12Z</time>
      </trkpt>
      <trkpt lat="43.0887" lon="2.57112">
        <ele>195.28</ele>
        <time>2015-09-07T09:24:33Z</time>
      </trkpt>
      <trkpt lat="43.08863" lon="2.57122">
        <ele>195.77</ele>
        <time>2015-09-07T09:24:52Z</time>
      </trkpt>
      <trkpt lat="43.08862" lon="2.57125">
        <ele>197.69</ele>
        <time>2015-09-07T09:25:17Z</time>
      </trkpt>
      <trkpt lat="43.08863" lon="2.57128">
        <ele>198.65</ele>
        <time>2015-09-07T09:25:39Z</time>
      </trkpt>
      <trkpt lat="43.08862" lon="2.57132">
        <ele>199.13</ele>
        <time>2015-09-07T09:26:03Z</time>
      </trkpt>
      <trkpt lat="43.08858" lon="2.57142">
        <ele>202.49</ele>
        <time>2015-09-07T09:26:18Z</time>
      </trkpt>
      <trkpt lat="43.08859" lon="2.57158">
        <ele>204.9</ele>
        <time>2015-09-07T09:26:35Z</time>
      </trkpt>
      <trkpt lat="43.08854" lon="2.57168">
        <ele>205.38</ele>
        <time>2015-09-07T09:26:54Z</time>
      </trkpt>
      <trkpt lat="43.08849" lon="2.57184">
        <ele>205.86</ele>
        <time>2015-09-07T09:27:13Z</time>
      </trkpt>
      <trkpt lat="43.0884" lon="2.57195">
        <ele>207.3</ele>
        <time>2015-09-07T09:27:28Z</time>
      </trkpt>
      <trkpt lat="43.08831" lon="2.57202">
        <ele>207.78</ele>
        <time>2015-09-07T09:27:46Z</time>
      </trkpt>
      <trkpt lat="43.08821" lon="2.57209">
        <ele>209.7</ele>
        <time>2015-09-07T09:28:03Z</time>
      </trkpt>
      <trkpt lat="43.08817" lon="2.57211">
        <ele>211.63</ele>
        <time>2015-09-07T09:28:20Z</time>
      </trkpt>
      <trkpt lat="43.08814" lon="2.57219">
        <ele>214.03</ele>
        <time>2015-09-07T09:28:38Z</time>
      </trkpt>
      <trkpt lat="43.08807" lon="2.57228">
        <ele>215.95</ele>
        <time>2015-09-07T09:28:58Z</time>
      </trkpt>
      <trkpt lat="43.088" lon="2.57242">
        <ele>216.91</ele>
        <time>2015-09-07T09:29:19Z</time>
      </trkpt>
      <trkpt lat="43.08798" lon="2.57256">
        <ele>217.4</ele>
        <time>2015-09-07T09:29:37Z</time>
      </trkpt>
      <trkpt lat="43.08796" lon="2.57267">
        <ele>219.32</ele>
        <time>2015-09-07T09:29:57Z</time>
      </trkpt>
      <trkpt lat="43.08794" lon="2.57292">
        <ele>220.28</ele>
        <time>2015-09-07T09:30:18Z</time>
      </trkpt>
      <trkpt lat="43.08793" lon="2.57309">
        <ele>221.72</ele>
        <time>2015-09-07T09:30:35Z</time>
      </trkpt>
      <trkpt lat="43.08794" lon="2.57335">
        <ele>224.61</ele>
        <time>2015-09-07T09:30:57Z</time>
      </trkpt>
      <trkpt lat="43.08792" lon="2.57345">
        <ele>224.61</ele>
        <time>2015-09-07T09:31:15Z</time>
      </trkpt>
      <trkpt lat="43.08794" lon="2.57348">
        <ele>225.09</ele>
        <time>2015-09-07T09:31:33Z</time>
      </trkpt>
      <trkpt lat="43.08792" lon="2.57358">
        <ele>226.05</ele>
        <time>2015-09-07T09:31:47Z</time>
      </trkpt>
      <trkpt lat="43.08793" lon="2.57377">
        <ele>227.97</ele>
        <time>2015-09-07T09:32:03Z</time>
      </trkpt>
      <trkpt lat="43.08788" lon="2.57399">
        <ele>228.93</ele>
        <time>2015-09-07T09:32:21Z</time>
      </trkpt>
      <trkpt lat="43.0879" lon="2.57416">
        <ele>228.45</ele>
        <time>2015-09-07T09:32:40Z</time>
      </trkpt>
      <trkpt lat="43.08785" lon="2.57424">
        <ele>227.49</ele>
        <time>2015-09-07T09:32:56Z</time>
      </trkpt>
      <trkpt lat="43.0878" lon="2.57434">
        <ele>227.01</ele>
        <time>2015-09-07T09:33:12Z</time>
      </trkpt>
      <trkpt lat="43.08782" lon="2.57453">
        <ele>229.89</ele>
        <time>2015-09-07T09:33:31Z</time>
      </trkpt>
      <trkpt lat="43.08785" lon="2.5747">
        <ele>228.93</ele>
        <time>2015-09-07T09:33:49Z</time>
      </trkpt>
      <trkpt lat="43.08787" lon="2.5748">
        <ele>232.3</ele>
        <time>2015-09-07T09:34:04Z</time>
      </trkpt>
      <trkpt lat="43.08789" lon="2.57501">
        <ele>232.78</ele>
        <time>2015-09-07T09:34:24Z</time>
      </trkpt>
      <trkpt lat="43.08791" lon="2.57508">
        <ele>233.74</ele>
        <time>2015-09-07T09:34:33Z</time>
      </trkpt>
      <trkpt lat="43.08795" lon="2.57529">
        <ele>235.66</ele>
        <time>2015-09-07T09:34:54Z</time>
      </trkpt>
      <trkpt lat="43.08799" lon="2.5755">
        <ele>237.1</ele>
        <time>2015-09-07T09:35:15Z</time>
      </trkpt>
      <trkpt lat="43.08802" lon="2.57567">
        <ele>237.58</ele>
        <time>2015-09-07T09:35:36Z</time>
      </trkpt>
      <trkpt lat="43.08805" lon="2.57576">
        <ele>239.51</ele>
        <time>2015-09-07T09:35:53Z</time>
      </trkpt>
      <trkpt lat="43.08805" lon="2.57577">
        <ele>239.51</ele>
        <time>2015-09-07T09:35:54Z</time>
      </trkpt>
      <trkpt lat="43.08808" lon="2.57588">
        <ele>239.99</ele>
        <time>2015-09-07T09:36:02Z</time>
      </trkpt>
      <trkpt lat="43.0881" lon="2.57615">
        <ele>239.99</ele>
        <time>2015-09-07T09:36:20Z</time>
      </trkpt>
      <trkpt lat="43.0881" lon="2.57627">
        <ele>239.99</ele>
        <time>2015-09-07T09:36:34Z</time>
      </trkpt>
      <trkpt lat="43.08814" lon="2.57643">
        <ele>241.43</ele>
        <time>2015-09-07T09:36:52Z</time>
      </trkpt>
      <trkpt lat="43.08825" lon="2.57661">
        <ele>244.31</ele>
        <time>2015-09-07T09:37:12Z</time>
      </trkpt>
      <trkpt lat="43.08833" lon="2.57667">
        <ele>245.27</ele>
        <time>2015-09-07T09:37:22Z</time>
      </trkpt>
      <trkpt lat="43.08837" lon="2.57674">
        <ele>245.75</ele>
        <time>2015-09-07T09:37:36Z</time>
      </trkpt>
      <trkpt lat="43.08839" lon="2.57679">
        <ele>245.75</ele>
        <time>2015-09-07T09:37:52Z</time>
      </trkpt>
      <trkpt lat="43.08838" lon="2.57678">
        <ele>245.75</ele>
        <time>2015-09-07T09:38:08Z</time>
      </trkpt>
      <trkpt lat="43.08838" lon="2.57677">
        <ele>240.95</ele>
        <time>2015-09-07T09:38:23Z</time>
      </trkpt>
      <trkpt lat="43.08838" lon="2.57677">
        <ele>244.31</ele>
        <time>2015-09-07T09:38:24Z</time>
      </trkpt>
      <trkpt lat="43.08838" lon="2.57678">
        <ele>245.27</ele>
        <time>2015-09-07T09:38:26Z</time>
      </trkpt>
      <trkpt lat="43.08839" lon="2.57679">
        <ele>252.48</ele>
        <time>2015-09-07T09:38:28Z</time>
      </trkpt>
      <trkpt lat="43.08839" lon="2.5768">
        <ele>245.27</ele>
        <time>2015-09-07T09:38:29Z</time>
      </trkpt>
      <trkpt lat="43.08839" lon="2.57682">
        <ele>244.79</ele>
        <time>2015-09-07T09:38:49Z</time>
      </trkpt>
      <trkpt lat="43.0884" lon="2.57677">
        <ele>245.75</ele>
        <time>2015-09-07T09:39:11Z</time>
      </trkpt>
      <trkpt lat="43.08839" lon="2.57677">
        <ele>249.12</ele>
        <time>2015-09-07T09:39:28Z</time>
      </trkpt>
      <trkpt lat="43.08839" lon="2.57677">
        <ele>245.27</ele>
        <time>2015-09-07T09:39:31Z</time>
      </trkpt>
      <trkpt lat="43.08836" lon="2.57676">
        <ele>246.23</ele>
        <time>2015-09-07T09:39:52Z</time>
      </trkpt>
      <trkpt lat="43.0884" lon="2.57688">
        <ele>246.72</ele>
        <time>2015-09-07T09:40:11Z</time>
      </trkpt>
      <trkpt lat="43.0884" lon="2.57684">
        <ele>246.72</ele>
        <time>2015-09-07T09:40:29Z</time>
      </trkpt>
      <trkpt lat="43.08829" lon="2.57681">
        <ele>246.23</ele>
        <time>2015-09-07T09:40:45Z</time>
      </trkpt>
      <trkpt lat="43.08826" lon="2.5768">
        <ele>247.2</ele>
        <time>2015-09-07T09:40:47Z</time>
      </trkpt>
      <trkpt lat="43.08824" lon="2.57681">
        <ele>247.68</ele>
        <time>2015-09-07T09:41:02Z</time>
      </trkpt>
      <trkpt lat="43.08836" lon="2.57677">
        <ele>245.75</ele>
        <time>2015-09-07T09:41:15Z</time>
      </trkpt>
      <trkpt lat="43.08842" lon="2.57674">
        <ele>247.2</ele>
        <time>2015-09-07T09:41:20Z</time>
      </trkpt>
      <trkpt lat="43.08858" lon="2.57651">
        <ele>246.23</ele>
        <time>2015-09-07T09:41:40Z</time>
      </trkpt>
      <trkpt lat="43.08869" lon="2.57625">
        <ele>247.2</ele>
        <time>2015-09-07T09:42:01Z</time>
      </trkpt>
      <trkpt lat="43.08879" lon="2.57595">
        <ele>249.6</ele>
        <time>2015-09-07T09:42:21Z</time>
      </trkpt>
      <trkpt lat="43.08889" lon="2.57569">
        <ele>252.48</ele>
        <time>2015-09-07T09:42:40Z</time>
      </trkpt>
      <trkpt lat="43.08906" lon="2.57549">
        <ele>255.37</ele>
        <time>2015-09-07T09:42:58Z</time>
      </trkpt>
      <trkpt lat="43.08915" lon="2.57535">
        <ele>257.77</ele>
        <time>2015-09-07T09:43:13Z</time>
      </trkpt>
      <trkpt lat="43.08927" lon="2.57519">
        <ele>259.21</ele>
        <time>2015-09-07T09:43:28Z</time>
      </trkpt>
      <trkpt lat="43.08928" lon="2.57519">
        <ele>260.17</ele>
        <time>2015-09-07T09:43:45Z</time>
      </trkpt>
      <trkpt lat="43.08932" lon="2.57514">
        <ele>259.69</ele>
        <time>2015-09-07T09:43:57Z</time>
      </trkpt>
      <trkpt lat="43.08938" lon="2.57519">
        <ele>260.17</ele>
        <time>2015-09-07T09:44:12Z</time>
      </trkpt>
      <trkpt lat="43.0894" lon="2.57523">
        <ele>260.17</ele>
        <time>2015-09-07T09:44:21Z</time>
      </trkpt>
      <trkpt lat="43.08937" lon="2.5754">
        <ele>262.58</ele>
        <time>2015-09-07T09:44:29Z</time>
      </trkpt>
      <trkpt lat="43.08937" lon="2.57542">
        <ele>262.58</ele>
        <time>2015-09-07T09:44:30Z</time>
      </trkpt>
      <trkpt lat="43.08936" lon="2.57548">
        <ele>263.54</ele>
        <time>2015-09-07T09:44:32Z</time>
      </trkpt>
      <trkpt lat="43.08935" lon="2.57552">
        <ele>264.5</ele>
        <time>2015-09-07T09:44:34Z</time>
      </trkpt>
      <trkpt lat="43.08934" lon="2.5756">
        <ele>265.94</ele>
        <time>2015-09-07T09:44:45Z</time>
      </trkpt>
      <trkpt lat="43.08932" lon="2.57576">
        <ele>268.83</ele>
        <time>2015-09-07T09:44:58Z</time>
      </trkpt>
      <trkpt lat="43.0893" lon="2.57592">
        <ele>270.75</ele>
        <time>2015-09-07T09:45:10Z</time>
      </trkpt>
      <trkpt lat="43.08924" lon="2.57602">
        <ele>271.71</ele>
        <time>2015-09-07T09:45:24Z</time>
      </trkpt>
      <trkpt lat="43.08926" lon="2.57606">
        <ele>271.71</ele>
        <time>2015-09-07T09:45:38Z</time>
      </trkpt>
      <trkpt lat="43.08926" lon="2.57611">
        <ele>271.71</ele>
        <time>2015-09-07T09:45:57Z</time>
      </trkpt>
      <trkpt lat="43.08926" lon="2.57612">
        <ele>270.75</ele>
        <time>2015-09-07T09:46:25Z</time>
      </trkpt>
      <trkpt lat="43.08927" lon="2.5761">
        <ele>270.75</ele>
        <time>2015-09-07T09:46:42Z</time>
      </trkpt>
      <trkpt lat="43.0893" lon="2.57604">
        <ele>271.23</ele>
        <time>2015-09-07T09:46:54Z</time>
      </trkpt>
      <trkpt lat="43.0893" lon="2.57604">
        <ele>267.38</ele>
        <time>2015-09-07T09:47:00Z</time>
      </trkpt>
      <trkpt lat="43.0893" lon="2.57604">
        <ele>272.19</ele>
        <time>2015-09-07T09:47:02Z</time>
      </trkpt>
      <trkpt lat="43.08929" lon="2.57604">
        <ele>271.23</ele>
        <time>2015-09-07T09:47:03Z</time>
      </trkpt>
      <trkpt lat="43.08929" lon="2.57604">
        <ele>272.19</ele>
        <time>2015-09-07T09:47:17Z</time>
      </trkpt>
      <trkpt lat="43.08929" lon="2.57604">
        <ele>271.23</ele>
        <time>2015-09-07T09:47:38Z</time>
      </trkpt>
      <trkpt lat="43.0893" lon="2.57603">
        <ele>271.23</ele>
        <time>2015-09-07T09:48:01Z</time>
      </trkpt>
      <trkpt lat="43.08929" lon="2.57603">
        <ele>271.71</ele>
        <time>2015-09-07T09:48:27Z</time>
      </trkpt>
      <trkpt lat="43.08929" lon="2.57603">
        <ele>271.23</ele>
        <time>2015-09-07T09:48:52Z</time>
      </trkpt>
      <trkpt lat="43.08929" lon="2.57603">
        <ele>270.27</ele>
        <time>2015-09-07T09:49:19Z</time>
      </trkpt>
      <trkpt lat="43.08929" lon="2.57603">
        <ele>275.56</ele>
        <time>2015-09-07T09:49:41Z</time>
      </trkpt>
      <trkpt lat="43.08929" lon="2.57603">
        <ele>270.75</ele>
        <time>2015-09-07T09:49:42Z</time>
      </trkpt>
      <trkpt lat="43.08929" lon="2.57603">
        <ele>266.42</ele>
        <time>2015-09-07T09:50:07Z</time>
      </trkpt>
      <trkpt lat="43.08929" lon="2.57603">
        <ele>276.04</ele>
        <time>2015-09-07T09:50:08Z</time>
      </trkpt>
      <trkpt lat="43.08929" lon="2.57603">
        <ele>271.71</ele>
        <time>2015-09-07T09:50:09Z</time>
      </trkpt>
      <trkpt lat="43.08928" lon="2.57603">
        <ele>271.71</ele>
        <time>2015-09-07T09:50:37Z</time>
      </trkpt>
      <trkpt lat="43.0893" lon="2.57604">
        <ele>271.71</ele>
        <time>2015-09-07T09:50:57Z</time>
      </trkpt>
      <trkpt lat="43.08929" lon="2.57603">
        <ele>273.63</ele>
        <time>2015-09-07T09:51:07Z</time>
      </trkpt>
      <trkpt lat="43.0893" lon="2.57603">
        <ele>273.63</ele>
        <time>2015-09-07T09:51:22Z</time>
      </trkpt>
      <trkpt lat="43.08931" lon="2.57604">
        <ele>274.11</ele>
        <time>2015-09-07T09:51:28Z</time>
      </trkpt>
      <trkpt lat="43.0893" lon="2.57603">
        <ele>273.63</ele>
        <time>2015-09-07T09:51:43Z</time>
      </trkpt>
      <trkpt lat="43.0893" lon="2.57603">
        <ele>272.67</ele>
        <time>2015-09-07T09:52:04Z</time>
      </trkpt>
      <trkpt lat="43.0893" lon="2.57603">
        <ele>272.67</ele>
        <time>2015-09-07T09:52:35Z</time>
      </trkpt>
      <trkpt lat="43.0893" lon="2.57603">
        <ele>272.19</ele>
        <time>2015-09-07T09:53:05Z</time>
      </trkpt>
      <trkpt lat="43.0893" lon="2.57604">
        <ele>272.67</ele>
        <time>2015-09-07T09:53:26Z</time>
      </trkpt>
      <trkpt lat="43.0893" lon="2.57604">
        <ele>271.71</ele>
        <time>2015-09-07T09:53:56Z</time>
      </trkpt>
      <trkpt lat="43.0893" lon="2.57604">
        <ele>273.15</ele>
        <time>2015-09-07T09:54:28Z</time>
      </trkpt>
      <trkpt lat="43.0893" lon="2.57604">
        <ele>272.67</ele>
        <time>2015-09-07T09:54:57Z</time>
      </trkpt>
      <trkpt lat="43.08929" lon="2.57603">
        <ele>272.67</ele>
        <time>2015-09-07T09:55:10Z</time>
      </trkpt>
      <trkpt lat="43.08928" lon="2.57591">
        <ele>269.79</ele>
        <time>2015-09-07T09:55:22Z</time>
      </trkpt>
      <trkpt lat="43.08928" lon="2.57586">
        <ele>270.27</ele>
        <time>2015-09-07T09:55:34Z</time>
      </trkpt>
      <trkpt lat="43.08931" lon="2.57576">
        <ele>268.35</ele>
        <time>2015-09-07T09:55:47Z</time>
      </trkpt>
      <trkpt lat="43.08933" lon="2.57567">
        <ele>267.38</ele>
        <time>2015-09-07T09:55:53Z</time>
      </trkpt>
      <trkpt lat="43.08933" lon="2.57558">
        <ele>265.94</ele>
        <time>2015-09-07T09:55:58Z</time>
      </trkpt>
      <trkpt lat="43.08934" lon="2.57553">
        <ele>264.5</ele>
        <time>2015-09-07T09:56:01Z</time>
      </trkpt>
      <trkpt lat="43.08937" lon="2.5754">
        <ele>263.06</ele>
        <time>2015-09-07T09:56:12Z</time>
      </trkpt>
      <trkpt lat="43.08938" lon="2.57527">
        <ele>261.62</ele>
        <time>2015-09-07T09:56:23Z</time>
      </trkpt>
      <trkpt lat="43.08938" lon="2.57521">
        <ele>258.73</ele>
        <time>2015-09-07T09:56:27Z</time>
      </trkpt>
      <trkpt lat="43.08938" lon="2.57518">
        <ele>260.17</ele>
        <time>2015-09-07T09:56:29Z</time>
      </trkpt>
      <trkpt lat="43.08938" lon="2.57517">
        <ele>260.17</ele>
        <time>2015-09-07T09:56:30Z</time>
      </trkpt>
      <trkpt lat="43.0894" lon="2.57509">
        <ele>258.73</ele>
        <time>2015-09-07T09:56:36Z</time>
      </trkpt>
      <trkpt lat="43.08946" lon="2.57493">
        <ele>255.85</ele>
        <time>2015-09-07T09:56:49Z</time>
      </trkpt>
      <trkpt lat="43.08949" lon="2.57474">
        <ele>256.33</ele>
        <time>2015-09-07T09:57:03Z</time>
      </trkpt>
      <trkpt lat="43.08951" lon="2.57457">
        <ele>256.81</ele>
        <time>2015-09-07T09:57:17Z</time>
      </trkpt>
      <trkpt lat="43.08953" lon="2.57441">
        <ele>256.81</ele>
        <time>2015-09-07T09:57:36Z</time>
      </trkpt>
      <trkpt lat="43.08955" lon="2.5744">
        <ele>256.81</ele>
        <time>2015-09-07T09:57:56Z</time>
      </trkpt>
      <trkpt lat="43.08958" lon="2.57443">
        <ele>256.81</ele>
        <time>2015-09-07T09:58:12Z</time>
      </trkpt>
      <trkpt lat="43.08955" lon="2.57442">
        <ele>256.33</ele>
        <time>2015-09-07T09:58:32Z</time>
      </trkpt>
      <trkpt lat="43.08957" lon="2.57443">
        <ele>255.85</ele>
        <time>2015-09-07T09:58:54Z</time>
      </trkpt>
      <trkpt lat="43.08953" lon="2.57441">
        <ele>255.37</ele>
        <time>2015-09-07T09:59:09Z</time>
      </trkpt>
      <trkpt lat="43.0895" lon="2.57442">
        <ele>255.85</ele>
        <time>2015-09-07T09:59:19Z</time>
      </trkpt>
      <trkpt lat="43.08959" lon="2.57449">
        <ele>255.37</ele>
        <time>2015-09-07T09:59:36Z</time>
      </trkpt>
      <trkpt lat="43.08962" lon="2.57448">
        <ele>253.93</ele>
        <time>2015-09-07T09:59:49Z</time>
      </trkpt>
      <trkpt lat="43.08964" lon="2.57459">
        <ele>254.41</ele>
        <time>2015-09-07T10:00:06Z</time>
      </trkpt>
      <trkpt lat="43.08969" lon="2.57467">
        <ele>253.44</ele>
        <time>2015-09-07T10:00:22Z</time>
      </trkpt>
      <trkpt lat="43.08969" lon="2.57474">
        <ele>253.93</ele>
        <time>2015-09-07T10:00:36Z</time>
      </trkpt>
      <trkpt lat="43.08966" lon="2.57492">
        <ele>253.93</ele>
        <time>2015-09-07T10:00:52Z</time>
      </trkpt>
      <trkpt lat="43.08972" lon="2.57491">
        <ele>251.52</ele>
        <time>2015-09-07T10:01:05Z</time>
      </trkpt>
      <trkpt lat="43.08972" lon="2.57491">
        <ele>250.56</ele>
        <time>2015-09-07T10:01:07Z</time>
      </trkpt>
      <trkpt lat="43.08972" lon="2.57476">
        <ele>251.04</ele>
        <time>2015-09-07T10:01:23Z</time>
      </trkpt>
      <trkpt lat="43.0897" lon="2.57471">
        <ele>252</ele>
        <time>2015-09-07T10:01:42Z</time>
      </trkpt>
      <trkpt lat="43.08968" lon="2.57469">
        <ele>251.04</ele>
        <time>2015-09-07T10:02:02Z</time>
      </trkpt>
      <trkpt lat="43.08971" lon="2.57469">
        <ele>251.04</ele>
        <time>2015-09-07T10:02:22Z</time>
      </trkpt>
      <trkpt lat="43.08969" lon="2.57459">
        <ele>252</ele>
        <time>2015-09-07T10:02:40Z</time>
      </trkpt>
      <trkpt lat="43.08966" lon="2.57452">
        <ele>254.41</ele>
        <time>2015-09-07T10:02:56Z</time>
      </trkpt>
      <trkpt lat="43.08965" lon="2.57451">
        <ele>254.41</ele>
        <time>2015-09-07T10:02:57Z</time>
      </trkpt>
      <trkpt lat="43.08956" lon="2.57444">
        <ele>255.85</ele>
        <time>2015-09-07T10:03:14Z</time>
      </trkpt>
      <trkpt lat="43.08945" lon="2.57449">
        <ele>254.89</ele>
        <time>2015-09-07T10:03:30Z</time>
      </trkpt>
      <trkpt lat="43.0894" lon="2.57445">
        <ele>253.93</ele>
        <time>2015-09-07T10:03:44Z</time>
      </trkpt>
      <trkpt lat="43.0894" lon="2.57444">
        <ele>253.93</ele>
        <time>2015-09-07T10:03:45Z</time>
      </trkpt>
      <trkpt lat="43.08939" lon="2.57442">
        <ele>254.89</ele>
        <time>2015-09-07T10:03:47Z</time>
      </trkpt>
      <trkpt lat="43.08941" lon="2.57442">
        <ele>254.89</ele>
        <time>2015-09-07T10:04:01Z</time>
      </trkpt>
      <trkpt lat="43.08943" lon="2.57442">
        <ele>255.37</ele>
        <time>2015-09-07T10:04:20Z</time>
      </trkpt>
      <trkpt lat="43.08944" lon="2.57445">
        <ele>254.89</ele>
        <time>2015-09-07T10:04:36Z</time>
      </trkpt>
      <trkpt lat="43.08945" lon="2.57445">
        <ele>253.93</ele>
        <time>2015-09-07T10:04:42Z</time>
      </trkpt>
      <trkpt lat="43.08945" lon="2.57445">
        <ele>253.93</ele>
        <time>2015-09-07T10:04:59Z</time>
      </trkpt>
      <trkpt lat="43.08945" lon="2.57445">
        <ele>253.44</ele>
        <time>2015-09-07T10:05:30Z</time>
      </trkpt>
      <trkpt lat="43.08945" lon="2.57445">
        <ele>253.93</ele>
        <time>2015-09-07T10:05:57Z</time>
      </trkpt>
      <trkpt lat="43.08945" lon="2.57445">
        <ele>254.41</ele>
        <time>2015-09-07T10:06:28Z</time>
      </trkpt>
      <trkpt lat="43.08945" lon="2.57445">
        <ele>253.93</ele>
        <time>2015-09-07T10:06:54Z</time>
      </trkpt>
      <trkpt lat="43.08945" lon="2.57445">
        <ele>254.89</ele>
        <time>2015-09-07T10:07:20Z</time>
      </trkpt>
      <trkpt lat="43.08945" lon="2.57445">
        <ele>254.89</ele>
        <time>2015-09-07T10:07:47Z</time>
      </trkpt>
      <trkpt lat="43.08945" lon="2.57445">
        <ele>254.89</ele>
        <time>2015-09-07T10:08:18Z</time>
      </trkpt>
      <trkpt lat="43.08945" lon="2.57445">
        <ele>254.89</ele>
        <time>2015-09-07T10:08:44Z</time>
      </trkpt>
      <trkpt lat="43.08946" lon="2.57445">
        <ele>255.85</ele>
        <time>2015-09-07T10:09:13Z</time>
      </trkpt>
      <trkpt lat="43.08946" lon="2.57445">
        <ele>254.89</ele>
        <time>2015-09-07T10:09:15Z</time>
      </trkpt>
      <trkpt lat="43.08946" lon="2.57445">
        <ele>254.89</ele>
        <time>2015-09-07T10:09:49Z</time>
      </trkpt>
      <trkpt lat="43.08946" lon="2.57445">
        <ele>255.37</ele>
        <time>2015-09-07T10:10:13Z</time>
      </trkpt>
      <trkpt lat="43.08947" lon="2.57445">
        <ele>255.37</ele>
        <time>2015-09-07T10:10:49Z</time>
      </trkpt>
      <trkpt lat="43.08946" lon="2.57445">
        <ele>255.37</ele>
        <time>2015-09-07T10:11:20Z</time>
      </trkpt>
      <trkpt lat="43.08946" lon="2.57445">
        <ele>255.85</ele>
        <time>2015-09-07T10:11:50Z</time>
      </trkpt>
      <trkpt lat="43.08946" lon="2.57445">
        <ele>255.37</ele>
        <time>2015-09-07T10:12:17Z</time>
      </trkpt>
      <trkpt lat="43.08946" lon="2.57445">
        <ele>256.33</ele>
        <time>2015-09-07T10:12:47Z</time>
      </trkpt>
      <trkpt lat="43.08946" lon="2.57445">
        <ele>255.37</ele>
        <time>2015-09-07T10:13:16Z</time>
      </trkpt>
      <trkpt lat="43.08946" lon="2.57445">
        <ele>254.89</ele>
        <time>2015-09-07T10:13:47Z</time>
      </trkpt>
      <trkpt lat="43.08946" lon="2.57445">
        <ele>255.37</ele>
        <time>2015-09-07T10:14:15Z</time>
      </trkpt>
      <trkpt lat="43.08946" lon="2.57444">
        <ele>255.85</ele>
        <time>2015-09-07T10:14:45Z</time>
      </trkpt>
      <trkpt lat="43.08946" lon="2.57445">
        <ele>256.33</ele>
        <time>2015-09-07T10:15:17Z</time>
      </trkpt>
      <trkpt lat="43.08946" lon="2.57445">
        <ele>256.81</ele>
        <time>2015-09-07T10:15:42Z</time>
      </trkpt>
      <trkpt lat="43.08946" lon="2.57445">
        <ele>256.81</ele>
        <time>2015-09-07T10:16:15Z</time>
      </trkpt>
      <trkpt lat="43.08946" lon="2.57445">
        <ele>257.77</ele>
        <time>2015-09-07T10:16:25Z</time>
      </trkpt>
      <trkpt lat="43.08946" lon="2.57445">
        <ele>256.81</ele>
        <time>2015-09-07T10:17:08Z</time>
      </trkpt>
      <trkpt lat="43.08946" lon="2.57445">
        <ele>256.81</ele>
        <time>2015-09-07T10:17:49Z</time>
      </trkpt>
      <trkpt lat="43.08947" lon="2.57445">
        <ele>256.81</ele>
        <time>2015-09-07T10:18:25Z</time>
      </trkpt>
      <trkpt lat="43.08947" lon="2.57445">
        <ele>256.33</ele>
        <time>2015-09-07T10:19:00Z</time>
      </trkpt>
      <trkpt lat="43.08947" lon="2.57445">
        <ele>256.81</ele>
        <time>2015-09-07T10:19:43Z</time>
      </trkpt>
      <trkpt lat="43.08947" lon="2.57445">
        <ele>256.81</ele>
        <time>2015-09-07T10:20:19Z</time>
      </trkpt>
      <trkpt lat="43.08947" lon="2.57445">
        <ele>256.81</ele>
        <time>2015-09-07T10:20:43Z</time>
      </trkpt>
      <trkpt lat="43.08947" lon="2.57445">
        <ele>257.29</ele>
        <time>2015-09-07T10:21:20Z</time>
      </trkpt>
      <trkpt lat="43.08947" lon="2.57445">
        <ele>257.29</ele>
        <time>2015-09-07T10:21:46Z</time>
      </trkpt>
      <trkpt lat="43.08946" lon="2.57445">
        <ele>257.29</ele>
        <time>2015-09-07T10:22:24Z</time>
      </trkpt>
      <trkpt lat="43.08947" lon="2.57445">
        <ele>257.29</ele>
        <time>2015-09-07T10:23:05Z</time>
      </trkpt>
      <trkpt lat="43.08947" lon="2.57445">
        <ele>257.29</ele>
        <time>2015-09-07T10:23:31Z</time>
      </trkpt>
      <trkpt lat="43.08946" lon="2.57445">
        <ele>257.29</ele>
        <time>2015-09-07T10:23:58Z</time>
      </trkpt>
      <trkpt lat="43.08946" lon="2.57445">
        <ele>257.29</ele>
        <time>2015-09-07T10:24:32Z</time>
      </trkpt>
      <trkpt lat="43.08946" lon="2.57445">
        <ele>257.77</ele>
        <time>2015-09-07T10:24:58Z</time>
      </trkpt>
      <trkpt lat="43.08946" lon="2.57445">
        <ele>257.29</ele>
        <time>2015-09-07T10:25:34Z</time>
      </trkpt>
      <trkpt lat="43.08946" lon="2.57445">
        <ele>257.29</ele>
        <time>2015-09-07T10:26:06Z</time>
      </trkpt>
      <trkpt lat="43.08946" lon="2.57445">
        <ele>257.77</ele>
        <time>2015-09-07T10:26:44Z</time>
      </trkpt>
      <trkpt lat="43.08946" lon="2.57445">
        <ele>257.29</ele>
        <time>2015-09-07T10:27:11Z</time>
      </trkpt>
      <trkpt lat="43.08946" lon="2.57445">
        <ele>256.33</ele>
        <time>2015-09-07T10:27:36Z</time>
      </trkpt>
      <trkpt lat="43.08946" lon="2.57445">
        <ele>257.29</ele>
        <time>2015-09-07T10:28:10Z</time>
      </trkpt>
      <trkpt lat="43.08946" lon="2.57445">
        <ele>257.77</ele>
        <time>2015-09-07T10:28:46Z</time>
      </trkpt>
      <trkpt lat="43.08946" lon="2.57444">
        <ele>257.29</ele>
        <time>2015-09-07T10:29:24Z</time>
      </trkpt>
      <trkpt lat="43.08946" lon="2.57444">
        <ele>257.77</ele>
        <time>2015-09-07T10:29:51Z</time>
      </trkpt>
      <trkpt lat="43.08946" lon="2.57444">
        <ele>256.81</ele>
        <time>2015-09-07T10:30:37Z</time>
      </trkpt>
      <trkpt lat="43.08946" lon="2.57444">
        <ele>256.81</ele>
        <time>2015-09-07T10:31:15Z</time>
      </trkpt>
      <trkpt lat="43.08946" lon="2.57444">
        <ele>256.81</ele>
        <time>2015-09-07T10:31:51Z</time>
      </trkpt>
      <trkpt lat="43.08946" lon="2.57445">
        <ele>256.33</ele>
        <time>2015-09-07T10:32:25Z</time>
      </trkpt>
      <trkpt lat="43.08945" lon="2.57445">
        <ele>256.33</ele>
        <time>2015-09-07T10:32:45Z</time>
      </trkpt>
      <trkpt lat="43.08946" lon="2.57445">
        <ele>256.81</ele>
        <time>2015-09-07T10:33:14Z</time>
      </trkpt>
      <trkpt lat="43.08946" lon="2.57444">
        <ele>256.81</ele>
        <time>2015-09-07T10:33:39Z</time>
      </trkpt>
      <trkpt lat="43.08947" lon="2.57445">
        <ele>256.81</ele>
        <time>2015-09-07T10:34:05Z</time>
      </trkpt>
      <trkpt lat="43.08947" lon="2.57445">
        <ele>256.33</ele>
        <time>2015-09-07T10:34:46Z</time>
      </trkpt>
      <trkpt lat="43.08947" lon="2.57445">
        <ele>256.81</ele>
        <time>2015-09-07T10:35:24Z</time>
      </trkpt>
      <trkpt lat="43.08947" lon="2.57444">
        <ele>257.29</ele>
        <time>2015-09-07T10:36:04Z</time>
      </trkpt>
      <trkpt lat="43.08946" lon="2.57444">
        <ele>256.81</ele>
        <time>2015-09-07T10:36:49Z</time>
      </trkpt>
      <trkpt lat="43.08945" lon="2.57444">
        <ele>256.81</ele>
        <time>2015-09-07T10:37:29Z</time>
      </trkpt>
      <trkpt lat="43.08945" lon="2.57444">
        <ele>256.81</ele>
        <time>2015-09-07T10:37:56Z</time>
      </trkpt>
      <trkpt lat="43.08946" lon="2.57444">
        <ele>257.29</ele>
        <time>2015-09-07T10:38:28Z</time>
      </trkpt>
      <trkpt lat="43.08945" lon="2.57444">
        <ele>257.29</ele>
        <time>2015-09-07T10:39:08Z</time>
      </trkpt>
      <trkpt lat="43.08945" lon="2.57444">
        <ele>257.29</ele>
        <time>2015-09-07T10:39:37Z</time>
      </trkpt>
      <trkpt lat="43.08945" lon="2.57445">
        <ele>256.81</ele>
        <time>2015-09-07T10:40:01Z</time>
      </trkpt>
      <trkpt lat="43.08945" lon="2.57444">
        <ele>256.81</ele>
        <time>2015-09-07T10:40:36Z</time>
      </trkpt>
      <trkpt lat="43.08945" lon="2.57444">
        <ele>256.81</ele>
        <time>2015-09-07T10:41:11Z</time>
      </trkpt>
      <trkpt lat="43.08945" lon="2.57444">
        <ele>257.29</ele>
        <time>2015-09-07T10:41:46Z</time>
      </trkpt>
      <trkpt lat="43.08945" lon="2.57444">
        <ele>257.29</ele>
        <time>2015-09-07T10:42:21Z</time>
      </trkpt>
      <trkpt lat="43.08945" lon="2.57444">
        <ele>257.29</ele>
        <time>2015-09-07T10:42:56Z</time>
      </trkpt>
      <trkpt lat="43.08945" lon="2.57444">
        <ele>257.29</ele>
        <time>2015-09-07T10:43:21Z</time>
      </trkpt>
      <trkpt lat="43.08945" lon="2.57444">
        <ele>258.25</ele>
        <time>2015-09-07T10:43:33Z</time>
      </trkpt>
      <trkpt lat="43.08945" lon="2.57444">
        <ele>258.25</ele>
        <time>2015-09-07T10:43:52Z</time>
      </trkpt>
      <trkpt lat="43.08945" lon="2.57445">
        <ele>258.25</ele>
        <time>2015-09-07T10:44:08Z</time>
      </trkpt>
      <trkpt lat="43.08945" lon="2.57445">
        <ele>258.73</ele>
        <time>2015-09-07T10:44:30Z</time>
      </trkpt>
      <trkpt lat="43.08946" lon="2.57444">
        <ele>258.25</ele>
        <time>2015-09-07T10:44:53Z</time>
      </trkpt>
      <trkpt lat="43.08946" lon="2.57444">
        <ele>258.25</ele>
        <time>2015-09-07T10:45:12Z</time>
      </trkpt>
      <trkpt lat="43.08946" lon="2.57442">
        <ele>257.77</ele>
        <time>2015-09-07T10:45:33Z</time>
      </trkpt>
      <trkpt lat="43.08948" lon="2.57441">
        <ele>261.14</ele>
        <time>2015-09-07T10:45:43Z</time>
      </trkpt>
      <trkpt lat="43.08948" lon="2.57441">
        <ele>257.77</ele>
        <time>2015-09-07T10:45:44Z</time>
      </trkpt>
      <trkpt lat="43.0895" lon="2.5744">
        <ele>257.77</ele>
        <time>2015-09-07T10:46:11Z</time>
      </trkpt>
      <trkpt lat="43.0895" lon="2.57439">
        <ele>257.77</ele>
        <time>2015-09-07T10:46:36Z</time>
      </trkpt>
      <trkpt lat="43.08947" lon="2.57442">
        <ele>257.77</ele>
        <time>2015-09-07T10:46:59Z</time>
      </trkpt>
      <trkpt lat="43.08944" lon="2.57443">
        <ele>257.77</ele>
        <time>2015-09-07T10:47:25Z</time>
      </trkpt>
      <trkpt lat="43.08946" lon="2.57442">
        <ele>257.77</ele>
        <time>2015-09-07T10:47:43Z</time>
      </trkpt>
      <trkpt lat="43.08946" lon="2.57442">
        <ele>257.77</ele>
        <time>2015-09-07T10:48:01Z</time>
      </trkpt>
      <trkpt lat="43.08947" lon="2.57442">
        <ele>258.25</ele>
        <time>2015-09-07T10:48:23Z</time>
      </trkpt>
      <trkpt lat="43.08947" lon="2.57442">
        <ele>258.73</ele>
        <time>2015-09-07T10:48:37Z</time>
      </trkpt>
      <trkpt lat="43.08947" lon="2.57442">
        <ele>258.25</ele>
        <time>2015-09-07T10:48:57Z</time>
      </trkpt>
      <trkpt lat="43.08947" lon="2.57442">
        <ele>258.73</ele>
        <time>2015-09-07T10:49:19Z</time>
      </trkpt>
      <trkpt lat="43.08947" lon="2.57442">
        <ele>259.21</ele>
        <time>2015-09-07T10:49:47Z</time>
      </trkpt>
      <trkpt lat="43.08947" lon="2.57442">
        <ele>258.25</ele>
        <time>2015-09-07T10:49:51Z</time>
      </trkpt>
      <trkpt lat="43.08948" lon="2.57442">
        <ele>258.73</ele>
        <time>2015-09-07T10:50:06Z</time>
      </trkpt>
      <trkpt lat="43.08947" lon="2.57442">
        <ele>258.73</ele>
        <time>2015-09-07T10:50:24Z</time>
      </trkpt>
      <trkpt lat="43.08947" lon="2.57444">
        <ele>257.29</ele>
        <time>2015-09-07T10:50:39Z</time>
      </trkpt>
      <trkpt lat="43.08947" lon="2.57444">
        <ele>258.73</ele>
        <time>2015-09-07T10:50:46Z</time>
      </trkpt>
      <trkpt lat="43.08947" lon="2.57444">
        <ele>258.25</ele>
        <time>2015-09-07T10:51:04Z</time>
      </trkpt>
      <trkpt lat="43.08947" lon="2.57444">
        <ele>257.77</ele>
        <time>2015-09-07T10:51:27Z</time>
      </trkpt>
      <trkpt lat="43.08947" lon="2.57444">
        <ele>256.81</ele>
        <time>2015-09-07T10:51:56Z</time>
      </trkpt>
      <trkpt lat="43.08947" lon="2.57444">
        <ele>257.29</ele>
        <time>2015-09-07T10:52:22Z</time>
      </trkpt>
      <trkpt lat="43.08947" lon="2.57444">
        <ele>257.77</ele>
        <time>2015-09-07T10:52:40Z</time>
      </trkpt>
      <trkpt lat="43.08947" lon="2.57444">
        <ele>257.77</ele>
        <time>2015-09-07T10:52:54Z</time>
      </trkpt>
      <trkpt lat="43.08948" lon="2.57444">
        <ele>257.29</ele>
        <time>2015-09-07T10:53:12Z</time>
      </trkpt>
      <trkpt lat="43.08948" lon="2.57444">
        <ele>257.29</ele>
        <time>2015-09-07T10:53:32Z</time>
      </trkpt>
      <trkpt lat="43.08948" lon="2.57443">
        <ele>257.29</ele>
        <time>2015-09-07T10:53:55Z</time>
      </trkpt>
      <trkpt lat="43.08948" lon="2.57443">
        <ele>258.25</ele>
        <time>2015-09-07T10:54:18Z</time>
      </trkpt>
      <trkpt lat="43.08947" lon="2.57443">
        <ele>257.29</ele>
        <time>2015-09-07T10:54:40Z</time>
      </trkpt>
      <trkpt lat="43.08948" lon="2.57452">
        <ele>256.81</ele>
        <time>2015-09-07T10:55:01Z</time>
      </trkpt>
      <trkpt lat="43.0895" lon="2.57466">
        <ele>256.81</ele>
        <time>2015-09-07T10:55:21Z</time>
      </trkpt>
      <trkpt lat="43.08949" lon="2.57481">
        <ele>257.77</ele>
        <time>2015-09-07T10:55:38Z</time>
      </trkpt>
      <trkpt lat="43.08949" lon="2.57481">
        <ele>257.77</ele>
        <time>2015-09-07T10:55:59Z</time>
      </trkpt>
      <trkpt lat="43.08949" lon="2.57482">
        <ele>258.25</ele>
        <time>2015-09-07T10:56:24Z</time>
      </trkpt>
      <trkpt lat="43.08948" lon="2.57485">
        <ele>258.25</ele>
        <time>2015-09-07T10:56:51Z</time>
      </trkpt>
      <trkpt lat="43.08947" lon="2.57489">
        <ele>257.77</ele>
        <time>2015-09-07T10:57:06Z</time>
      </trkpt>
      <trkpt lat="43.08942" lon="2.575">
        <ele>259.69</ele>
        <time>2015-09-07T10:57:22Z</time>
      </trkpt>
      <trkpt lat="43.08935" lon="2.57506">
        <ele>260.65</ele>
        <time>2015-09-07T10:57:37Z</time>
      </trkpt>
      <trkpt lat="43.08928" lon="2.57521">
        <ele>261.14</ele>
        <time>2015-09-07T10:57:52Z</time>
      </trkpt>
      <trkpt lat="43.08915" lon="2.57541">
        <ele>259.69</ele>
        <time>2015-09-07T10:58:11Z</time>
      </trkpt>
      <trkpt lat="43.08906" lon="2.57552">
        <ele>257.29</ele>
        <time>2015-09-07T10:58:32Z</time>
      </trkpt>
      <trkpt lat="43.08894" lon="2.57567">
        <ele>254.89</ele>
        <time>2015-09-07T10:58:50Z</time>
      </trkpt>
      <trkpt lat="43.08886" lon="2.57581">
        <ele>252.48</ele>
        <time>2015-09-07T10:59:10Z</time>
      </trkpt>
      <trkpt lat="43.08878" lon="2.57601">
        <ele>251.04</ele>
        <time>2015-09-07T10:59:30Z</time>
      </trkpt>
      <trkpt lat="43.0887" lon="2.57624">
        <ele>249.6</ele>
        <time>2015-09-07T10:59:49Z</time>
      </trkpt>
      <trkpt lat="43.08859" lon="2.57651">
        <ele>248.16</ele>
        <time>2015-09-07T11:00:10Z</time>
      </trkpt>
      <trkpt lat="43.08848" lon="2.5767">
        <ele>247.2</ele>
        <time>2015-09-07T11:00:29Z</time>
      </trkpt>
      <trkpt lat="43.08846" lon="2.57671">
        <ele>247.2</ele>
        <time>2015-09-07T11:00:31Z</time>
      </trkpt>
      <trkpt lat="43.08831" lon="2.57683">
        <ele>248.16</ele>
        <time>2015-09-07T11:00:50Z</time>
      </trkpt>
      <trkpt lat="43.08821" lon="2.57686">
        <ele>249.6</ele>
        <time>2015-09-07T11:01:05Z</time>
      </trkpt>
      <trkpt lat="43.08813" lon="2.577">
        <ele>251.52</ele>
        <time>2015-09-07T11:01:23Z</time>
      </trkpt>
      <trkpt lat="43.0881" lon="2.57708">
        <ele>252</ele>
        <time>2015-09-07T11:01:39Z</time>
      </trkpt>
      <trkpt lat="43.08807" lon="2.57713">
        <ele>253.44</ele>
        <time>2015-09-07T11:01:48Z</time>
      </trkpt>
      <trkpt lat="43.088" lon="2.57729">
        <ele>254.41</ele>
        <time>2015-09-07T11:02:03Z</time>
      </trkpt>
      <trkpt lat="43.0879" lon="2.5774">
        <ele>254.41</ele>
        <time>2015-09-07T11:02:18Z</time>
      </trkpt>
      <trkpt lat="43.08783" lon="2.57753">
        <ele>255.85</ele>
        <time>2015-09-07T11:02:34Z</time>
      </trkpt>
      <trkpt lat="43.08778" lon="2.5777">
        <ele>258.73</ele>
        <time>2015-09-07T11:02:54Z</time>
      </trkpt>
      <trkpt lat="43.08777" lon="2.57794">
        <ele>260.17</ele>
        <time>2015-09-07T11:03:14Z</time>
      </trkpt>
      <trkpt lat="43.08772" lon="2.57819">
        <ele>259.21</ele>
        <time>2015-09-07T11:03:35Z</time>
      </trkpt>
      <trkpt lat="43.08768" lon="2.57842">
        <ele>260.65</ele>
        <time>2015-09-07T11:03:55Z</time>
      </trkpt>
      <trkpt lat="43.08764" lon="2.57864">
        <ele>262.58</ele>
        <time>2015-09-07T11:04:13Z</time>
      </trkpt>
      <trkpt lat="43.0876" lon="2.5789">
        <ele>262.1</ele>
        <time>2015-09-07T11:04:33Z</time>
      </trkpt>
      <trkpt lat="43.08753" lon="2.57915">
        <ele>264.02</ele>
        <time>2015-09-07T11:04:54Z</time>
      </trkpt>
      <trkpt lat="43.08744" lon="2.57939">
        <ele>264.98</ele>
        <time>2015-09-07T11:05:15Z</time>
      </trkpt>
      <trkpt lat="43.08729" lon="2.57961">
        <ele>265.94</ele>
        <time>2015-09-07T11:05:38Z</time>
      </trkpt>
      <trkpt lat="43.08719" lon="2.57977">
        <ele>264.5</ele>
        <time>2015-09-07T11:05:56Z</time>
      </trkpt>
      <trkpt lat="43.08704" lon="2.57989">
        <ele>266.42</ele>
        <time>2015-09-07T11:06:17Z</time>
      </trkpt>
      <trkpt lat="43.08699" lon="2.57991">
        <ele>266.42</ele>
        <time>2015-09-07T11:06:23Z</time>
      </trkpt>
      <trkpt lat="43.08684" lon="2.58002">
        <ele>266.9</ele>
        <time>2015-09-07T11:06:43Z</time>
      </trkpt>
      <trkpt lat="43.08668" lon="2.58013">
        <ele>268.83</ele>
        <time>2015-09-07T11:07:02Z</time>
      </trkpt>
      <trkpt lat="43.08664" lon="2.5802">
        <ele>265.46</ele>
        <time>2015-09-07T11:07:09Z</time>
      </trkpt>
      <trkpt lat="43.08663" lon="2.58021">
        <ele>272.67</ele>
        <time>2015-09-07T11:07:10Z</time>
      </trkpt>
      <trkpt lat="43.08646" lon="2.58036">
        <ele>271.23</ele>
        <time>2015-09-07T11:07:31Z</time>
      </trkpt>
      <trkpt lat="43.08632" lon="2.58045">
        <ele>271.23</ele>
        <time>2015-09-07T11:07:48Z</time>
      </trkpt>
      <trkpt lat="43.08627" lon="2.5805">
        <ele>271.23</ele>
        <time>2015-09-07T11:07:54Z</time>
      </trkpt>
      <trkpt lat="43.08607" lon="2.58063">
        <ele>270.75</ele>
        <time>2015-09-07T11:08:15Z</time>
      </trkpt>
      <trkpt lat="43.08594" lon="2.58061">
        <ele>269.79</ele>
        <time>2015-09-07T11:08:29Z</time>
      </trkpt>
      <trkpt lat="43.0858" lon="2.58063">
        <ele>272.19</ele>
        <time>2015-09-07T11:08:48Z</time>
      </trkpt>
      <trkpt lat="43.08563" lon="2.58063">
        <ele>273.15</ele>
        <time>2015-09-07T11:09:09Z</time>
      </trkpt>
      <trkpt lat="43.0855" lon="2.58075">
        <ele>274.11</ele>
        <time>2015-09-07T11:09:25Z</time>
      </trkpt>
      <trkpt lat="43.08535" lon="2.58085">
        <ele>276.04</ele>
        <time>2015-09-07T11:09:44Z</time>
      </trkpt>
      <trkpt lat="43.08526" lon="2.58096">
        <ele>277.96</ele>
        <time>2015-09-07T11:10:02Z</time>
      </trkpt>
      <trkpt lat="43.08518" lon="2.58125">
        <ele>278.44</ele>
        <time>2015-09-07T11:10:19Z</time>
      </trkpt>
      <trkpt lat="43.08512" lon="2.58149">
        <ele>279.88</ele>
        <time>2015-09-07T11:10:34Z</time>
      </trkpt>
      <trkpt lat="43.08503" lon="2.58164">
        <ele>279.88</ele>
        <time>2015-09-07T11:10:50Z</time>
      </trkpt>
      <trkpt lat="43.08499" lon="2.58176">
        <ele>283.25</ele>
        <time>2015-09-07T11:11:03Z</time>
      </trkpt>
      <trkpt lat="43.0849" lon="2.58194">
        <ele>285.65</ele>
        <time>2015-09-07T11:11:24Z</time>
      </trkpt>
      <trkpt lat="43.08485" lon="2.58212">
        <ele>287.57</ele>
        <time>2015-09-07T11:11:43Z</time>
      </trkpt>
      <trkpt lat="43.08481" lon="2.58232">
        <ele>289.97</ele>
        <time>2015-09-07T11:12:06Z</time>
      </trkpt>
      <trkpt lat="43.08474" lon="2.58246">
        <ele>292.86</ele>
        <time>2015-09-07T11:12:24Z</time>
      </trkpt>
      <trkpt lat="43.08468" lon="2.58266">
        <ele>293.82</ele>
        <time>2015-09-07T11:12:40Z</time>
      </trkpt>
      <trkpt lat="43.08464" lon="2.58276">
        <ele>293.34</ele>
        <time>2015-09-07T11:12:55Z</time>
      </trkpt>
      <trkpt lat="43.08463" lon="2.58283">
        <ele>295.74</ele>
        <time>2015-09-07T11:13:14Z</time>
      </trkpt>
      <trkpt lat="43.08459" lon="2.58295">
        <ele>297.18</ele>
        <time>2015-09-07T11:13:24Z</time>
      </trkpt>
      <trkpt lat="43.08459" lon="2.58308">
        <ele>300.55</ele>
        <time>2015-09-07T11:13:44Z</time>
      </trkpt>
      <trkpt lat="43.08458" lon="2.5833">
        <ele>301.51</ele>
        <time>2015-09-07T11:14:02Z</time>
      </trkpt>
      <trkpt lat="43.08463" lon="2.58348">
        <ele>303.43</ele>
        <time>2015-09-07T11:14:20Z</time>
      </trkpt>
      <trkpt lat="43.08464" lon="2.58367">
        <ele>305.84</ele>
        <time>2015-09-07T11:14:39Z</time>
      </trkpt>
      <trkpt lat="43.08466" lon="2.58381">
        <ele>306.8</ele>
        <time>2015-09-07T11:14:52Z</time>
      </trkpt>
      <trkpt lat="43.0847" lon="2.58394">
        <ele>305.84</ele>
        <time>2015-09-07T11:15:02Z</time>
      </trkpt>
      <trkpt lat="43.08477" lon="2.58417">
        <ele>307.28</ele>
        <time>2015-09-07T11:15:20Z</time>
      </trkpt>
      <trkpt lat="43.08476" lon="2.58439">
        <ele>309.2</ele>
        <time>2015-09-07T11:15:40Z</time>
      </trkpt>
      <trkpt lat="43.08482" lon="2.58455">
        <ele>310.64</ele>
        <time>2015-09-07T11:15:59Z</time>
      </trkpt>
      <trkpt lat="43.08481" lon="2.58448">
        <ele>310.64</ele>
        <time>2015-09-07T11:16:20Z</time>
      </trkpt>
      <trkpt lat="43.0848" lon="2.58448">
        <ele>311.6</ele>
        <time>2015-09-07T11:16:21Z</time>
      </trkpt>
      <trkpt lat="43.0846" lon="2.58454">
        <ele>311.6</ele>
        <time>2015-09-07T11:16:43Z</time>
      </trkpt>
      <trkpt lat="43.08475" lon="2.58452">
        <ele>307.76</ele>
        <time>2015-09-07T11:16:57Z</time>
      </trkpt>
      <trkpt lat="43.0848" lon="2.58451">
        <ele>312.09</ele>
        <time>2015-09-07T11:16:59Z</time>
      </trkpt>
      <trkpt lat="43.08492" lon="2.58448">
        <ele>311.12</ele>
        <time>2015-09-07T11:17:05Z</time>
      </trkpt>
      <trkpt lat="43.08494" lon="2.58448">
        <ele>312.09</ele>
        <time>2015-09-07T11:17:10Z</time>
      </trkpt>
      <trkpt lat="43.08494" lon="2.58449">
        <ele>306.8</ele>
        <time>2015-09-07T11:17:20Z</time>
      </trkpt>
      <trkpt lat="43.08494" lon="2.5845">
        <ele>311.6</ele>
        <time>2015-09-07T11:17:21Z</time>
      </trkpt>
      <trkpt lat="43.08484" lon="2.58452">
        <ele>311.6</ele>
        <time>2015-09-07T11:17:44Z</time>
      </trkpt>
      <trkpt lat="43.08487" lon="2.58468">
        <ele>311.12</ele>
        <time>2015-09-07T11:18:01Z</time>
      </trkpt>
      <trkpt lat="43.08493" lon="2.5849">
        <ele>314.49</ele>
        <time>2015-09-07T11:18:22Z</time>
      </trkpt>
      <trkpt lat="43.08493" lon="2.58491">
        <ele>314.49</ele>
        <time>2015-09-07T11:18:23Z</time>
      </trkpt>
      <trkpt lat="43.08499" lon="2.5851">
        <ele>315.45</ele>
        <time>2015-09-07T11:18:41Z</time>
      </trkpt>
      <trkpt lat="43.08499" lon="2.58518">
        <ele>315.45</ele>
        <time>2015-09-07T11:18:57Z</time>
      </trkpt>
      <trkpt lat="43.08501" lon="2.58514">
        <ele>316.41</ele>
        <time>2015-09-07T11:19:16Z</time>
      </trkpt>
      <trkpt lat="43.08499" lon="2.58517">
        <ele>318.33</ele>
        <time>2015-09-07T11:19:34Z</time>
      </trkpt>
      <trkpt lat="43.08498" lon="2.58518">
        <ele>317.85</ele>
        <time>2015-09-07T11:19:37Z</time>
      </trkpt>
      <trkpt lat="43.085" lon="2.58505">
        <ele>315.45</ele>
        <time>2015-09-07T11:19:53Z</time>
      </trkpt>
      <trkpt lat="43.085" lon="2.58512">
        <ele>316.89</ele>
        <time>2015-09-07T11:20:10Z</time>
      </trkpt>
      <trkpt lat="43.085" lon="2.58519">
        <ele>316.89</ele>
        <time>2015-09-07T11:20:14Z</time>
      </trkpt>
      <trkpt lat="43.08499" lon="2.5855">
        <ele>315.45</ele>
        <time>2015-09-07T11:20:29Z</time>
      </trkpt>
      <trkpt lat="43.08504" lon="2.58567">
        <ele>315.93</ele>
        <time>2015-09-07T11:20:40Z</time>
      </trkpt>
      <trkpt lat="43.08508" lon="2.58587">
        <ele>314.49</ele>
        <time>2015-09-07T11:20:46Z</time>
      </trkpt>
      <trkpt lat="43.08511" lon="2.58606">
        <ele>314.49</ele>
        <time>2015-09-07T11:20:52Z</time>
      </trkpt>
      <trkpt lat="43.08517" lon="2.58626">
        <ele>314.49</ele>
        <time>2015-09-07T11:21:05Z</time>
      </trkpt>
      <trkpt lat="43.08521" lon="2.58629">
        <ele>314.01</ele>
        <time>2015-09-07T11:21:33Z</time>
      </trkpt>
      <trkpt lat="43.08524" lon="2.58644">
        <ele>314.01</ele>
        <time>2015-09-07T11:21:50Z</time>
      </trkpt>
      <trkpt lat="43.0853" lon="2.5867">
        <ele>313.05</ele>
        <time>2015-09-07T11:22:07Z</time>
      </trkpt>
      <trkpt lat="43.08537" lon="2.58692">
        <ele>312.09</ele>
        <time>2015-09-07T11:22:22Z</time>
      </trkpt>
      <trkpt lat="43.08544" lon="2.58719">
        <ele>311.12</ele>
        <time>2015-09-07T11:22:39Z</time>
      </trkpt>
      <trkpt lat="43.0855" lon="2.58749">
        <ele>311.6</ele>
        <time>2015-09-07T11:22:56Z</time>
      </trkpt>
      <trkpt lat="43.08551" lon="2.58753">
        <ele>311.12</ele>
        <time>2015-09-07T11:22:59Z</time>
      </trkpt>
      <trkpt lat="43.08553" lon="2.5876">
        <ele>311.6</ele>
        <time>2015-09-07T11:23:03Z</time>
      </trkpt>
      <trkpt lat="43.0856" lon="2.58783">
        <ele>311.12</ele>
        <time>2015-09-07T11:23:17Z</time>
      </trkpt>
      <trkpt lat="43.08561" lon="2.58788">
        <ele>309.68</ele>
        <time>2015-09-07T11:23:20Z</time>
      </trkpt>
      <trkpt lat="43.08563" lon="2.58795">
        <ele>311.6</ele>
        <time>2015-09-07T11:23:24Z</time>
      </trkpt>
      <trkpt lat="43.08564" lon="2.58801">
        <ele>311.12</ele>
        <time>2015-09-07T11:23:27Z</time>
      </trkpt>
      <trkpt lat="43.08566" lon="2.58809">
        <ele>309.2</ele>
        <time>2015-09-07T11:23:32Z</time>
      </trkpt>
      <trkpt lat="43.08573" lon="2.58841">
        <ele>309.2</ele>
        <time>2015-09-07T11:23:51Z</time>
      </trkpt>
      <trkpt lat="43.08578" lon="2.58865">
        <ele>305.84</ele>
        <time>2015-09-07T11:24:06Z</time>
      </trkpt>
      <trkpt lat="43.08579" lon="2.58866">
        <ele>308.72</ele>
        <time>2015-09-07T11:24:07Z</time>
      </trkpt>
      <trkpt lat="43.08581" lon="2.5888">
        <ele>306.8</ele>
        <time>2015-09-07T11:24:16Z</time>
      </trkpt>
      <trkpt lat="43.08581" lon="2.58891">
        <ele>307.28</ele>
        <time>2015-09-07T11:24:22Z</time>
      </trkpt>
      <trkpt lat="43.08581" lon="2.58906">
        <ele>306.32</ele>
        <time>2015-09-07T11:24:31Z</time>
      </trkpt>
      <trkpt lat="43.08579" lon="2.58916">
        <ele>306.32</ele>
        <time>2015-09-07T11:24:42Z</time>
      </trkpt>
      <trkpt lat="43.08578" lon="2.5893">
        <ele>306.32</ele>
        <time>2015-09-07T11:24:54Z</time>
      </trkpt>
      <trkpt lat="43.08577" lon="2.58963">
        <ele>304.39</ele>
        <time>2015-09-07T11:25:12Z</time>
      </trkpt>
      <trkpt lat="43.08576" lon="2.58995">
        <ele>304.39</ele>
        <time>2015-09-07T11:25:29Z</time>
      </trkpt>
      <trkpt lat="43.08577" lon="2.59021">
        <ele>305.36</ele>
        <time>2015-09-07T11:25:43Z</time>
      </trkpt>
      <trkpt lat="43.08576" lon="2.59052">
        <ele>304.88</ele>
        <time>2015-09-07T11:25:58Z</time>
      </trkpt>
      <trkpt lat="43.08576" lon="2.59055">
        <ele>303.91</ele>
        <time>2015-09-07T11:25:59Z</time>
      </trkpt>
      <trkpt lat="43.08576" lon="2.59096">
        <ele>303.43</ele>
        <time>2015-09-07T11:26:20Z</time>
      </trkpt>
      <trkpt lat="43.08575" lon="2.59129">
        <ele>303.43</ele>
        <time>2015-09-07T11:26:37Z</time>
      </trkpt>
      <trkpt lat="43.08575" lon="2.59161">
        <ele>303.43</ele>
        <time>2015-09-07T11:26:53Z</time>
      </trkpt>
      <trkpt lat="43.08574" lon="2.59192">
        <ele>304.39</ele>
        <time>2015-09-07T11:27:12Z</time>
      </trkpt>
      <trkpt lat="43.08572" lon="2.59231">
        <ele>303.91</ele>
        <time>2015-09-07T11:27:33Z</time>
      </trkpt>
      <trkpt lat="43.08569" lon="2.59259">
        <ele>304.39</ele>
        <time>2015-09-07T11:27:49Z</time>
      </trkpt>
      <trkpt lat="43.0856" lon="2.59288">
        <ele>303.91</ele>
        <time>2015-09-07T11:28:07Z</time>
      </trkpt>
      <trkpt lat="43.08556" lon="2.59313">
        <ele>302.47</ele>
        <time>2015-09-07T11:28:22Z</time>
      </trkpt>
      <trkpt lat="43.08548" lon="2.59344">
        <ele>301.51</ele>
        <time>2015-09-07T11:28:40Z</time>
      </trkpt>
      <trkpt lat="43.08541" lon="2.59372">
        <ele>301.99</ele>
        <time>2015-09-07T11:28:58Z</time>
      </trkpt>
      <trkpt lat="43.08538" lon="2.59391">
        <ele>301.03</ele>
        <time>2015-09-07T11:29:12Z</time>
      </trkpt>
      <trkpt lat="43.08542" lon="2.59402">
        <ele>301.51</ele>
        <time>2015-09-07T11:29:20Z</time>
      </trkpt>
      <trkpt lat="43.08564" lon="2.59407">
        <ele>301.03</ele>
        <time>2015-09-07T11:29:39Z</time>
      </trkpt>
      <trkpt lat="43.08577" lon="2.59408">
        <ele>298.15</ele>
        <time>2015-09-07T11:29:58Z</time>
      </trkpt>
      <trkpt lat="43.08588" lon="2.59413">
        <ele>298.15</ele>
        <time>2015-09-07T11:30:06Z</time>
      </trkpt>
      <trkpt lat="43.08605" lon="2.59442">
        <ele>297.18</ele>
        <time>2015-09-07T11:30:27Z</time>
      </trkpt>
      <trkpt lat="43.0861" lon="2.59469">
        <ele>295.26</ele>
        <time>2015-09-07T11:30:44Z</time>
      </trkpt>
      <trkpt lat="43.0861" lon="2.59472">
        <ele>294.78</ele>
        <time>2015-09-07T11:30:46Z</time>
      </trkpt>
      <trkpt lat="43.08606" lon="2.59497">
        <ele>295.26</ele>
        <time>2015-09-07T11:31:02Z</time>
      </trkpt>
      <trkpt lat="43.08602" lon="2.59523">
        <ele>294.3</ele>
        <time>2015-09-07T11:31:19Z</time>
      </trkpt>
      <trkpt lat="43.08603" lon="2.59523">
        <ele>294.3</ele>
        <time>2015-09-07T11:31:33Z</time>
      </trkpt>
      <trkpt lat="43.08603" lon="2.59525">
        <ele>294.3</ele>
        <time>2015-09-07T11:31:35Z</time>
      </trkpt>
      <trkpt lat="43.08603" lon="2.59558">
        <ele>293.34</ele>
        <time>2015-09-07T11:31:54Z</time>
      </trkpt>
      <trkpt lat="43.08602" lon="2.59589">
        <ele>293.34</ele>
        <time>2015-09-07T11:32:14Z</time>
      </trkpt>
      <trkpt lat="43.08602" lon="2.59621">
        <ele>291.9</ele>
        <time>2015-09-07T11:32:34Z</time>
      </trkpt>
      <trkpt lat="43.08602" lon="2.59644">
        <ele>291.42</ele>
        <time>2015-09-07T11:32:50Z</time>
      </trkpt>
      <trkpt lat="43.08604" lon="2.5967">
        <ele>289.97</ele>
        <time>2015-09-07T11:33:07Z</time>
      </trkpt>
      <trkpt lat="43.08607" lon="2.59705">
        <ele>288.53</ele>
        <time>2015-09-07T11:33:30Z</time>
      </trkpt>
      <trkpt lat="43.08608" lon="2.59715">
        <ele>288.53</ele>
        <time>2015-09-07T11:33:48Z</time>
      </trkpt>
      <trkpt lat="43.08608" lon="2.5972">
        <ele>288.05</ele>
        <time>2015-09-07T11:34:05Z</time>
      </trkpt>
      <trkpt lat="43.08608" lon="2.59717">
        <ele>288.05</ele>
        <time>2015-09-07T11:34:17Z</time>
      </trkpt>
      <trkpt lat="43.08609" lon="2.5974">
        <ele>288.05</ele>
        <time>2015-09-07T11:34:32Z</time>
      </trkpt>
      <trkpt lat="43.08608" lon="2.59769">
        <ele>285.65</ele>
        <time>2015-09-07T11:34:48Z</time>
      </trkpt>
      <trkpt lat="43.08609" lon="2.59806">
        <ele>284.21</ele>
        <time>2015-09-07T11:35:08Z</time>
      </trkpt>
      <trkpt lat="43.08613" lon="2.59809">
        <ele>284.21</ele>
        <time>2015-09-07T11:35:25Z</time>
      </trkpt>
      <trkpt lat="43.0861" lon="2.5982">
        <ele>284.21</ele>
        <time>2015-09-07T11:35:37Z</time>
      </trkpt>
      <trkpt lat="43.08611" lon="2.5982">
        <ele>283.25</ele>
        <time>2015-09-07T11:35:53Z</time>
      </trkpt>
      <trkpt lat="43.08615" lon="2.5981">
        <ele>286.61</ele>
        <time>2015-09-07T11:36:09Z</time>
      </trkpt>
      <trkpt lat="43.08615" lon="2.5981">
        <ele>283.25</ele>
        <time>2015-09-07T11:36:10Z</time>
      </trkpt>
      <trkpt lat="43.08615" lon="2.5981">
        <ele>286.13</ele>
        <time>2015-09-07T11:36:11Z</time>
      </trkpt>
      <trkpt lat="43.08615" lon="2.59809">
        <ele>284.21</ele>
        <time>2015-09-07T11:36:21Z</time>
      </trkpt>
      <trkpt lat="43.08622" lon="2.59801">
        <ele>284.21</ele>
        <time>2015-09-07T11:36:33Z</time>
      </trkpt>
      <trkpt lat="43.08631" lon="2.59796">
        <ele>286.61</ele>
        <time>2015-09-07T11:36:41Z</time>
      </trkpt>
      <trkpt lat="43.08647" lon="2.59787">
        <ele>287.57</ele>
        <time>2015-09-07T11:36:56Z</time>
      </trkpt>
      <trkpt lat="43.08658" lon="2.59792">
        <ele>288.53</ele>
        <time>2015-09-07T11:37:06Z</time>
      </trkpt>
      <trkpt lat="43.08665" lon="2.59812">
        <ele>287.09</ele>
        <time>2015-09-07T11:37:22Z</time>
      </trkpt>
      <trkpt lat="43.08667" lon="2.5982">
        <ele>288.05</ele>
        <time>2015-09-07T11:37:27Z</time>
      </trkpt>
      <trkpt lat="43.08669" lon="2.59828">
        <ele>286.13</ele>
        <time>2015-09-07T11:37:32Z</time>
      </trkpt>
      <trkpt lat="43.08683" lon="2.59857">
        <ele>286.13</ele>
        <time>2015-09-07T11:37:55Z</time>
      </trkpt>
      <trkpt lat="43.08688" lon="2.59877">
        <ele>286.13</ele>
        <time>2015-09-07T11:38:12Z</time>
      </trkpt>
      <trkpt lat="43.08695" lon="2.5991">
        <ele>285.17</ele>
        <time>2015-09-07T11:38:33Z</time>
      </trkpt>
      <trkpt lat="43.08696" lon="2.59925">
        <ele>283.73</ele>
        <time>2015-09-07T11:38:42Z</time>
      </trkpt>
      <trkpt lat="43.08697" lon="2.5993">
        <ele>283.25</ele>
        <time>2015-09-07T11:38:45Z</time>
      </trkpt>
      <trkpt lat="43.08698" lon="2.59935">
        <ele>284.69</ele>
        <time>2015-09-07T11:38:48Z</time>
      </trkpt>
      <trkpt lat="43.08703" lon="2.59963">
        <ele>283.73</ele>
        <time>2015-09-07T11:39:05Z</time>
      </trkpt>
      <trkpt lat="43.08705" lon="2.59966">
        <ele>282.77</ele>
        <time>2015-09-07T11:39:08Z</time>
      </trkpt>
      <trkpt lat="43.08712" lon="2.59971">
        <ele>282.77</ele>
        <time>2015-09-07T11:39:22Z</time>
      </trkpt>
      <trkpt lat="43.08714" lon="2.59974">
        <ele>282.77</ele>
        <time>2015-09-07T11:39:30Z</time>
      </trkpt>
      <trkpt lat="43.08714" lon="2.59978">
        <ele>284.21</ele>
        <time>2015-09-07T11:39:33Z</time>
      </trkpt>
      <trkpt lat="43.08715" lon="2.59996">
        <ele>283.73</ele>
        <time>2015-09-07T11:39:46Z</time>
      </trkpt>
      <trkpt lat="43.08716" lon="2.59998">
        <ele>282.77</ele>
        <time>2015-09-07T11:39:49Z</time>
      </trkpt>
      <trkpt lat="43.08716" lon="2.60004">
        <ele>283.25</ele>
        <time>2015-09-07T11:39:58Z</time>
      </trkpt>
      <trkpt lat="43.08716" lon="2.60005">
        <ele>282.28</ele>
        <time>2015-09-07T11:40:00Z</time>
      </trkpt>
      <trkpt lat="43.08717" lon="2.60002">
        <ele>281.32</ele>
        <time>2015-09-07T11:40:03Z</time>
      </trkpt>
      <trkpt lat="43.08724" lon="2.59994">
        <ele>280.84</ele>
        <time>2015-09-07T11:40:15Z</time>
      </trkpt>
      <trkpt lat="43.08725" lon="2.59994">
        <ele>279.88</ele>
        <time>2015-09-07T11:40:39Z</time>
      </trkpt>
      <trkpt lat="43.08726" lon="2.59995">
        <ele>279.4</ele>
        <time>2015-09-07T11:40:45Z</time>
      </trkpt>
      <trkpt lat="43.08727" lon="2.59993">
        <ele>277</ele>
        <time>2015-09-07T11:40:57Z</time>
      </trkpt>
      <trkpt lat="43.08728" lon="2.59993">
        <ele>281.32</ele>
        <time>2015-09-07T11:40:58Z</time>
      </trkpt>
      <trkpt lat="43.08727" lon="2.59993">
        <ele>279.88</ele>
        <time>2015-09-07T11:40:59Z</time>
      </trkpt>
      <trkpt lat="43.08727" lon="2.59993">
        <ele>280.84</ele>
        <time>2015-09-07T11:41:13Z</time>
      </trkpt>
      <trkpt lat="43.08727" lon="2.59993">
        <ele>279.4</ele>
        <time>2015-09-07T11:41:28Z</time>
      </trkpt>
      <trkpt lat="43.08727" lon="2.59994">
        <ele>279.4</ele>
        <time>2015-09-07T11:41:43Z</time>
      </trkpt>
      <trkpt lat="43.08726" lon="2.59994">
        <ele>279.88</ele>
        <time>2015-09-07T11:42:12Z</time>
      </trkpt>
      <trkpt lat="43.08725" lon="2.59994">
        <ele>281.32</ele>
        <time>2015-09-07T11:42:30Z</time>
      </trkpt>
      <trkpt lat="43.08724" lon="2.59995">
        <ele>281.32</ele>
        <time>2015-09-07T11:42:53Z</time>
      </trkpt>
      <trkpt lat="43.08724" lon="2.59997">
        <ele>281.8</ele>
        <time>2015-09-07T11:43:09Z</time>
      </trkpt>
      <trkpt lat="43.08724" lon="2.59998">
        <ele>282.77</ele>
        <time>2015-09-07T11:43:28Z</time>
      </trkpt>
      <trkpt lat="43.08723" lon="2.59998">
        <ele>281.32</ele>
        <time>2015-09-07T11:43:31Z</time>
      </trkpt>
      <trkpt lat="43.08722" lon="2.59999">
        <ele>281.32</ele>
        <time>2015-09-07T11:43:55Z</time>
      </trkpt>
      <trkpt lat="43.08722" lon="2.6">
        <ele>280.84</ele>
        <time>2015-09-07T11:44:18Z</time>
      </trkpt>
      <trkpt lat="43.0872" lon="2.60001">
        <ele>279.88</ele>
        <time>2015-09-07T11:44:34Z</time>
      </trkpt>
      <trkpt lat="43.08719" lon="2.60002">
        <ele>280.84</ele>
        <time>2015-09-07T11:44:59Z</time>
      </trkpt>
      <trkpt lat="43.0872" lon="2.60013">
        <ele>281.32</ele>
        <time>2015-09-07T11:45:18Z</time>
      </trkpt>
      <trkpt lat="43.08721" lon="2.60042">
        <ele>280.36</ele>
        <time>2015-09-07T11:45:36Z</time>
      </trkpt>
      <trkpt lat="43.08727" lon="2.6007">
        <ele>279.88</ele>
        <time>2015-09-07T11:45:53Z</time>
      </trkpt>
      <trkpt lat="43.08735" lon="2.60094">
        <ele>281.32</ele>
        <time>2015-09-07T11:46:11Z</time>
      </trkpt>
      <trkpt lat="43.08745" lon="2.60125">
        <ele>281.8</ele>
        <time>2015-09-07T11:46:32Z</time>
      </trkpt>
      <trkpt lat="43.08757" lon="2.60151">
        <ele>280.84</ele>
        <time>2015-09-07T11:46:49Z</time>
      </trkpt>
      <trkpt lat="43.08771" lon="2.60173">
        <ele>280.36</ele>
        <time>2015-09-07T11:47:07Z</time>
      </trkpt>
      <trkpt lat="43.08774" lon="2.60182">
        <ele>281.8</ele>
        <time>2015-09-07T11:47:13Z</time>
      </trkpt>
      <trkpt lat="43.08778" lon="2.60196">
        <ele>280.36</ele>
        <time>2015-09-07T11:47:22Z</time>
      </trkpt>
      <trkpt lat="43.0878" lon="2.60201">
        <ele>279.88</ele>
        <time>2015-09-07T11:47:26Z</time>
      </trkpt>
      <trkpt lat="43.08782" lon="2.60204">
        <ele>280.36</ele>
        <time>2015-09-07T11:47:28Z</time>
      </trkpt>
      <trkpt lat="43.08785" lon="2.60213">
        <ele>281.8</ele>
        <time>2015-09-07T11:47:34Z</time>
      </trkpt>
      <trkpt lat="43.08798" lon="2.60233">
        <ele>284.21</ele>
        <time>2015-09-07T11:47:51Z</time>
      </trkpt>
      <trkpt lat="43.08813" lon="2.60252">
        <ele>283.73</ele>
        <time>2015-09-07T11:48:10Z</time>
      </trkpt>
      <trkpt lat="43.08818" lon="2.60263">
        <ele>284.21</ele>
        <time>2015-09-07T11:48:19Z</time>
      </trkpt>
      <trkpt lat="43.08819" lon="2.60267">
        <ele>283.25</ele>
        <time>2015-09-07T11:48:21Z</time>
      </trkpt>
      <trkpt lat="43.08818" lon="2.60274">
        <ele>282.77</ele>
        <time>2015-09-07T11:48:26Z</time>
      </trkpt>
      <trkpt lat="43.08817" lon="2.6029">
        <ele>282.77</ele>
        <time>2015-09-07T11:48:37Z</time>
      </trkpt>
      <trkpt lat="43.08831" lon="2.60323">
        <ele>281.8</ele>
        <time>2015-09-07T11:48:59Z</time>
      </trkpt>
      <trkpt lat="43.08842" lon="2.60346">
        <ele>281.32</ele>
        <time>2015-09-07T11:49:18Z</time>
      </trkpt>
      <trkpt lat="43.08854" lon="2.60373">
        <ele>278.92</ele>
        <time>2015-09-07T11:49:38Z</time>
      </trkpt>
      <trkpt lat="43.08862" lon="2.60405">
        <ele>279.88</ele>
        <time>2015-09-07T11:49:58Z</time>
      </trkpt>
      <trkpt lat="43.08869" lon="2.60438">
        <ele>279.88</ele>
        <time>2015-09-07T11:50:19Z</time>
      </trkpt>
      <trkpt lat="43.08879" lon="2.6047">
        <ele>279.4</ele>
        <time>2015-09-07T11:50:40Z</time>
      </trkpt>
      <trkpt lat="43.08886" lon="2.605">
        <ele>279.4</ele>
        <time>2015-09-07T11:51:01Z</time>
      </trkpt>
      <trkpt lat="43.08891" lon="2.60526">
        <ele>278.92</ele>
        <time>2015-09-07T11:51:19Z</time>
      </trkpt>
      <trkpt lat="43.08891" lon="2.60556">
        <ele>277.96</ele>
        <time>2015-09-07T11:51:38Z</time>
      </trkpt>
      <trkpt lat="43.08893" lon="2.60582">
        <ele>277</ele>
        <time>2015-09-07T11:51:55Z</time>
      </trkpt>
      <trkpt lat="43.08891" lon="2.60609">
        <ele>274.59</ele>
        <time>2015-09-07T11:52:13Z</time>
      </trkpt>
      <trkpt lat="43.08892" lon="2.60633">
        <ele>273.63</ele>
        <time>2015-09-07T11:52:32Z</time>
      </trkpt>
      <trkpt lat="43.0889" lon="2.60665">
        <ele>273.15</ele>
        <time>2015-09-07T11:52:53Z</time>
      </trkpt>
      <trkpt lat="43.08889" lon="2.60696">
        <ele>270.27</ele>
        <time>2015-09-07T11:53:14Z</time>
      </trkpt>
      <trkpt lat="43.08885" lon="2.60716">
        <ele>272.67</ele>
        <time>2015-09-07T11:53:33Z</time>
      </trkpt>
      <trkpt lat="43.08882" lon="2.60718">
        <ele>269.31</ele>
        <time>2015-09-07T11:53:41Z</time>
      </trkpt>
      <trkpt lat="43.08881" lon="2.60714">
        <ele>270.27</ele>
        <time>2015-09-07T11:53:59Z</time>
      </trkpt>
      <trkpt lat="43.08886" lon="2.60716">
        <ele>270.75</ele>
        <time>2015-09-07T11:54:12Z</time>
      </trkpt>
      <trkpt lat="43.08886" lon="2.60718">
        <ele>270.75</ele>
        <time>2015-09-07T11:54:27Z</time>
      </trkpt>
      <trkpt lat="43.08885" lon="2.60717">
        <ele>270.75</ele>
        <time>2015-09-07T11:54:42Z</time>
      </trkpt>
      <trkpt lat="43.08886" lon="2.60716">
        <ele>270.75</ele>
        <time>2015-09-07T11:55:02Z</time>
      </trkpt>
      <trkpt lat="43.08887" lon="2.60722">
        <ele>268.83</ele>
        <time>2015-09-07T11:55:22Z</time>
      </trkpt>
      <trkpt lat="43.08891" lon="2.6074">
        <ele>267.86</ele>
        <time>2015-09-07T11:55:42Z</time>
      </trkpt>
      <trkpt lat="43.08897" lon="2.60766">
        <ele>265.94</ele>
        <time>2015-09-07T11:56:02Z</time>
      </trkpt>
      <trkpt lat="43.08898" lon="2.60785">
        <ele>264.02</ele>
        <time>2015-09-07T11:56:19Z</time>
      </trkpt>
      <trkpt lat="43.08901" lon="2.60814">
        <ele>262.1</ele>
        <time>2015-09-07T11:56:40Z</time>
      </trkpt>
      <trkpt lat="43.08905" lon="2.60834">
        <ele>260.17</ele>
        <time>2015-09-07T11:56:58Z</time>
      </trkpt>
      <trkpt lat="43.08909" lon="2.60855">
        <ele>257.77</ele>
        <time>2015-09-07T11:57:14Z</time>
      </trkpt>
      <trkpt lat="43.0891" lon="2.60869">
        <ele>256.81</ele>
        <time>2015-09-07T11:57:30Z</time>
      </trkpt>
      <trkpt lat="43.0891" lon="2.60874">
        <ele>256.33</ele>
        <time>2015-09-07T11:57:36Z</time>
      </trkpt>
      <trkpt lat="43.0891" lon="2.60887">
        <ele>253.44</ele>
        <time>2015-09-07T11:57:49Z</time>
      </trkpt>
      <trkpt lat="43.08908" lon="2.60908">
        <ele>251.04</ele>
        <time>2015-09-07T11:58:07Z</time>
      </trkpt>
      <trkpt lat="43.08904" lon="2.6093">
        <ele>248.64</ele>
        <time>2015-09-07T11:58:26Z</time>
      </trkpt>
      <trkpt lat="43.08895" lon="2.60946">
        <ele>246.23</ele>
        <time>2015-09-07T11:58:44Z</time>
      </trkpt>
      <trkpt lat="43.08888" lon="2.60973">
        <ele>244.31</ele>
        <time>2015-09-07T11:59:03Z</time>
      </trkpt>
      <trkpt lat="43.08883" lon="2.60996">
        <ele>242.39</ele>
        <time>2015-09-07T11:59:20Z</time>
      </trkpt>
      <trkpt lat="43.08881" lon="2.61019">
        <ele>241.91</ele>
        <time>2015-09-07T11:59:42Z</time>
      </trkpt>
      <trkpt lat="43.08881" lon="2.61036">
        <ele>242.39</ele>
        <time>2015-09-07T12:00:01Z</time>
      </trkpt>
      <trkpt lat="43.08887" lon="2.61058">
        <ele>243.83</ele>
        <time>2015-09-07T12:00:18Z</time>
      </trkpt>
      <trkpt lat="43.08892" lon="2.6108">
        <ele>243.35</ele>
        <time>2015-09-07T12:00:37Z</time>
      </trkpt>
      <trkpt lat="43.08895" lon="2.61108">
        <ele>240.95</ele>
        <time>2015-09-07T12:00:59Z</time>
      </trkpt>
      <trkpt lat="43.08905" lon="2.61131">
        <ele>239.51</ele>
        <time>2015-09-07T12:01:21Z</time>
      </trkpt>
      <trkpt lat="43.08913" lon="2.61147">
        <ele>239.02</ele>
        <time>2015-09-07T12:01:39Z</time>
      </trkpt>
      <trkpt lat="43.08915" lon="2.61145">
        <ele>238.06</ele>
        <time>2015-09-07T12:01:46Z</time>
      </trkpt>
      <trkpt lat="43.08913" lon="2.61146">
        <ele>239.51</ele>
        <time>2015-09-07T12:02:00Z</time>
      </trkpt>
      <trkpt lat="43.08919" lon="2.61169">
        <ele>235.66</ele>
        <time>2015-09-07T12:02:15Z</time>
      </trkpt>
      <trkpt lat="43.08926" lon="2.61198">
        <ele>233.74</ele>
        <time>2015-09-07T12:02:32Z</time>
      </trkpt>
      <trkpt lat="43.08938" lon="2.61221">
        <ele>231.33</ele>
        <time>2015-09-07T12:02:50Z</time>
      </trkpt>
      <trkpt lat="43.08941" lon="2.61244">
        <ele>229.41</ele>
        <time>2015-09-07T12:03:11Z</time>
      </trkpt>
      <trkpt lat="43.08944" lon="2.61269">
        <ele>227.01</ele>
        <time>2015-09-07T12:03:31Z</time>
      </trkpt>
      <trkpt lat="43.08955" lon="2.61282">
        <ele>224.61</ele>
        <time>2015-09-07T12:03:50Z</time>
      </trkpt>
      <trkpt lat="43.08966" lon="2.61297">
        <ele>223.16</ele>
        <time>2015-09-07T12:04:09Z</time>
      </trkpt>
      <trkpt lat="43.08977" lon="2.61308">
        <ele>220.28</ele>
        <time>2015-09-07T12:04:26Z</time>
      </trkpt>
      <trkpt lat="43.08987" lon="2.6132">
        <ele>218.36</ele>
        <time>2015-09-07T12:04:44Z</time>
      </trkpt>
      <trkpt lat="43.08994" lon="2.61331">
        <ele>216.43</ele>
        <time>2015-09-07T12:04:58Z</time>
      </trkpt>
      <trkpt lat="43.09003" lon="2.6135">
        <ele>213.07</ele>
        <time>2015-09-07T12:05:18Z</time>
      </trkpt>
      <trkpt lat="43.09009" lon="2.61355">
        <ele>212.11</ele>
        <time>2015-09-07T12:05:37Z</time>
      </trkpt>
      <trkpt lat="43.09015" lon="2.6137">
        <ele>209.7</ele>
        <time>2015-09-07T12:05:57Z</time>
      </trkpt>
      <trkpt lat="43.09019" lon="2.61381">
        <ele>207.78</ele>
        <time>2015-09-07T12:06:15Z</time>
      </trkpt>
      <trkpt lat="43.09014" lon="2.61393">
        <ele>206.34</ele>
        <time>2015-09-07T12:06:33Z</time>
      </trkpt>
      <trkpt lat="43.09008" lon="2.61397">
        <ele>205.38</ele>
        <time>2015-09-07T12:06:45Z</time>
      </trkpt>
      <trkpt lat="43.09013" lon="2.61401">
        <ele>203.94</ele>
        <time>2015-09-07T12:06:59Z</time>
      </trkpt>
      <trkpt lat="43.09015" lon="2.61403">
        <ele>203.94</ele>
        <time>2015-09-07T12:07:19Z</time>
      </trkpt>
      <trkpt lat="43.09018" lon="2.61404">
        <ele>203.94</ele>
        <time>2015-09-07T12:07:35Z</time>
      </trkpt>
      <trkpt lat="43.09018" lon="2.61404">
        <ele>203.94</ele>
        <time>2015-09-07T12:08:00Z</time>
      </trkpt>
      <trkpt lat="43.09018" lon="2.61403">
        <ele>203.46</ele>
        <time>2015-09-07T12:08:29Z</time>
      </trkpt>
      <trkpt lat="43.09014" lon="2.61403">
        <ele>203.94</ele>
        <time>2015-09-07T12:08:51Z</time>
      </trkpt>
      <trkpt lat="43.09016" lon="2.61406">
        <ele>203.94</ele>
        <time>2015-09-07T12:09:16Z</time>
      </trkpt>
      <trkpt lat="43.09018" lon="2.61406">
        <ele>204.42</ele>
        <time>2015-09-07T12:09:38Z</time>
      </trkpt>
      <trkpt lat="43.09017" lon="2.61405">
        <ele>203.94</ele>
        <time>2015-09-07T12:09:56Z</time>
      </trkpt>
      <trkpt lat="43.09017" lon="2.61402">
        <ele>204.9</ele>
        <time>2015-09-07T12:10:18Z</time>
      </trkpt>
      <trkpt lat="43.09018" lon="2.614">
        <ele>205.86</ele>
        <time>2015-09-07T12:10:44Z</time>
      </trkpt>
      <trkpt lat="43.09018" lon="2.614">
        <ele>205.38</ele>
        <time>2015-09-07T12:11:11Z</time>
      </trkpt>
      <trkpt lat="43.09018" lon="2.61399">
        <ele>206.34</ele>
        <time>2015-09-07T12:11:34Z</time>
      </trkpt>
      <trkpt lat="43.09018" lon="2.61399">
        <ele>201.05</ele>
        <time>2015-09-07T12:11:39Z</time>
      </trkpt>
      <trkpt lat="43.09018" lon="2.61399">
        <ele>204.42</ele>
        <time>2015-09-07T12:11:40Z</time>
      </trkpt>
      <trkpt lat="43.09018" lon="2.61399">
        <ele>205.86</ele>
        <time>2015-09-07T12:11:42Z</time>
      </trkpt>
      <trkpt lat="43.0902" lon="2.614">
        <ele>208.74</ele>
        <time>2015-09-07T12:11:50Z</time>
      </trkpt>
      <trkpt lat="43.09021" lon="2.61399">
        <ele>205.86</ele>
        <time>2015-09-07T12:11:51Z</time>
      </trkpt>
      <trkpt lat="43.09021" lon="2.61395">
        <ele>205.86</ele>
        <time>2015-09-07T12:12:14Z</time>
      </trkpt>
      <trkpt lat="43.0902" lon="2.61393">
        <ele>205.86</ele>
        <time>2015-09-07T12:12:36Z</time>
      </trkpt>
      <trkpt lat="43.09019" lon="2.6139">
        <ele>206.34</ele>
        <time>2015-09-07T12:13:04Z</time>
      </trkpt>
      <trkpt lat="43.0902" lon="2.61389">
        <ele>205.38</ele>
        <time>2015-09-07T12:13:34Z</time>
      </trkpt>
      <trkpt lat="43.0902" lon="2.61388">
        <ele>206.34</ele>
        <time>2015-09-07T12:13:58Z</time>
      </trkpt>
      <trkpt lat="43.0902" lon="2.61387">
        <ele>205.38</ele>
        <time>2015-09-07T12:14:26Z</time>
      </trkpt>
      <trkpt lat="43.09021" lon="2.61389">
        <ele>205.86</ele>
        <time>2015-09-07T12:14:49Z</time>
      </trkpt>
      <trkpt lat="43.09022" lon="2.61389">
        <ele>204.9</ele>
        <time>2015-09-07T12:15:16Z</time>
      </trkpt>
      <trkpt lat="43.09022" lon="2.61388">
        <ele>204.9</ele>
        <time>2015-09-07T12:15:39Z</time>
      </trkpt>
      <trkpt lat="43.09024" lon="2.61389">
        <ele>201.53</ele>
        <time>2015-09-07T12:16:01Z</time>
      </trkpt>
      <trkpt lat="43.09025" lon="2.61392">
        <ele>199.61</ele>
        <time>2015-09-07T12:16:20Z</time>
      </trkpt>
      <trkpt lat="43.09034" lon="2.61404">
        <ele>197.21</ele>
        <time>2015-09-07T12:16:41Z</time>
      </trkpt>
      <trkpt lat="43.09053" lon="2.61428">
        <ele>196.25</ele>
        <time>2015-09-07T12:16:59Z</time>
      </trkpt>
      <trkpt lat="43.09065" lon="2.61438">
        <ele>192.88</ele>
        <time>2015-09-07T12:17:13Z</time>
      </trkpt>
      <trkpt lat="43.09083" lon="2.6145">
        <ele>190.96</ele>
        <time>2015-09-07T12:17:34Z</time>
      </trkpt>
      <trkpt lat="43.09092" lon="2.61468">
        <ele>189.04</ele>
        <time>2015-09-07T12:17:55Z</time>
      </trkpt>
      <trkpt lat="43.09097" lon="2.6148">
        <ele>186.15</ele>
        <time>2015-09-07T12:18:12Z</time>
      </trkpt>
      <trkpt lat="43.09103" lon="2.61487">
        <ele>184.71</ele>
        <time>2015-09-07T12:18:32Z</time>
      </trkpt>
      <trkpt lat="43.09115" lon="2.61504">
        <ele>181.83</ele>
        <time>2015-09-07T12:18:54Z</time>
      </trkpt>
      <trkpt lat="43.09122" lon="2.61513">
        <ele>178.94</ele>
        <time>2015-09-07T12:19:09Z</time>
      </trkpt>
      <trkpt lat="43.0913" lon="2.61526">
        <ele>177.02</ele>
        <time>2015-09-07T12:19:28Z</time>
      </trkpt>
      <trkpt lat="43.0914" lon="2.61544">
        <ele>173.17</ele>
        <time>2015-09-07T12:19:51Z</time>
      </trkpt>
      <trkpt lat="43.09149" lon="2.61557">
        <ele>170.77</ele>
        <time>2015-09-07T12:20:11Z</time>
      </trkpt>
      <trkpt lat="43.09155" lon="2.61573">
        <ele>168.85</ele>
        <time>2015-09-07T12:20:30Z</time>
      </trkpt>
      <trkpt lat="43.0916" lon="2.61588">
        <ele>166.45</ele>
        <time>2015-09-07T12:20:51Z</time>
      </trkpt>
      <trkpt lat="43.09169" lon="2.616">
        <ele>163.56</ele>
        <time>2015-09-07T12:21:07Z</time>
      </trkpt>
      <trkpt lat="43.09174" lon="2.61617">
        <ele>161.64</ele>
        <time>2015-09-07T12:21:30Z</time>
      </trkpt>
      <trkpt lat="43.09179" lon="2.61633">
        <ele>160.68</ele>
        <time>2015-09-07T12:21:47Z</time>
      </trkpt>
      <trkpt lat="43.09186" lon="2.6165">
        <ele>157.79</ele>
        <time>2015-09-07T12:22:08Z</time>
      </trkpt>
      <trkpt lat="43.09185" lon="2.61658">
        <ele>156.83</ele>
        <time>2015-09-07T12:22:28Z</time>
      </trkpt>
      <trkpt lat="43.09187" lon="2.61661">
        <ele>157.31</ele>
        <time>2015-09-07T12:22:44Z</time>
      </trkpt>
      <trkpt lat="43.09186" lon="2.61661">
        <ele>155.87</ele>
        <time>2015-09-07T12:23:04Z</time>
      </trkpt>
      <trkpt lat="43.0919" lon="2.61664">
        <ele>154.91</ele>
        <time>2015-09-07T12:23:10Z</time>
      </trkpt>
      <trkpt lat="43.09199" lon="2.61681">
        <ele>152.03</ele>
        <time>2015-09-07T12:23:24Z</time>
      </trkpt>
      <trkpt lat="43.09201" lon="2.61684">
        <ele>152.99</ele>
        <time>2015-09-07T12:23:29Z</time>
      </trkpt>
      <trkpt lat="43.09214" lon="2.61696">
        <ele>148.66</ele>
        <time>2015-09-07T12:23:44Z</time>
      </trkpt>
      <trkpt lat="43.09223" lon="2.61706">
        <ele>145.3</ele>
        <time>2015-09-07T12:24:00Z</time>
      </trkpt>
      <trkpt lat="43.09225" lon="2.61715">
        <ele>142.89</ele>
        <time>2015-09-07T12:24:18Z</time>
      </trkpt>
      <trkpt lat="43.09225" lon="2.61716">
        <ele>142.41</ele>
        <time>2015-09-07T12:24:38Z</time>
      </trkpt>
      <trkpt lat="43.09228" lon="2.61724">
        <ele>140.97</ele>
        <time>2015-09-07T12:24:56Z</time>
      </trkpt>
      <trkpt lat="43.09228" lon="2.61734">
        <ele>140.01</ele>
        <time>2015-09-07T12:25:02Z</time>
      </trkpt>
      <trkpt lat="43.09229" lon="2.61752">
        <ele>137.61</ele>
        <time>2015-09-07T12:25:19Z</time>
      </trkpt>
      <trkpt lat="43.09231" lon="2.61765">
        <ele>137.61</ele>
        <time>2015-09-07T12:25:37Z</time>
      </trkpt>
      <trkpt lat="43.09232" lon="2.61766">
        <ele>136.16</ele>
        <time>2015-09-07T12:25:39Z</time>
      </trkpt>
      <trkpt lat="43.09234" lon="2.61774">
        <ele>134.24</ele>
        <time>2015-09-07T12:25:49Z</time>
      </trkpt>
      <trkpt lat="43.09234" lon="2.61776">
        <ele>134.72</ele>
        <time>2015-09-07T12:25:51Z</time>
      </trkpt>
      <trkpt lat="43.09238" lon="2.61791">
        <ele>132.8</ele>
        <time>2015-09-07T12:26:07Z</time>
      </trkpt>
      <trkpt lat="43.09237" lon="2.61798">
        <ele>133.76</ele>
        <time>2015-09-07T12:26:20Z</time>
      </trkpt>
      <trkpt lat="43.09237" lon="2.618">
        <ele>130.4</ele>
        <time>2015-09-07T12:26:35Z</time>
      </trkpt>
      <trkpt lat="43.0924" lon="2.61802">
        <ele>130.4</ele>
        <time>2015-09-07T12:26:49Z</time>
      </trkpt>
      <trkpt lat="43.09242" lon="2.61801">
        <ele>130.88</ele>
        <time>2015-09-07T12:27:07Z</time>
      </trkpt>
      <trkpt lat="43.09242" lon="2.61804">
        <ele>128.95</ele>
        <time>2015-09-07T12:27:23Z</time>
      </trkpt>
      <trkpt lat="43.09242" lon="2.61804">
        <ele>128.47</ele>
        <time>2015-09-07T12:27:40Z</time>
      </trkpt>
      <trkpt lat="43.09242" lon="2.61804">
        <ele>127.03</ele>
        <time>2015-09-07T12:27:43Z</time>
      </trkpt>
      <trkpt lat="43.09241" lon="2.61805">
        <ele>127.51</ele>
        <time>2015-09-07T12:27:45Z</time>
      </trkpt>
      <trkpt lat="43.09237" lon="2.61811">
        <ele>127.03</ele>
        <time>2015-09-07T12:27:52Z</time>
      </trkpt>
      <trkpt lat="43.09235" lon="2.61815">
        <ele>127.99</ele>
        <time>2015-09-07T12:28:05Z</time>
      </trkpt>
      <trkpt lat="43.09226" lon="2.61798">
        <ele>127.03</ele>
        <time>2015-09-07T12:28:21Z</time>
      </trkpt>
      <trkpt lat="43.09221" lon="2.61795">
        <ele>127.03</ele>
        <time>2015-09-07T12:28:35Z</time>
      </trkpt>
      <trkpt lat="43.09221" lon="2.61795">
        <ele>126.07</ele>
        <time>2015-09-07T12:28:51Z</time>
      </trkpt>
      <trkpt lat="43.09215" lon="2.61781">
        <ele>125.59</ele>
        <time>2015-09-07T12:29:07Z</time>
      </trkpt>
      <trkpt lat="43.0921" lon="2.61775">
        <ele>127.03</ele>
        <time>2015-09-07T12:29:27Z</time>
      </trkpt>
      <trkpt lat="43.09209" lon="2.61773">
        <ele>125.59</ele>
        <time>2015-09-07T12:29:46Z</time>
      </trkpt>
      <trkpt lat="43.09209" lon="2.61773">
        <ele>126.07</ele>
        <time>2015-09-07T12:30:08Z</time>
      </trkpt>
      <trkpt lat="43.09211" lon="2.61762">
        <ele>125.59</ele>
        <time>2015-09-07T12:30:31Z</time>
      </trkpt>
      <trkpt lat="43.09196" lon="2.61746">
        <ele>126.55</ele>
        <time>2015-09-07T12:30:47Z</time>
      </trkpt>
      <trkpt lat="43.09183" lon="2.61735">
        <ele>125.59</ele>
        <time>2015-09-07T12:31:09Z</time>
      </trkpt>
      <trkpt lat="43.09164" lon="2.6173">
        <ele>126.55</ele>
        <time>2015-09-07T12:31:22Z</time>
      </trkpt>
      <trkpt lat="43.09154" lon="2.61724">
        <ele>126.07</ele>
        <time>2015-09-07T12:31:29Z</time>
      </trkpt>
      <trkpt lat="43.09146" lon="2.61718">
        <ele>127.99</ele>
        <time>2015-09-07T12:31:43Z</time>
      </trkpt>
      <trkpt lat="43.09147" lon="2.61703">
        <ele>128.95</ele>
        <time>2015-09-07T12:32:01Z</time>
      </trkpt>
      <trkpt lat="43.0915" lon="2.61697">
        <ele>128.47</ele>
        <time>2015-09-07T12:32:18Z</time>
      </trkpt>
      <trkpt lat="43.09153" lon="2.61696">
        <ele>129.43</ele>
        <time>2015-09-07T12:32:32Z</time>
      </trkpt>
      <trkpt lat="43.09163" lon="2.61705">
        <ele>128.47</ele>
        <time>2015-09-07T12:32:47Z</time>
      </trkpt>
      <trkpt lat="43.09165" lon="2.61709">
        <ele>128.95</ele>
        <time>2015-09-07T12:33:03Z</time>
      </trkpt>
      <trkpt lat="43.09166" lon="2.61706">
        <ele>128.95</ele>
        <time>2015-09-07T12:33:24Z</time>
      </trkpt>
      <trkpt lat="43.09167" lon="2.61705">
        <ele>128.47</ele>
        <time>2015-09-07T12:33:47Z</time>
      </trkpt>
      <trkpt lat="43.09168" lon="2.61707">
        <ele>129.43</ele>
        <time>2015-09-07T12:34:07Z</time>
      </trkpt>
      <trkpt lat="43.09166" lon="2.61705">
        <ele>126.55</ele>
        <time>2015-09-07T12:34:30Z</time>
      </trkpt>
      <trkpt lat="43.09161" lon="2.61702">
        <ele>129.43</ele>
        <time>2015-09-07T12:34:46Z</time>
      </trkpt>
      <trkpt lat="43.0916" lon="2.61701">
        <ele>126.07</ele>
        <time>2015-09-07T12:34:57Z</time>
      </trkpt>
      <trkpt lat="43.0916" lon="2.61701">
        <ele>127.99</ele>
        <time>2015-09-07T12:35:14Z</time>
      </trkpt>
      <trkpt lat="43.09151" lon="2.61695">
        <ele>126.07</ele>
        <time>2015-09-07T12:35:30Z</time>
      </trkpt>
      <trkpt lat="43.09143" lon="2.61706">
        <ele>126.55</ele>
        <time>2015-09-07T12:35:44Z</time>
      </trkpt>
      <trkpt lat="43.09141" lon="2.6171">
        <ele>125.11</ele>
        <time>2015-09-07T12:35:58Z</time>
      </trkpt>
      <trkpt lat="43.09146" lon="2.61719">
        <ele>122.71</ele>
        <time>2015-09-07T12:36:16Z</time>
      </trkpt>
      <trkpt lat="43.09137" lon="2.6172">
        <ele>123.19</ele>
        <time>2015-09-07T12:36:29Z</time>
      </trkpt>
      <trkpt lat="43.09134" lon="2.61718">
        <ele>123.19</ele>
        <time>2015-09-07T12:36:32Z</time>
      </trkpt>
      <trkpt lat="43.09127" lon="2.61714">
        <ele>122.22</ele>
        <time>2015-09-07T12:36:38Z</time>
      </trkpt>
      <trkpt lat="43.09116" lon="2.617">
        <ele>123.19</ele>
        <time>2015-09-07T12:36:54Z</time>
      </trkpt>
      <trkpt lat="43.09112" lon="2.61707">
        <ele>123.67</ele>
        <time>2015-09-07T12:37:06Z</time>
      </trkpt>
      <trkpt lat="43.09108" lon="2.61708">
        <ele>122.22</ele>
        <time>2015-09-07T12:37:15Z</time>
      </trkpt>
      <trkpt lat="43.09099" lon="2.61709">
        <ele>122.71</ele>
        <time>2015-09-07T12:37:27Z</time>
      </trkpt>
      <trkpt lat="43.09097" lon="2.61707">
        <ele>121.74</ele>
        <time>2015-09-07T12:37:43Z</time>
      </trkpt>
      <trkpt lat="43.09111" lon="2.61708">
        <ele>122.71</ele>
        <time>2015-09-07T12:37:57Z</time>
      </trkpt>
      <trkpt lat="43.09115" lon="2.61713">
        <ele>124.15</ele>
        <time>2015-09-07T12:38:11Z</time>
      </trkpt>
      <trkpt lat="43.09118" lon="2.61707">
        <ele>123.67</ele>
        <time>2015-09-07T12:38:32Z</time>
      </trkpt>
      <trkpt lat="43.09121" lon="2.61716">
        <ele>124.15</ele>
        <time>2015-09-07T12:38:44Z</time>
      </trkpt>
      <trkpt lat="43.09121" lon="2.61716">
        <ele>127.03</ele>
        <time>2015-09-07T12:38:45Z</time>
      </trkpt>
      <trkpt lat="43.09121" lon="2.61717">
        <ele>123.19</ele>
        <time>2015-09-07T12:38:46Z</time>
      </trkpt>
      <trkpt lat="43.09112" lon="2.61734">
        <ele>122.22</ele>
        <time>2015-09-07T12:39:02Z</time>
      </trkpt>
      <trkpt lat="43.09108" lon="2.61739">
        <ele>122.71</ele>
        <time>2015-09-07T12:39:05Z</time>
      </trkpt>
      <trkpt lat="43.09088" lon="2.61758">
        <ele>120.3</ele>
        <time>2015-09-07T12:39:24Z</time>
      </trkpt>
      <trkpt lat="43.09083" lon="2.61759">
        <ele>120.3</ele>
        <time>2015-09-07T12:39:29Z</time>
      </trkpt>
      <trkpt lat="43.09066" lon="2.61759">
        <ele>121.26</ele>
        <time>2015-09-07T12:39:43Z</time>
      </trkpt>
      <trkpt lat="43.09051" lon="2.61763">
        <ele>120.3</ele>
        <time>2015-09-07T12:39:57Z</time>
      </trkpt>
      <trkpt lat="43.09034" lon="2.61772">
        <ele>120.78</ele>
        <time>2015-09-07T12:40:12Z</time>
      </trkpt>
      <trkpt lat="43.09018" lon="2.61778">
        <ele>120.3</ele>
        <time>2015-09-07T12:40:27Z</time>
      </trkpt>
      <trkpt lat="43.08998" lon="2.61784">
        <ele>120.3</ele>
        <time>2015-09-07T12:40:44Z</time>
      </trkpt>
      <trkpt lat="43.08982" lon="2.61787">
        <ele>121.26</ele>
        <time>2015-09-07T12:40:59Z</time>
      </trkpt>
      <trkpt lat="43.08961" lon="2.61784">
        <ele>120.3</ele>
        <time>2015-09-07T12:41:16Z</time>
      </trkpt>
      <trkpt lat="43.0895" lon="2.61784">
        <ele>121.26</ele>
        <time>2015-09-07T12:41:26Z</time>
      </trkpt>
      <trkpt lat="43.0895" lon="2.61795">
        <ele>118.86</ele>
        <time>2015-09-07T12:41:35Z</time>
      </trkpt>
      <trkpt lat="43.08944" lon="2.61816">
        <ele>116.46</ele>
        <time>2015-09-07T12:41:49Z</time>
      </trkpt>
      <trkpt lat="43.08943" lon="2.61831">
        <ele>116.46</ele>
        <time>2015-09-07T12:42:00Z</time>
      </trkpt>
      <trkpt lat="43.08942" lon="2.61841">
        <ele>116.94</ele>
        <time>2015-09-07T12:42:13Z</time>
      </trkpt>
      <trkpt lat="43.08942" lon="2.61843">
        <ele>117.9</ele>
        <time>2015-09-07T12:42:15Z</time>
      </trkpt>
      <trkpt lat="43.08942" lon="2.61852">
        <ele>116.94</ele>
        <time>2015-09-07T12:42:24Z</time>
      </trkpt>
      <trkpt lat="43.08953" lon="2.61868">
        <ele>117.42</ele>
        <time>2015-09-07T12:42:41Z</time>
      </trkpt>
      <trkpt lat="43.08964" lon="2.6187">
        <ele>117.42</ele>
        <time>2015-09-07T12:42:56Z</time>
      </trkpt>
      <trkpt lat="43.08964" lon="2.6187">
        <ele>114.05</ele>
        <time>2015-09-07T12:43:00Z</time>
      </trkpt>
      <trkpt lat="43.08968" lon="2.61871">
        <ele>116.94</ele>
        <time>2015-09-07T12:43:04Z</time>
      </trkpt>
      <trkpt lat="43.08971" lon="2.6187">
        <ele>116.94</ele>
        <time>2015-09-07T12:43:22Z</time>
      </trkpt>
      <trkpt lat="43.08971" lon="2.61867">
        <ele>115.98</ele>
        <time>2015-09-07T12:43:40Z</time>
      </trkpt>
      <trkpt lat="43.08977" lon="2.61868">
        <ele>116.94</ele>
        <time>2015-09-07T12:43:49Z</time>
      </trkpt>
      <trkpt lat="43.08983" lon="2.61863">
        <ele>115.5</ele>
        <time>2015-09-07T12:44:05Z</time>
      </trkpt>
      <trkpt lat="43.08989" lon="2.61866">
        <ele>114.53</ele>
        <time>2015-09-07T12:44:23Z</time>
      </trkpt>
      <trkpt lat="43.0899" lon="2.61866">
        <ele>115.98</ele>
        <time>2015-09-07T12:44:26Z</time>
      </trkpt>
      <trkpt lat="43.0899" lon="2.61865">
        <ele>115.5</ele>
        <time>2015-09-07T12:44:46Z</time>
      </trkpt>
      <trkpt lat="43.0899" lon="2.61866">
        <ele>115.5</ele>
        <time>2015-09-07T12:45:01Z</time>
      </trkpt>
      <trkpt lat="43.08991" lon="2.61866">
        <ele>116.46</ele>
        <time>2015-09-07T12:45:03Z</time>
      </trkpt>
      <trkpt lat="43.09002" lon="2.61861">
        <ele>116.46</ele>
        <time>2015-09-07T12:45:18Z</time>
      </trkpt>
      <trkpt lat="43.09017" lon="2.6186">
        <ele>118.86</ele>
        <time>2015-09-07T12:45:36Z</time>
      </trkpt>
      <trkpt lat="43.09029" lon="2.61858">
        <ele>120.3</ele>
        <time>2015-09-07T12:45:51Z</time>
      </trkpt>
      <trkpt lat="43.09032" lon="2.61863">
        <ele>119.82</ele>
        <time>2015-09-07T12:46:06Z</time>
      </trkpt>
      <trkpt lat="43.09049" lon="2.61863">
        <ele>120.3</ele>
        <time>2015-09-07T12:46:21Z</time>
      </trkpt>
      <trkpt lat="43.0905" lon="2.61859">
        <ele>120.78</ele>
        <time>2015-09-07T12:46:28Z</time>
      </trkpt>
      <trkpt lat="43.09057" lon="2.61856">
        <ele>121.74</ele>
        <time>2015-09-07T12:46:43Z</time>
      </trkpt>
      <trkpt lat="43.09061" lon="2.61855">
        <ele>120.3</ele>
        <time>2015-09-07T12:46:46Z</time>
      </trkpt>
      <trkpt lat="43.09064" lon="2.61852">
        <ele>119.34</ele>
        <time>2015-09-07T12:46:54Z</time>
      </trkpt>
      <trkpt lat="43.09064" lon="2.61851">
        <ele>121.74</ele>
        <time>2015-09-07T12:46:57Z</time>
      </trkpt>
      <trkpt lat="43.09064" lon="2.61851">
        <ele>119.82</ele>
        <time>2015-09-07T12:47:05Z</time>
      </trkpt>
      <trkpt lat="43.09075" lon="2.61853">
        <ele>121.26</ele>
        <time>2015-09-07T12:47:19Z</time>
      </trkpt>
      <trkpt lat="43.09086" lon="2.61849">
        <ele>122.22</ele>
        <time>2015-09-07T12:47:32Z</time>
      </trkpt>
      <trkpt lat="43.09087" lon="2.61846">
        <ele>120.78</ele>
        <time>2015-09-07T12:47:37Z</time>
      </trkpt>
      <trkpt lat="43.09099" lon="2.61842">
        <ele>121.26</ele>
        <time>2015-09-07T12:47:54Z</time>
      </trkpt>
      <trkpt lat="43.09104" lon="2.61845">
        <ele>122.22</ele>
        <time>2015-09-07T12:48:09Z</time>
      </trkpt>
      <trkpt lat="43.09129" lon="2.61871">
        <ele>120.78</ele>
        <time>2015-09-07T12:48:44Z</time>
      </trkpt>
      <trkpt lat="43.09138" lon="2.61875">
        <ele>122.22</ele>
        <time>2015-09-07T12:49:01Z</time>
      </trkpt>
      <trkpt lat="43.0914" lon="2.61876">
        <ele>122.22</ele>
        <time>2015-09-07T12:49:24Z</time>
      </trkpt>
      <trkpt lat="43.09151" lon="2.61875">
        <ele>122.71</ele>
        <time>2015-09-07T12:49:47Z</time>
      </trkpt>
      <trkpt lat="43.09162" lon="2.61874">
        <ele>122.22</ele>
        <time>2015-09-07T12:50:06Z</time>
      </trkpt>
      <trkpt lat="43.09181" lon="2.61882">
        <ele>120.78</ele>
        <time>2015-09-07T12:50:27Z</time>
      </trkpt>
      <trkpt lat="43.09203" lon="2.61891">
        <ele>121.26</ele>
        <time>2015-09-07T12:50:42Z</time>
      </trkpt>
      <trkpt lat="43.09205" lon="2.61883">
        <ele>121.26</ele>
        <time>2015-09-07T12:50:56Z</time>
      </trkpt>
      <trkpt lat="43.09207" lon="2.61882">
        <ele>120.78</ele>
        <time>2015-09-07T12:51:19Z</time>
      </trkpt>
      <trkpt lat="43.09206" lon="2.61883">
        <ele>119.82</ele>
        <time>2015-09-07T12:51:40Z</time>
      </trkpt>
      <trkpt lat="43.09204" lon="2.61884">
        <ele>118.38</ele>
        <time>2015-09-07T12:51:47Z</time>
      </trkpt>
      <trkpt lat="43.09203" lon="2.61885">
        <ele>118.86</ele>
        <time>2015-09-07T12:51:51Z</time>
      </trkpt>
      <trkpt lat="43.09244" lon="2.61887">
        <ele>119.82</ele>
        <time>2015-09-07T12:52:07Z</time>
      </trkpt>
      <trkpt lat="43.09241" lon="2.61893">
        <ele>119.82</ele>
        <time>2015-09-07T12:52:25Z</time>
      </trkpt>
      <trkpt lat="43.09242" lon="2.61884">
        <ele>120.3</ele>
        <time>2015-09-07T12:52:45Z</time>
      </trkpt>
      <trkpt lat="43.09243" lon="2.61882">
        <ele>120.78</ele>
        <time>2015-09-07T12:52:46Z</time>
      </trkpt>
      <trkpt lat="43.09264" lon="2.61852">
        <ele>120.3</ele>
        <time>2015-09-07T12:53:17Z</time>
      </trkpt>
      <trkpt lat="43.09261" lon="2.61868">
        <ele>120.78</ele>
        <time>2015-09-07T12:53:33Z</time>
      </trkpt>
      <trkpt lat="43.09253" lon="2.61907">
        <ele>119.82</ele>
        <time>2015-09-07T12:53:45Z</time>
      </trkpt>
      <trkpt lat="43.09267" lon="2.61918">
        <ele>119.82</ele>
        <time>2015-09-07T12:54:07Z</time>
      </trkpt>
      <trkpt lat="43.09267" lon="2.6192">
        <ele>119.82</ele>
        <time>2015-09-07T12:54:26Z</time>
      </trkpt>
      <trkpt lat="43.09282" lon="2.61926">
        <ele>120.3</ele>
        <time>2015-09-07T12:54:41Z</time>
      </trkpt>
      <trkpt lat="43.09284" lon="2.61927">
        <ele>120.3</ele>
        <time>2015-09-07T12:55:00Z</time>
      </trkpt>
      <trkpt lat="43.09284" lon="2.61928">
        <ele>120.78</ele>
        <time>2015-09-07T12:55:18Z</time>
      </trkpt>
      <trkpt lat="43.09285" lon="2.61928">
        <ele>120.3</ele>
        <time>2015-09-07T12:55:41Z</time>
      </trkpt>
      <trkpt lat="43.09284" lon="2.61929">
        <ele>120.3</ele>
        <time>2015-09-07T12:56:12Z</time>
      </trkpt>
      <trkpt lat="43.09284" lon="2.61927">
        <ele>123.19</ele>
        <time>2015-09-07T12:56:33Z</time>
      </trkpt>
      <trkpt lat="43.09284" lon="2.61927">
        <ele>119.82</ele>
        <time>2015-09-07T12:56:37Z</time>
      </trkpt>
      <trkpt lat="43.09284" lon="2.61927">
        <ele>123.19</ele>
        <time>2015-09-07T12:56:38Z</time>
      </trkpt>
      <trkpt lat="43.09284" lon="2.61927">
        <ele>120.3</ele>
        <time>2015-09-07T12:56:41Z</time>
      </trkpt>
      <trkpt lat="43.09284" lon="2.61927">
        <ele>120.3</ele>
        <time>2015-09-07T12:56:57Z</time>
      </trkpt>
      <trkpt lat="43.09288" lon="2.61926">
        <ele>120.3</ele>
        <time>2015-09-07T12:57:14Z</time>
      </trkpt>
      <trkpt lat="43.09285" lon="2.61923">
        <ele>120.3</ele>
        <time>2015-09-07T12:57:34Z</time>
      </trkpt>
      <trkpt lat="43.09297" lon="2.61966">
        <ele>121.74</ele>
        <time>2015-09-07T12:57:50Z</time>
      </trkpt>
      <trkpt lat="43.09297" lon="2.61985">
        <ele>122.71</ele>
        <time>2015-09-07T12:58:08Z</time>
      </trkpt>
      <trkpt lat="43.09298" lon="2.6199">
        <ele>122.71</ele>
        <time>2015-09-07T12:58:28Z</time>
      </trkpt>
      <trkpt lat="43.09295" lon="2.61999">
        <ele>123.67</ele>
        <time>2015-09-07T12:58:47Z</time>
      </trkpt>
      <trkpt lat="43.09292" lon="2.6201">
        <ele>122.71</ele>
        <time>2015-09-07T12:59:11Z</time>
      </trkpt>
      <trkpt lat="43.09293" lon="2.62011">
        <ele>123.67</ele>
        <time>2015-09-07T12:59:35Z</time>
      </trkpt>
      <trkpt lat="43.09295" lon="2.62013">
        <ele>123.19</ele>
        <time>2015-09-07T12:59:51Z</time>
      </trkpt>
      <trkpt lat="43.09294" lon="2.62013">
        <ele>122.71</ele>
        <time>2015-09-07T13:00:13Z</time>
      </trkpt>
      <trkpt lat="43.09294" lon="2.62014">
        <ele>121.74</ele>
        <time>2015-09-07T13:00:33Z</time>
      </trkpt>
      <trkpt lat="43.09293" lon="2.62017">
        <ele>122.71</ele>
        <time>2015-09-07T13:00:53Z</time>
      </trkpt>
      <trkpt lat="43.09292" lon="2.62019">
        <ele>119.34</ele>
        <time>2015-09-07T13:01:02Z</time>
      </trkpt>
      <trkpt lat="43.09292" lon="2.62019">
        <ele>123.19</ele>
        <time>2015-09-07T13:01:03Z</time>
      </trkpt>
    </trkseg>
  </trk>
</gpx>